<?xml version="1.0" encoding="UTF-8" standalone="no" ?>
<gpx xmlns="http://www.topografix.com/GPX/1/1" xmlns:xsi="http://www.w3.org/2001/XMLSchema-instance" xsi:schemaLocation="http://www.topografix.com/GPX/1/1 http://www.topografix.com/GPX/1/1/gpx.xsd" version="1.1" creator="VisuGPX - https://www.visugpx.com">
  <metadata>
    <name>Peyruse-le-roc</name>
  </metadata>
  <trk>
    <name><![CDATA[2022-10-30_135011--Peyruse-le-roc]]></name>
    <extensions>
      <line xmlns="http://www.topografix.com/GPX/gpx_style/0/2">
        <width>3</width>
      </line>
    </extensions>
    <trkseg>
      <trkpt lat="44.49525" lon="2.14136">
        <ele>442.1</ele>
        <time>2022-10-30T12:50:11.000Z</time>
      </trkpt>
      <trkpt lat="44.49525" lon="2.14135">
        <ele>442.2</ele>
        <time>2022-10-30T12:50:12.000Z</time>
      </trkpt>
      <trkpt lat="44.4953" lon="2.14123">
        <ele>442.2</ele>
        <time>2022-10-30T12:50:21.000Z</time>
      </trkpt>
      <trkpt lat="44.4953" lon="2.14123">
        <ele>442.2</ele>
        <time>2022-10-30T12:50:21.000Z</time>
      </trkpt>
      <trkpt lat="44.49538" lon="2.14115">
        <ele>441.1</ele>
        <time>2022-10-30T12:50:30.000Z</time>
      </trkpt>
      <trkpt lat="44.4954" lon="2.14112">
        <ele>440.6</ele>
        <time>2022-10-30T12:50:35.000Z</time>
      </trkpt>
      <trkpt lat="44.49541" lon="2.14112">
        <ele>440.5</ele>
        <time>2022-10-30T12:50:41.000Z</time>
      </trkpt>
      <trkpt lat="44.4955" lon="2.14113">
        <ele>440.5</ele>
        <time>2022-10-30T12:50:52.000Z</time>
      </trkpt>
      <trkpt lat="44.49559" lon="2.14115">
        <ele>440.7</ele>
        <time>2022-10-30T12:51:00.000Z</time>
      </trkpt>
      <trkpt lat="44.49568" lon="2.14116">
        <ele>440.9</ele>
        <time>2022-10-30T12:51:06.000Z</time>
      </trkpt>
      <trkpt lat="44.49577" lon="2.14111">
        <ele>441.2</ele>
        <time>2022-10-30T12:51:14.000Z</time>
      </trkpt>
      <trkpt lat="44.49583" lon="2.14102">
        <ele>440.9</ele>
        <time>2022-10-30T12:51:21.000Z</time>
      </trkpt>
      <trkpt lat="44.49588" lon="2.1409">
        <ele>439</ele>
        <time>2022-10-30T12:51:32.000Z</time>
      </trkpt>
      <trkpt lat="44.49591" lon="2.14078">
        <ele>437.5</ele>
        <time>2022-10-30T12:51:41.000Z</time>
      </trkpt>
      <trkpt lat="44.49595" lon="2.14066">
        <ele>436.6</ele>
        <time>2022-10-30T12:51:51.000Z</time>
      </trkpt>
      <trkpt lat="44.49601" lon="2.14056">
        <ele>435.3</ele>
        <time>2022-10-30T12:52:02.000Z</time>
      </trkpt>
      <trkpt lat="44.49611" lon="2.14056">
        <ele>435.3</ele>
        <time>2022-10-30T12:52:14.000Z</time>
      </trkpt>
      <trkpt lat="44.4962" lon="2.1406">
        <ele>435.9</ele>
        <time>2022-10-30T12:52:22.000Z</time>
      </trkpt>
      <trkpt lat="44.49625" lon="2.14071">
        <ele>435.8</ele>
        <time>2022-10-30T12:52:28.000Z</time>
      </trkpt>
      <trkpt lat="44.49627" lon="2.14085">
        <ele>436.9</ele>
        <time>2022-10-30T12:52:41.000Z</time>
      </trkpt>
      <trkpt lat="44.49636" lon="2.1409">
        <ele>437.9</ele>
        <time>2022-10-30T12:52:52.000Z</time>
      </trkpt>
      <trkpt lat="44.49645" lon="2.1409">
        <ele>437.8</ele>
        <time>2022-10-30T12:53:11.000Z</time>
      </trkpt>
      <trkpt lat="44.49655" lon="2.14088">
        <ele>438</ele>
        <time>2022-10-30T12:53:20.000Z</time>
      </trkpt>
      <trkpt lat="44.49665" lon="2.1409">
        <ele>438</ele>
        <time>2022-10-30T12:53:31.000Z</time>
      </trkpt>
      <trkpt lat="44.49666" lon="2.14089">
        <ele>437.6</ele>
        <time>2022-10-30T12:53:35.000Z</time>
      </trkpt>
      <trkpt lat="44.49666" lon="2.14088">
        <ele>437.5</ele>
        <time>2022-10-30T12:53:36.000Z</time>
      </trkpt>
      <trkpt lat="44.49665" lon="2.14088">
        <ele>437.2</ele>
        <time>2022-10-30T12:53:39.000Z</time>
      </trkpt>
      <trkpt lat="44.49665" lon="2.14088">
        <ele>437.1</ele>
        <time>2022-10-30T12:53:45.000Z</time>
      </trkpt>
      <trkpt lat="44.49675" lon="2.14088">
        <ele>437.4</ele>
        <time>2022-10-30T12:53:57.000Z</time>
      </trkpt>
      <trkpt lat="44.49684" lon="2.14084">
        <ele>438.1</ele>
        <time>2022-10-30T12:54:09.000Z</time>
      </trkpt>
      <trkpt lat="44.49693" lon="2.14078">
        <ele>439.1</ele>
        <time>2022-10-30T12:54:18.000Z</time>
      </trkpt>
      <trkpt lat="44.49696" lon="2.14065">
        <ele>438</ele>
        <time>2022-10-30T12:54:27.000Z</time>
      </trkpt>
      <trkpt lat="44.49697" lon="2.14052">
        <ele>437.3</ele>
        <time>2022-10-30T12:54:35.000Z</time>
      </trkpt>
      <trkpt lat="44.49702" lon="2.1404">
        <ele>436.3</ele>
        <time>2022-10-30T12:54:44.000Z</time>
      </trkpt>
      <trkpt lat="44.49708" lon="2.1403">
        <ele>436.3</ele>
        <time>2022-10-30T12:54:53.000Z</time>
      </trkpt>
      <trkpt lat="44.49709" lon="2.14029">
        <ele>436.4</ele>
        <time>2022-10-30T12:54:57.000Z</time>
      </trkpt>
      <trkpt lat="44.49709" lon="2.14028">
        <ele>436.4</ele>
        <time>2022-10-30T12:54:59.000Z</time>
      </trkpt>
      <trkpt lat="44.49714" lon="2.14017">
        <ele>435.4</ele>
        <time>2022-10-30T12:55:10.000Z</time>
      </trkpt>
      <trkpt lat="44.49716" lon="2.14014">
        <ele>435</ele>
        <time>2022-10-30T12:55:14.000Z</time>
      </trkpt>
      <trkpt lat="44.49716" lon="2.14014">
        <ele>435</ele>
        <time>2022-10-30T12:55:15.000Z</time>
      </trkpt>
      <trkpt lat="44.49721" lon="2.14002">
        <ele>434.1</ele>
        <time>2022-10-30T12:55:30.000Z</time>
      </trkpt>
      <trkpt lat="44.49727" lon="2.13992">
        <ele>432.6</ele>
        <time>2022-10-30T12:55:40.000Z</time>
      </trkpt>
      <trkpt lat="44.49734" lon="2.13984">
        <ele>430.3</ele>
        <time>2022-10-30T12:55:50.000Z</time>
      </trkpt>
      <trkpt lat="44.4974" lon="2.13974">
        <ele>428</ele>
        <time>2022-10-30T12:55:59.000Z</time>
      </trkpt>
      <trkpt lat="44.49746" lon="2.13963">
        <ele>426.4</ele>
        <time>2022-10-30T12:56:09.000Z</time>
      </trkpt>
      <trkpt lat="44.49753" lon="2.13955">
        <ele>425.4</ele>
        <time>2022-10-30T12:56:21.000Z</time>
      </trkpt>
      <trkpt lat="44.49753" lon="2.13954">
        <ele>424.5</ele>
        <time>2022-10-30T12:56:24.000Z</time>
      </trkpt>
      <trkpt lat="44.49753" lon="2.13954">
        <ele>423.9</ele>
        <time>2022-10-30T12:56:25.000Z</time>
      </trkpt>
      <trkpt lat="44.49755" lon="2.13954">
        <ele>422.3</ele>
        <time>2022-10-30T12:56:30.000Z</time>
      </trkpt>
      <trkpt lat="44.49755" lon="2.13954">
        <ele>422.2</ele>
        <time>2022-10-30T12:56:51.000Z</time>
      </trkpt>
      <trkpt lat="44.49755" lon="2.13954">
        <ele>422.2</ele>
        <time>2022-10-30T12:56:53.000Z</time>
      </trkpt>
      <trkpt lat="44.49755" lon="2.13954">
        <ele>421.7</ele>
        <time>2022-10-30T12:56:55.000Z</time>
      </trkpt>
      <trkpt lat="44.49754" lon="2.13954">
        <ele>421.2</ele>
        <time>2022-10-30T12:56:57.000Z</time>
      </trkpt>
      <trkpt lat="44.49755" lon="2.13955">
        <ele>421.2</ele>
        <time>2022-10-30T12:57:16.000Z</time>
      </trkpt>
      <trkpt lat="44.49758" lon="2.13967">
        <ele>419.4</ele>
        <time>2022-10-30T12:57:24.000Z</time>
      </trkpt>
      <trkpt lat="44.49766" lon="2.13975">
        <ele>418.6</ele>
        <time>2022-10-30T12:57:31.000Z</time>
      </trkpt>
      <trkpt lat="44.49768" lon="2.13962">
        <ele>415.7</ele>
        <time>2022-10-30T12:57:47.000Z</time>
      </trkpt>
      <trkpt lat="44.49762" lon="2.13952">
        <ele>413.7</ele>
        <time>2022-10-30T12:57:54.000Z</time>
      </trkpt>
      <trkpt lat="44.49757" lon="2.13942">
        <ele>412.7</ele>
        <time>2022-10-30T12:58:03.000Z</time>
      </trkpt>
      <trkpt lat="44.49762" lon="2.13932">
        <ele>410.6</ele>
        <time>2022-10-30T12:58:16.000Z</time>
      </trkpt>
      <trkpt lat="44.49767" lon="2.13921">
        <ele>409</ele>
        <time>2022-10-30T12:58:29.000Z</time>
      </trkpt>
      <trkpt lat="44.49767" lon="2.13907">
        <ele>408.1</ele>
        <time>2022-10-30T12:58:41.000Z</time>
      </trkpt>
      <trkpt lat="44.49776" lon="2.13909">
        <ele>407.9</ele>
        <time>2022-10-30T12:59:03.000Z</time>
      </trkpt>
      <trkpt lat="44.4978" lon="2.13915">
        <ele>407.2</ele>
        <time>2022-10-30T12:59:17.000Z</time>
      </trkpt>
      <trkpt lat="44.49781" lon="2.13915">
        <ele>407.2</ele>
        <time>2022-10-30T12:59:18.000Z</time>
      </trkpt>
      <trkpt lat="44.49789" lon="2.13907">
        <ele>405.6</ele>
        <time>2022-10-30T12:59:29.000Z</time>
      </trkpt>
      <trkpt lat="44.49792" lon="2.13896">
        <ele>397.3</ele>
        <time>2022-10-30T12:59:43.000Z</time>
      </trkpt>
      <trkpt lat="44.49791" lon="2.13895">
        <ele>396.9</ele>
        <time>2022-10-30T12:59:44.000Z</time>
      </trkpt>
      <trkpt lat="44.4979" lon="2.13894">
        <ele>395.1</ele>
        <time>2022-10-30T12:59:49.000Z</time>
      </trkpt>
      <trkpt lat="44.4979" lon="2.13894">
        <ele>395</ele>
        <time>2022-10-30T12:59:50.000Z</time>
      </trkpt>
      <trkpt lat="44.49791" lon="2.13894">
        <ele>393.7</ele>
        <time>2022-10-30T12:59:54.000Z</time>
      </trkpt>
      <trkpt lat="44.49791" lon="2.13895">
        <ele>393.4</ele>
        <time>2022-10-30T12:59:58.000Z</time>
      </trkpt>
      <trkpt lat="44.49797" lon="2.13895">
        <ele>391.8</ele>
        <time>2022-10-30T13:00:12.000Z</time>
      </trkpt>
      <trkpt lat="44.49798" lon="2.13895">
        <ele>391.7</ele>
        <time>2022-10-30T13:00:13.000Z</time>
      </trkpt>
      <trkpt lat="44.49801" lon="2.13897">
        <ele>391.3</ele>
        <time>2022-10-30T13:00:20.000Z</time>
      </trkpt>
      <trkpt lat="44.49801" lon="2.13897">
        <ele>391.3</ele>
        <time>2022-10-30T13:00:21.000Z</time>
      </trkpt>
      <trkpt lat="44.49802" lon="2.13897">
        <ele>391.3</ele>
        <time>2022-10-30T13:00:24.000Z</time>
      </trkpt>
      <trkpt lat="44.49803" lon="2.13897">
        <ele>391.3</ele>
        <time>2022-10-30T13:00:26.000Z</time>
      </trkpt>
      <trkpt lat="44.49806" lon="2.13894">
        <ele>392.4</ele>
        <time>2022-10-30T13:00:40.000Z</time>
      </trkpt>
      <trkpt lat="44.49807" lon="2.13894">
        <ele>392.3</ele>
        <time>2022-10-30T13:00:43.000Z</time>
      </trkpt>
      <trkpt lat="44.49807" lon="2.13893">
        <ele>392.3</ele>
        <time>2022-10-30T13:00:45.000Z</time>
      </trkpt>
      <trkpt lat="44.49807" lon="2.13893">
        <ele>392.4</ele>
        <time>2022-10-30T13:00:47.000Z</time>
      </trkpt>
      <trkpt lat="44.49807" lon="2.13893">
        <ele>392.4</ele>
        <time>2022-10-30T13:00:48.000Z</time>
      </trkpt>
      <trkpt lat="44.49807" lon="2.13893">
        <ele>392.5</ele>
        <time>2022-10-30T13:00:54.000Z</time>
      </trkpt>
      <trkpt lat="44.49807" lon="2.13893">
        <ele>392.5</ele>
        <time>2022-10-30T13:00:55.000Z</time>
      </trkpt>
      <trkpt lat="44.49807" lon="2.13893">
        <ele>392.6</ele>
        <time>2022-10-30T13:00:56.000Z</time>
      </trkpt>
      <trkpt lat="44.49807" lon="2.13893">
        <ele>392.6</ele>
        <time>2022-10-30T13:00:57.000Z</time>
      </trkpt>
      <trkpt lat="44.49807" lon="2.13894">
        <ele>392.6</ele>
        <time>2022-10-30T13:01:00.000Z</time>
      </trkpt>
      <trkpt lat="44.49807" lon="2.13894">
        <ele>392.5</ele>
        <time>2022-10-30T13:01:01.000Z</time>
      </trkpt>
      <trkpt lat="44.49807" lon="2.13894">
        <ele>392.6</ele>
        <time>2022-10-30T13:01:02.000Z</time>
      </trkpt>
      <trkpt lat="44.49808" lon="2.13894">
        <ele>392.9</ele>
        <time>2022-10-30T13:01:05.000Z</time>
      </trkpt>
      <trkpt lat="44.49809" lon="2.13894">
        <ele>393.1</ele>
        <time>2022-10-30T13:01:07.000Z</time>
      </trkpt>
      <trkpt lat="44.49818" lon="2.13897">
        <ele>395.7</ele>
        <time>2022-10-30T13:01:29.000Z</time>
      </trkpt>
      <trkpt lat="44.49818" lon="2.13896">
        <ele>395.8</ele>
        <time>2022-10-30T13:01:31.000Z</time>
      </trkpt>
      <trkpt lat="44.49818" lon="2.13896">
        <ele>395.9</ele>
        <time>2022-10-30T13:01:34.000Z</time>
      </trkpt>
      <trkpt lat="44.49818" lon="2.13896">
        <ele>396</ele>
        <time>2022-10-30T13:01:36.000Z</time>
      </trkpt>
      <trkpt lat="44.49818" lon="2.13896">
        <ele>396</ele>
        <time>2022-10-30T13:01:37.000Z</time>
      </trkpt>
      <trkpt lat="44.49821" lon="2.13894">
        <ele>397.2</ele>
        <time>2022-10-30T13:01:46.000Z</time>
      </trkpt>
      <trkpt lat="44.49821" lon="2.13894">
        <ele>397.2</ele>
        <time>2022-10-30T13:01:49.000Z</time>
      </trkpt>
      <trkpt lat="44.49826" lon="2.1389">
        <ele>399.4</ele>
        <time>2022-10-30T13:02:01.000Z</time>
      </trkpt>
      <trkpt lat="44.49826" lon="2.1389">
        <ele>399.3</ele>
        <time>2022-10-30T13:02:09.000Z</time>
      </trkpt>
      <trkpt lat="44.49825" lon="2.1389">
        <ele>399.2</ele>
        <time>2022-10-30T13:02:12.000Z</time>
      </trkpt>
      <trkpt lat="44.49825" lon="2.1389">
        <ele>399.1</ele>
        <time>2022-10-30T13:02:19.000Z</time>
      </trkpt>
      <trkpt lat="44.49822" lon="2.13892">
        <ele>399.2</ele>
        <time>2022-10-30T13:02:26.000Z</time>
      </trkpt>
      <trkpt lat="44.49821" lon="2.13892">
        <ele>399.3</ele>
        <time>2022-10-30T13:02:28.000Z</time>
      </trkpt>
      <trkpt lat="44.49821" lon="2.13892">
        <ele>399.3</ele>
        <time>2022-10-30T13:02:30.000Z</time>
      </trkpt>
      <trkpt lat="44.49821" lon="2.13892">
        <ele>399.3</ele>
        <time>2022-10-30T13:02:35.000Z</time>
      </trkpt>
      <trkpt lat="44.49821" lon="2.13893">
        <ele>399.3</ele>
        <time>2022-10-30T13:02:36.000Z</time>
      </trkpt>
      <trkpt lat="44.49821" lon="2.13893">
        <ele>399.3</ele>
        <time>2022-10-30T13:02:38.000Z</time>
      </trkpt>
      <trkpt lat="44.49821" lon="2.13893">
        <ele>399.3</ele>
        <time>2022-10-30T13:02:39.000Z</time>
      </trkpt>
      <trkpt lat="44.49821" lon="2.13893">
        <ele>399.3</ele>
        <time>2022-10-30T13:02:42.000Z</time>
      </trkpt>
      <trkpt lat="44.49821" lon="2.13893">
        <ele>399.3</ele>
        <time>2022-10-30T13:02:43.000Z</time>
      </trkpt>
      <trkpt lat="44.49821" lon="2.13893">
        <ele>399.5</ele>
        <time>2022-10-30T13:02:56.000Z</time>
      </trkpt>
      <trkpt lat="44.49822" lon="2.13894">
        <ele>399.6</ele>
        <time>2022-10-30T13:03:00.000Z</time>
      </trkpt>
      <trkpt lat="44.49822" lon="2.13894">
        <ele>399.7</ele>
        <time>2022-10-30T13:03:05.000Z</time>
      </trkpt>
      <trkpt lat="44.49822" lon="2.13894">
        <ele>399.6</ele>
        <time>2022-10-30T13:03:06.000Z</time>
      </trkpt>
      <trkpt lat="44.49822" lon="2.13894">
        <ele>399.6</ele>
        <time>2022-10-30T13:03:09.000Z</time>
      </trkpt>
      <trkpt lat="44.49822" lon="2.13894">
        <ele>399.7</ele>
        <time>2022-10-30T13:03:10.000Z</time>
      </trkpt>
      <trkpt lat="44.49822" lon="2.13894">
        <ele>399.7</ele>
        <time>2022-10-30T13:03:11.000Z</time>
      </trkpt>
      <trkpt lat="44.49822" lon="2.13893">
        <ele>399.6</ele>
        <time>2022-10-30T13:03:15.000Z</time>
      </trkpt>
      <trkpt lat="44.49822" lon="2.13892">
        <ele>399.5</ele>
        <time>2022-10-30T13:03:17.000Z</time>
      </trkpt>
      <trkpt lat="44.49822" lon="2.13892">
        <ele>399.2</ele>
        <time>2022-10-30T13:03:20.000Z</time>
      </trkpt>
      <trkpt lat="44.49822" lon="2.13892">
        <ele>399</ele>
        <time>2022-10-30T13:03:23.000Z</time>
      </trkpt>
      <trkpt lat="44.49821" lon="2.13893">
        <ele>398.7</ele>
        <time>2022-10-30T13:03:27.000Z</time>
      </trkpt>
      <trkpt lat="44.4982" lon="2.13892">
        <ele>398.5</ele>
        <time>2022-10-30T13:03:28.000Z</time>
      </trkpt>
      <trkpt lat="44.4982" lon="2.13892">
        <ele>398.5</ele>
        <time>2022-10-30T13:03:29.000Z</time>
      </trkpt>
      <trkpt lat="44.4982" lon="2.13892">
        <ele>398.5</ele>
        <time>2022-10-30T13:03:43.000Z</time>
      </trkpt>
      <trkpt lat="44.4982" lon="2.13892">
        <ele>398.6</ele>
        <time>2022-10-30T13:03:45.000Z</time>
      </trkpt>
      <trkpt lat="44.49819" lon="2.13893">
        <ele>398.4</ele>
        <time>2022-10-30T13:03:53.000Z</time>
      </trkpt>
      <trkpt lat="44.4981" lon="2.13894">
        <ele>399.3</ele>
        <time>2022-10-30T13:04:04.000Z</time>
      </trkpt>
      <trkpt lat="44.49809" lon="2.13899">
        <ele>399.3</ele>
        <time>2022-10-30T13:04:16.000Z</time>
      </trkpt>
      <trkpt lat="44.49809" lon="2.13899">
        <ele>399.3</ele>
        <time>2022-10-30T13:04:17.000Z</time>
      </trkpt>
      <trkpt lat="44.49804" lon="2.13897">
        <ele>397.9</ele>
        <time>2022-10-30T13:04:27.000Z</time>
      </trkpt>
      <trkpt lat="44.49804" lon="2.13897">
        <ele>397.7</ele>
        <time>2022-10-30T13:04:28.000Z</time>
      </trkpt>
      <trkpt lat="44.49804" lon="2.13897">
        <ele>397.7</ele>
        <time>2022-10-30T13:04:29.000Z</time>
      </trkpt>
      <trkpt lat="44.49804" lon="2.13897">
        <ele>397.7</ele>
        <time>2022-10-30T13:04:30.000Z</time>
      </trkpt>
      <trkpt lat="44.49805" lon="2.13898">
        <ele>397.1</ele>
        <time>2022-10-30T13:04:36.000Z</time>
      </trkpt>
      <trkpt lat="44.49805" lon="2.13897">
        <ele>397</ele>
        <time>2022-10-30T13:04:39.000Z</time>
      </trkpt>
      <trkpt lat="44.49805" lon="2.13898">
        <ele>396.8</ele>
        <time>2022-10-30T13:04:43.000Z</time>
      </trkpt>
      <trkpt lat="44.49805" lon="2.13897">
        <ele>396.5</ele>
        <time>2022-10-30T13:04:47.000Z</time>
      </trkpt>
      <trkpt lat="44.49805" lon="2.13897">
        <ele>396.4</ele>
        <time>2022-10-30T13:04:48.000Z</time>
      </trkpt>
      <trkpt lat="44.49805" lon="2.13897">
        <ele>396.3</ele>
        <time>2022-10-30T13:04:54.000Z</time>
      </trkpt>
      <trkpt lat="44.49805" lon="2.13896">
        <ele>395.7</ele>
        <time>2022-10-30T13:04:56.000Z</time>
      </trkpt>
      <trkpt lat="44.49805" lon="2.13896">
        <ele>395.3</ele>
        <time>2022-10-30T13:04:57.000Z</time>
      </trkpt>
      <trkpt lat="44.49805" lon="2.13896">
        <ele>395.2</ele>
        <time>2022-10-30T13:04:58.000Z</time>
      </trkpt>
      <trkpt lat="44.49805" lon="2.13896">
        <ele>395.1</ele>
        <time>2022-10-30T13:04:59.000Z</time>
      </trkpt>
      <trkpt lat="44.49805" lon="2.13896">
        <ele>395.1</ele>
        <time>2022-10-30T13:05:01.000Z</time>
      </trkpt>
      <trkpt lat="44.49805" lon="2.13896">
        <ele>395</ele>
        <time>2022-10-30T13:05:05.000Z</time>
      </trkpt>
      <trkpt lat="44.49804" lon="2.139">
        <ele>394.9</ele>
        <time>2022-10-30T13:05:13.000Z</time>
      </trkpt>
      <trkpt lat="44.49805" lon="2.13899">
        <ele>394.5</ele>
        <time>2022-10-30T13:05:16.000Z</time>
      </trkpt>
      <trkpt lat="44.49805" lon="2.13899">
        <ele>394.4</ele>
        <time>2022-10-30T13:05:17.000Z</time>
      </trkpt>
      <trkpt lat="44.49805" lon="2.13899">
        <ele>394.4</ele>
        <time>2022-10-30T13:05:19.000Z</time>
      </trkpt>
      <trkpt lat="44.49805" lon="2.13898">
        <ele>394.2</ele>
        <time>2022-10-30T13:05:22.000Z</time>
      </trkpt>
      <trkpt lat="44.49805" lon="2.13898">
        <ele>394.1</ele>
        <time>2022-10-30T13:05:24.000Z</time>
      </trkpt>
      <trkpt lat="44.49805" lon="2.13898">
        <ele>394.1</ele>
        <time>2022-10-30T13:05:25.000Z</time>
      </trkpt>
      <trkpt lat="44.49805" lon="2.13898">
        <ele>394</ele>
        <time>2022-10-30T13:05:27.000Z</time>
      </trkpt>
      <trkpt lat="44.49805" lon="2.13898">
        <ele>393.9</ele>
        <time>2022-10-30T13:05:28.000Z</time>
      </trkpt>
      <trkpt lat="44.49805" lon="2.13898">
        <ele>393.9</ele>
        <time>2022-10-30T13:05:29.000Z</time>
      </trkpt>
      <trkpt lat="44.49805" lon="2.13898">
        <ele>393.9</ele>
        <time>2022-10-30T13:05:30.000Z</time>
      </trkpt>
      <trkpt lat="44.49805" lon="2.13898">
        <ele>393.8</ele>
        <time>2022-10-30T13:05:33.000Z</time>
      </trkpt>
      <trkpt lat="44.49804" lon="2.13898">
        <ele>393</ele>
        <time>2022-10-30T13:05:38.000Z</time>
      </trkpt>
      <trkpt lat="44.49804" lon="2.13898">
        <ele>392.8</ele>
        <time>2022-10-30T13:05:39.000Z</time>
      </trkpt>
      <trkpt lat="44.49801" lon="2.13896">
        <ele>391.7</ele>
        <time>2022-10-30T13:05:48.000Z</time>
      </trkpt>
      <trkpt lat="44.49801" lon="2.13895">
        <ele>391.7</ele>
        <time>2022-10-30T13:05:50.000Z</time>
      </trkpt>
      <trkpt lat="44.49801" lon="2.13894">
        <ele>391.3</ele>
        <time>2022-10-30T13:05:54.000Z</time>
      </trkpt>
      <trkpt lat="44.49801" lon="2.13894">
        <ele>391.2</ele>
        <time>2022-10-30T13:06:13.000Z</time>
      </trkpt>
      <trkpt lat="44.49801" lon="2.13894">
        <ele>391.2</ele>
        <time>2022-10-30T13:06:14.000Z</time>
      </trkpt>
      <trkpt lat="44.49801" lon="2.13894">
        <ele>391.2</ele>
        <time>2022-10-30T13:06:43.000Z</time>
      </trkpt>
      <trkpt lat="44.49801" lon="2.13894">
        <ele>391.2</ele>
        <time>2022-10-30T13:06:44.000Z</time>
      </trkpt>
      <trkpt lat="44.49801" lon="2.13893">
        <ele>391.3</ele>
        <time>2022-10-30T13:06:54.000Z</time>
      </trkpt>
      <trkpt lat="44.49798" lon="2.13894">
        <ele>390.7</ele>
        <time>2022-10-30T13:07:04.000Z</time>
      </trkpt>
      <trkpt lat="44.49799" lon="2.13894">
        <ele>390.8</ele>
        <time>2022-10-30T13:07:05.000Z</time>
      </trkpt>
      <trkpt lat="44.49799" lon="2.13894">
        <ele>390.8</ele>
        <time>2022-10-30T13:07:06.000Z</time>
      </trkpt>
      <trkpt lat="44.49799" lon="2.13894">
        <ele>390.6</ele>
        <time>2022-10-30T13:07:10.000Z</time>
      </trkpt>
      <trkpt lat="44.49799" lon="2.13894">
        <ele>390.3</ele>
        <time>2022-10-30T13:07:14.000Z</time>
      </trkpt>
      <trkpt lat="44.498" lon="2.13894">
        <ele>390.2</ele>
        <time>2022-10-30T13:07:16.000Z</time>
      </trkpt>
      <trkpt lat="44.49791" lon="2.13889">
        <ele>390.3</ele>
        <time>2022-10-30T13:07:27.000Z</time>
      </trkpt>
      <trkpt lat="44.49786" lon="2.13878">
        <ele>391.5</ele>
        <time>2022-10-30T13:07:37.000Z</time>
      </trkpt>
      <trkpt lat="44.49786" lon="2.1387">
        <ele>391.8</ele>
        <time>2022-10-30T13:07:46.000Z</time>
      </trkpt>
      <trkpt lat="44.49786" lon="2.1387">
        <ele>391.9</ele>
        <time>2022-10-30T13:07:47.000Z</time>
      </trkpt>
      <trkpt lat="44.49786" lon="2.1387">
        <ele>391.9</ele>
        <time>2022-10-30T13:07:48.000Z</time>
      </trkpt>
      <trkpt lat="44.49786" lon="2.13869">
        <ele>391.9</ele>
        <time>2022-10-30T13:07:50.000Z</time>
      </trkpt>
      <trkpt lat="44.49785" lon="2.13855">
        <ele>392.8</ele>
        <time>2022-10-30T13:07:59.000Z</time>
      </trkpt>
      <trkpt lat="44.49786" lon="2.13852">
        <ele>392.9</ele>
        <time>2022-10-30T13:08:03.000Z</time>
      </trkpt>
      <trkpt lat="44.49785" lon="2.13852">
        <ele>392.9</ele>
        <time>2022-10-30T13:08:04.000Z</time>
      </trkpt>
      <trkpt lat="44.49785" lon="2.13852">
        <ele>392.8</ele>
        <time>2022-10-30T13:08:05.000Z</time>
      </trkpt>
      <trkpt lat="44.49785" lon="2.13852">
        <ele>392.7</ele>
        <time>2022-10-30T13:08:06.000Z</time>
      </trkpt>
      <trkpt lat="44.49785" lon="2.13852">
        <ele>392.5</ele>
        <time>2022-10-30T13:08:07.000Z</time>
      </trkpt>
      <trkpt lat="44.49785" lon="2.13852">
        <ele>392.5</ele>
        <time>2022-10-30T13:08:08.000Z</time>
      </trkpt>
      <trkpt lat="44.49785" lon="2.13852">
        <ele>392.5</ele>
        <time>2022-10-30T13:08:09.000Z</time>
      </trkpt>
      <trkpt lat="44.49785" lon="2.13852">
        <ele>392.4</ele>
        <time>2022-10-30T13:08:17.000Z</time>
      </trkpt>
      <trkpt lat="44.49785" lon="2.13852">
        <ele>392.4</ele>
        <time>2022-10-30T13:08:18.000Z</time>
      </trkpt>
      <trkpt lat="44.49785" lon="2.13852">
        <ele>392.4</ele>
        <time>2022-10-30T13:08:22.000Z</time>
      </trkpt>
      <trkpt lat="44.49785" lon="2.13852">
        <ele>392.4</ele>
        <time>2022-10-30T13:08:23.000Z</time>
      </trkpt>
      <trkpt lat="44.49785" lon="2.13852">
        <ele>392.4</ele>
        <time>2022-10-30T13:08:24.000Z</time>
      </trkpt>
      <trkpt lat="44.49785" lon="2.13852">
        <ele>392.4</ele>
        <time>2022-10-30T13:08:25.000Z</time>
      </trkpt>
      <trkpt lat="44.49785" lon="2.13852">
        <ele>392.3</ele>
        <time>2022-10-30T13:08:52.000Z</time>
      </trkpt>
      <trkpt lat="44.49785" lon="2.13852">
        <ele>392.4</ele>
        <time>2022-10-30T13:08:54.000Z</time>
      </trkpt>
      <trkpt lat="44.49785" lon="2.13852">
        <ele>392.4</ele>
        <time>2022-10-30T13:08:56.000Z</time>
      </trkpt>
      <trkpt lat="44.49785" lon="2.13852">
        <ele>392.4</ele>
        <time>2022-10-30T13:08:57.000Z</time>
      </trkpt>
      <trkpt lat="44.49786" lon="2.13852">
        <ele>392.5</ele>
        <time>2022-10-30T13:08:58.000Z</time>
      </trkpt>
      <trkpt lat="44.49785" lon="2.13853">
        <ele>392.5</ele>
        <time>2022-10-30T13:09:02.000Z</time>
      </trkpt>
      <trkpt lat="44.49785" lon="2.13853">
        <ele>392.4</ele>
        <time>2022-10-30T13:09:07.000Z</time>
      </trkpt>
      <trkpt lat="44.49785" lon="2.13839">
        <ele>393</ele>
        <time>2022-10-30T13:09:18.000Z</time>
      </trkpt>
      <trkpt lat="44.4978" lon="2.13829">
        <ele>393.9</ele>
        <time>2022-10-30T13:09:28.000Z</time>
      </trkpt>
      <trkpt lat="44.49772" lon="2.13822">
        <ele>394.3</ele>
        <time>2022-10-30T13:09:36.000Z</time>
      </trkpt>
      <trkpt lat="44.49764" lon="2.13816">
        <ele>394</ele>
        <time>2022-10-30T13:09:49.000Z</time>
      </trkpt>
      <trkpt lat="44.49763" lon="2.13811">
        <ele>393.8</ele>
        <time>2022-10-30T13:09:55.000Z</time>
      </trkpt>
      <trkpt lat="44.49763" lon="2.13811">
        <ele>393.7</ele>
        <time>2022-10-30T13:10:01.000Z</time>
      </trkpt>
      <trkpt lat="44.49763" lon="2.13811">
        <ele>393.7</ele>
        <time>2022-10-30T13:10:02.000Z</time>
      </trkpt>
      <trkpt lat="44.49763" lon="2.13811">
        <ele>393.6</ele>
        <time>2022-10-30T13:10:09.000Z</time>
      </trkpt>
      <trkpt lat="44.49763" lon="2.13811">
        <ele>393.4</ele>
        <time>2022-10-30T13:10:11.000Z</time>
      </trkpt>
      <trkpt lat="44.49763" lon="2.13811">
        <ele>393.5</ele>
        <time>2022-10-30T13:10:23.000Z</time>
      </trkpt>
      <trkpt lat="44.49763" lon="2.13812">
        <ele>393.6</ele>
        <time>2022-10-30T13:10:27.000Z</time>
      </trkpt>
      <trkpt lat="44.49763" lon="2.13811">
        <ele>393.4</ele>
        <time>2022-10-30T13:10:46.000Z</time>
      </trkpt>
      <trkpt lat="44.4977" lon="2.13802">
        <ele>392.4</ele>
        <time>2022-10-30T13:10:56.000Z</time>
      </trkpt>
      <trkpt lat="44.49769" lon="2.13789">
        <ele>391.9</ele>
        <time>2022-10-30T13:11:11.000Z</time>
      </trkpt>
      <trkpt lat="44.49769" lon="2.13788">
        <ele>391.9</ele>
        <time>2022-10-30T13:11:13.000Z</time>
      </trkpt>
      <trkpt lat="44.49769" lon="2.13788">
        <ele>391.6</ele>
        <time>2022-10-30T13:11:18.000Z</time>
      </trkpt>
      <trkpt lat="44.49778" lon="2.13782">
        <ele>390.6</ele>
        <time>2022-10-30T13:11:28.000Z</time>
      </trkpt>
      <trkpt lat="44.4978" lon="2.1378">
        <ele>390.3</ele>
        <time>2022-10-30T13:11:33.000Z</time>
      </trkpt>
      <trkpt lat="44.4978" lon="2.13779">
        <ele>390.4</ele>
        <time>2022-10-30T13:11:36.000Z</time>
      </trkpt>
      <trkpt lat="44.49786" lon="2.13767">
        <ele>389.4</ele>
        <time>2022-10-30T13:11:45.000Z</time>
      </trkpt>
      <trkpt lat="44.49788" lon="2.13755">
        <ele>386.4</ele>
        <time>2022-10-30T13:11:57.000Z</time>
      </trkpt>
      <trkpt lat="44.49788" lon="2.13754">
        <ele>386.2</ele>
        <time>2022-10-30T13:11:59.000Z</time>
      </trkpt>
      <trkpt lat="44.49788" lon="2.13754">
        <ele>386</ele>
        <time>2022-10-30T13:12:08.000Z</time>
      </trkpt>
      <trkpt lat="44.49788" lon="2.13754">
        <ele>386</ele>
        <time>2022-10-30T13:12:09.000Z</time>
      </trkpt>
      <trkpt lat="44.49788" lon="2.13754">
        <ele>385.7</ele>
        <time>2022-10-30T13:12:12.000Z</time>
      </trkpt>
      <trkpt lat="44.49788" lon="2.13754">
        <ele>385.6</ele>
        <time>2022-10-30T13:12:13.000Z</time>
      </trkpt>
      <trkpt lat="44.49788" lon="2.13754">
        <ele>385.5</ele>
        <time>2022-10-30T13:12:16.000Z</time>
      </trkpt>
      <trkpt lat="44.49788" lon="2.13755">
        <ele>385.2</ele>
        <time>2022-10-30T13:12:18.000Z</time>
      </trkpt>
      <trkpt lat="44.49788" lon="2.13756">
        <ele>384.8</ele>
        <time>2022-10-30T13:12:27.000Z</time>
      </trkpt>
      <trkpt lat="44.49787" lon="2.13756">
        <ele>384.6</ele>
        <time>2022-10-30T13:12:30.000Z</time>
      </trkpt>
      <trkpt lat="44.49787" lon="2.13757">
        <ele>384.6</ele>
        <time>2022-10-30T13:13:14.000Z</time>
      </trkpt>
      <trkpt lat="44.49788" lon="2.13757">
        <ele>384.6</ele>
        <time>2022-10-30T13:13:16.000Z</time>
      </trkpt>
      <trkpt lat="44.49788" lon="2.13757">
        <ele>384.8</ele>
        <time>2022-10-30T13:13:18.000Z</time>
      </trkpt>
      <trkpt lat="44.49788" lon="2.13757">
        <ele>384.6</ele>
        <time>2022-10-30T13:13:21.000Z</time>
      </trkpt>
      <trkpt lat="44.49788" lon="2.13757">
        <ele>384.5</ele>
        <time>2022-10-30T13:13:22.000Z</time>
      </trkpt>
      <trkpt lat="44.4979" lon="2.13747">
        <ele>383.1</ele>
        <time>2022-10-30T13:13:37.000Z</time>
      </trkpt>
      <trkpt lat="44.4979" lon="2.13747">
        <ele>383.1</ele>
        <time>2022-10-30T13:13:39.000Z</time>
      </trkpt>
      <trkpt lat="44.49797" lon="2.13738">
        <ele>381</ele>
        <time>2022-10-30T13:13:53.000Z</time>
      </trkpt>
      <trkpt lat="44.49805" lon="2.13734">
        <ele>379.7</ele>
        <time>2022-10-30T13:14:06.000Z</time>
      </trkpt>
      <trkpt lat="44.49803" lon="2.13721">
        <ele>377</ele>
        <time>2022-10-30T13:14:19.000Z</time>
      </trkpt>
      <trkpt lat="44.49806" lon="2.13717">
        <ele>376.2</ele>
        <time>2022-10-30T13:14:36.000Z</time>
      </trkpt>
      <trkpt lat="44.49806" lon="2.13717">
        <ele>376.2</ele>
        <time>2022-10-30T13:14:44.000Z</time>
      </trkpt>
      <trkpt lat="44.49803" lon="2.13716">
        <ele>374.9</ele>
        <time>2022-10-30T13:14:51.000Z</time>
      </trkpt>
      <trkpt lat="44.49803" lon="2.13716">
        <ele>374.8</ele>
        <time>2022-10-30T13:14:53.000Z</time>
      </trkpt>
      <trkpt lat="44.49808" lon="2.13712">
        <ele>373</ele>
        <time>2022-10-30T13:15:02.000Z</time>
      </trkpt>
      <trkpt lat="44.49809" lon="2.13712">
        <ele>372.8</ele>
        <time>2022-10-30T13:15:05.000Z</time>
      </trkpt>
      <trkpt lat="44.49806" lon="2.13711">
        <ele>372.2</ele>
        <time>2022-10-30T13:15:10.000Z</time>
      </trkpt>
      <trkpt lat="44.49806" lon="2.13711">
        <ele>372.2</ele>
        <time>2022-10-30T13:15:14.000Z</time>
      </trkpt>
      <trkpt lat="44.49807" lon="2.13715">
        <ele>370.7</ele>
        <time>2022-10-30T13:15:23.000Z</time>
      </trkpt>
      <trkpt lat="44.49807" lon="2.13714">
        <ele>370.6</ele>
        <time>2022-10-30T13:15:24.000Z</time>
      </trkpt>
      <trkpt lat="44.49815" lon="2.13713">
        <ele>369</ele>
        <time>2022-10-30T13:15:35.000Z</time>
      </trkpt>
      <trkpt lat="44.49814" lon="2.13713">
        <ele>369.1</ele>
        <time>2022-10-30T13:15:36.000Z</time>
      </trkpt>
      <trkpt lat="44.49814" lon="2.13713">
        <ele>369</ele>
        <time>2022-10-30T13:15:37.000Z</time>
      </trkpt>
      <trkpt lat="44.49815" lon="2.13713">
        <ele>368.9</ele>
        <time>2022-10-30T13:15:38.000Z</time>
      </trkpt>
      <trkpt lat="44.49819" lon="2.13725">
        <ele>368.4</ele>
        <time>2022-10-30T13:15:48.000Z</time>
      </trkpt>
      <trkpt lat="44.49821" lon="2.13731">
        <ele>367.8</ele>
        <time>2022-10-30T13:15:55.000Z</time>
      </trkpt>
      <trkpt lat="44.49821" lon="2.13731">
        <ele>367.8</ele>
        <time>2022-10-30T13:15:56.000Z</time>
      </trkpt>
      <trkpt lat="44.49824" lon="2.13743">
        <ele>367.8</ele>
        <time>2022-10-30T13:16:05.000Z</time>
      </trkpt>
      <trkpt lat="44.49827" lon="2.13756">
        <ele>367.7</ele>
        <time>2022-10-30T13:16:14.000Z</time>
      </trkpt>
      <trkpt lat="44.49827" lon="2.13765">
        <ele>367.2</ele>
        <time>2022-10-30T13:16:34.000Z</time>
      </trkpt>
      <trkpt lat="44.49828" lon="2.13765">
        <ele>367.2</ele>
        <time>2022-10-30T13:16:37.000Z</time>
      </trkpt>
      <trkpt lat="44.49828" lon="2.13765">
        <ele>367.2</ele>
        <time>2022-10-30T13:16:38.000Z</time>
      </trkpt>
      <trkpt lat="44.49827" lon="2.13765">
        <ele>367.6</ele>
        <time>2022-10-30T13:16:41.000Z</time>
      </trkpt>
      <trkpt lat="44.49827" lon="2.13765">
        <ele>367.4</ele>
        <time>2022-10-30T13:16:42.000Z</time>
      </trkpt>
      <trkpt lat="44.49827" lon="2.13765">
        <ele>367.2</ele>
        <time>2022-10-30T13:16:43.000Z</time>
      </trkpt>
      <trkpt lat="44.49827" lon="2.13765">
        <ele>367</ele>
        <time>2022-10-30T13:16:44.000Z</time>
      </trkpt>
      <trkpt lat="44.49827" lon="2.13765">
        <ele>366.8</ele>
        <time>2022-10-30T13:16:45.000Z</time>
      </trkpt>
      <trkpt lat="44.49826" lon="2.13776">
        <ele>361.7</ele>
        <time>2022-10-30T13:17:08.000Z</time>
      </trkpt>
      <trkpt lat="44.49826" lon="2.13776">
        <ele>361.7</ele>
        <time>2022-10-30T13:17:12.000Z</time>
      </trkpt>
      <trkpt lat="44.49826" lon="2.13776">
        <ele>361.6</ele>
        <time>2022-10-30T13:17:13.000Z</time>
      </trkpt>
      <trkpt lat="44.49827" lon="2.13777">
        <ele>361.5</ele>
        <time>2022-10-30T13:17:14.000Z</time>
      </trkpt>
      <trkpt lat="44.49828" lon="2.1379">
        <ele>359.8</ele>
        <time>2022-10-30T13:17:25.000Z</time>
      </trkpt>
      <trkpt lat="44.49828" lon="2.13803">
        <ele>358.8</ele>
        <time>2022-10-30T13:17:34.000Z</time>
      </trkpt>
      <trkpt lat="44.49829" lon="2.13816">
        <ele>359</ele>
        <time>2022-10-30T13:17:45.000Z</time>
      </trkpt>
      <trkpt lat="44.49825" lon="2.13818">
        <ele>359.2</ele>
        <time>2022-10-30T13:17:54.000Z</time>
      </trkpt>
      <trkpt lat="44.49825" lon="2.13817">
        <ele>359</ele>
        <time>2022-10-30T13:17:59.000Z</time>
      </trkpt>
      <trkpt lat="44.4983" lon="2.13818">
        <ele>358.3</ele>
        <time>2022-10-30T13:18:06.000Z</time>
      </trkpt>
      <trkpt lat="44.4983" lon="2.13818">
        <ele>358.3</ele>
        <time>2022-10-30T13:18:13.000Z</time>
      </trkpt>
      <trkpt lat="44.4983" lon="2.13818">
        <ele>358.3</ele>
        <time>2022-10-30T13:18:14.000Z</time>
      </trkpt>
      <trkpt lat="44.4983" lon="2.13818">
        <ele>358.3</ele>
        <time>2022-10-30T13:18:24.000Z</time>
      </trkpt>
      <trkpt lat="44.4983" lon="2.13819">
        <ele>358.2</ele>
        <time>2022-10-30T13:18:26.000Z</time>
      </trkpt>
      <trkpt lat="44.4983" lon="2.13819">
        <ele>358</ele>
        <time>2022-10-30T13:18:38.000Z</time>
      </trkpt>
      <trkpt lat="44.4983" lon="2.13816">
        <ele>356.7</ele>
        <time>2022-10-30T13:18:52.000Z</time>
      </trkpt>
      <trkpt lat="44.4983" lon="2.13816">
        <ele>356.7</ele>
        <time>2022-10-30T13:18:53.000Z</time>
      </trkpt>
      <trkpt lat="44.4983" lon="2.13816">
        <ele>356.5</ele>
        <time>2022-10-30T13:18:55.000Z</time>
      </trkpt>
      <trkpt lat="44.4983" lon="2.13816">
        <ele>356.5</ele>
        <time>2022-10-30T13:19:03.000Z</time>
      </trkpt>
      <trkpt lat="44.49829" lon="2.13816">
        <ele>356.4</ele>
        <time>2022-10-30T13:19:06.000Z</time>
      </trkpt>
      <trkpt lat="44.4983" lon="2.13816">
        <ele>356.3</ele>
        <time>2022-10-30T13:19:13.000Z</time>
      </trkpt>
      <trkpt lat="44.4983" lon="2.13813">
        <ele>356.1</ele>
        <time>2022-10-30T13:19:18.000Z</time>
      </trkpt>
      <trkpt lat="44.4983" lon="2.13813">
        <ele>356.1</ele>
        <time>2022-10-30T13:19:25.000Z</time>
      </trkpt>
      <trkpt lat="44.4983" lon="2.13815">
        <ele>356.6</ele>
        <time>2022-10-30T13:19:29.000Z</time>
      </trkpt>
      <trkpt lat="44.4983" lon="2.13815">
        <ele>356.6</ele>
        <time>2022-10-30T13:19:32.000Z</time>
      </trkpt>
      <trkpt lat="44.4983" lon="2.13815">
        <ele>356.5</ele>
        <time>2022-10-30T13:19:33.000Z</time>
      </trkpt>
      <trkpt lat="44.49829" lon="2.13815">
        <ele>356.4</ele>
        <time>2022-10-30T13:19:45.000Z</time>
      </trkpt>
      <trkpt lat="44.49829" lon="2.13815">
        <ele>356.3</ele>
        <time>2022-10-30T13:19:47.000Z</time>
      </trkpt>
      <trkpt lat="44.49829" lon="2.13817">
        <ele>356.2</ele>
        <time>2022-10-30T13:20:09.000Z</time>
      </trkpt>
      <trkpt lat="44.49829" lon="2.13819">
        <ele>355.8</ele>
        <time>2022-10-30T13:20:13.000Z</time>
      </trkpt>
      <trkpt lat="44.49828" lon="2.13819">
        <ele>355.8</ele>
        <time>2022-10-30T13:20:22.000Z</time>
      </trkpt>
      <trkpt lat="44.49829" lon="2.13819">
        <ele>355.8</ele>
        <time>2022-10-30T13:20:26.000Z</time>
      </trkpt>
      <trkpt lat="44.49829" lon="2.13819">
        <ele>355.8</ele>
        <time>2022-10-30T13:20:29.000Z</time>
      </trkpt>
      <trkpt lat="44.49829" lon="2.13819">
        <ele>355.8</ele>
        <time>2022-10-30T13:20:31.000Z</time>
      </trkpt>
      <trkpt lat="44.49829" lon="2.13819">
        <ele>355.8</ele>
        <time>2022-10-30T13:20:39.000Z</time>
      </trkpt>
      <trkpt lat="44.49829" lon="2.1382">
        <ele>355.8</ele>
        <time>2022-10-30T13:20:40.000Z</time>
      </trkpt>
      <trkpt lat="44.4983" lon="2.1382">
        <ele>356</ele>
        <time>2022-10-30T13:20:41.000Z</time>
      </trkpt>
      <trkpt lat="44.4983" lon="2.1382">
        <ele>356</ele>
        <time>2022-10-30T13:20:42.000Z</time>
      </trkpt>
      <trkpt lat="44.4983" lon="2.1382">
        <ele>356</ele>
        <time>2022-10-30T13:20:45.000Z</time>
      </trkpt>
      <trkpt lat="44.4983" lon="2.1382">
        <ele>356</ele>
        <time>2022-10-30T13:20:46.000Z</time>
      </trkpt>
      <trkpt lat="44.4983" lon="2.1382">
        <ele>356</ele>
        <time>2022-10-30T13:20:53.000Z</time>
      </trkpt>
      <trkpt lat="44.49829" lon="2.1382">
        <ele>356</ele>
        <time>2022-10-30T13:20:56.000Z</time>
      </trkpt>
      <trkpt lat="44.4983" lon="2.13819">
        <ele>356.1</ele>
        <time>2022-10-30T13:21:08.000Z</time>
      </trkpt>
      <trkpt lat="44.49832" lon="2.13813">
        <ele>354.8</ele>
        <time>2022-10-30T13:21:17.000Z</time>
      </trkpt>
      <trkpt lat="44.49832" lon="2.13813">
        <ele>354.7</ele>
        <time>2022-10-30T13:21:19.000Z</time>
      </trkpt>
      <trkpt lat="44.49833" lon="2.13813">
        <ele>354.6</ele>
        <time>2022-10-30T13:21:21.000Z</time>
      </trkpt>
      <trkpt lat="44.49832" lon="2.13812">
        <ele>354.6</ele>
        <time>2022-10-30T13:21:22.000Z</time>
      </trkpt>
      <trkpt lat="44.49831" lon="2.13812">
        <ele>354.8</ele>
        <time>2022-10-30T13:21:25.000Z</time>
      </trkpt>
      <trkpt lat="44.49831" lon="2.13812">
        <ele>354.6</ele>
        <time>2022-10-30T13:21:26.000Z</time>
      </trkpt>
      <trkpt lat="44.4983" lon="2.13812">
        <ele>354.4</ele>
        <time>2022-10-30T13:21:28.000Z</time>
      </trkpt>
      <trkpt lat="44.49829" lon="2.13812">
        <ele>354.4</ele>
        <time>2022-10-30T13:21:30.000Z</time>
      </trkpt>
      <trkpt lat="44.49833" lon="2.13801">
        <ele>353.4</ele>
        <time>2022-10-30T13:21:44.000Z</time>
      </trkpt>
      <trkpt lat="44.49841" lon="2.13793">
        <ele>353.4</ele>
        <time>2022-10-30T13:21:58.000Z</time>
      </trkpt>
      <trkpt lat="44.49843" lon="2.13806">
        <ele>350</ele>
        <time>2022-10-30T13:22:14.000Z</time>
      </trkpt>
      <trkpt lat="44.49845" lon="2.13819">
        <ele>349.4</ele>
        <time>2022-10-30T13:22:24.000Z</time>
      </trkpt>
      <trkpt lat="44.49848" lon="2.13832">
        <ele>348.8</ele>
        <time>2022-10-30T13:22:33.000Z</time>
      </trkpt>
      <trkpt lat="44.49852" lon="2.13845">
        <ele>349.1</ele>
        <time>2022-10-30T13:22:42.000Z</time>
      </trkpt>
      <trkpt lat="44.49856" lon="2.13839">
        <ele>342.7</ele>
        <time>2022-10-30T13:23:01.000Z</time>
      </trkpt>
      <trkpt lat="44.49856" lon="2.13838">
        <ele>342.9</ele>
        <time>2022-10-30T13:23:06.000Z</time>
      </trkpt>
      <trkpt lat="44.49856" lon="2.13825">
        <ele>342.6</ele>
        <time>2022-10-30T13:23:15.000Z</time>
      </trkpt>
      <trkpt lat="44.49857" lon="2.13811">
        <ele>341.8</ele>
        <time>2022-10-30T13:23:26.000Z</time>
      </trkpt>
      <trkpt lat="44.49858" lon="2.13798">
        <ele>340.1</ele>
        <time>2022-10-30T13:23:36.000Z</time>
      </trkpt>
      <trkpt lat="44.49863" lon="2.13786">
        <ele>336.6</ele>
        <time>2022-10-30T13:23:48.000Z</time>
      </trkpt>
      <trkpt lat="44.49867" lon="2.13774">
        <ele>335</ele>
        <time>2022-10-30T13:24:00.000Z</time>
      </trkpt>
      <trkpt lat="44.4987" lon="2.13785">
        <ele>332.4</ele>
        <time>2022-10-30T13:24:11.000Z</time>
      </trkpt>
      <trkpt lat="44.49869" lon="2.13798">
        <ele>330.5</ele>
        <time>2022-10-30T13:24:21.000Z</time>
      </trkpt>
      <trkpt lat="44.49869" lon="2.13811">
        <ele>329.4</ele>
        <time>2022-10-30T13:24:29.000Z</time>
      </trkpt>
      <trkpt lat="44.49879" lon="2.13814">
        <ele>322.5</ele>
        <time>2022-10-30T13:25:02.000Z</time>
      </trkpt>
      <trkpt lat="44.49882" lon="2.1381">
        <ele>321.8</ele>
        <time>2022-10-30T13:25:22.000Z</time>
      </trkpt>
      <trkpt lat="44.49883" lon="2.1381">
        <ele>321.8</ele>
        <time>2022-10-30T13:25:23.000Z</time>
      </trkpt>
      <trkpt lat="44.49892" lon="2.13813">
        <ele>320.8</ele>
        <time>2022-10-30T13:25:31.000Z</time>
      </trkpt>
      <trkpt lat="44.49893" lon="2.13821">
        <ele>319.7</ele>
        <time>2022-10-30T13:25:39.000Z</time>
      </trkpt>
      <trkpt lat="44.49894" lon="2.13822">
        <ele>319.6</ele>
        <time>2022-10-30T13:25:41.000Z</time>
      </trkpt>
      <trkpt lat="44.49884" lon="2.1382">
        <ele>317.1</ele>
        <time>2022-10-30T13:26:06.000Z</time>
      </trkpt>
      <trkpt lat="44.49884" lon="2.13826">
        <ele>319.8</ele>
        <time>2022-10-30T13:26:25.000Z</time>
      </trkpt>
      <trkpt lat="44.49884" lon="2.13826">
        <ele>319.8</ele>
        <time>2022-10-30T13:26:29.000Z</time>
      </trkpt>
      <trkpt lat="44.49883" lon="2.13827">
        <ele>319.7</ele>
        <time>2022-10-30T13:26:35.000Z</time>
      </trkpt>
      <trkpt lat="44.49884" lon="2.13827">
        <ele>319.7</ele>
        <time>2022-10-30T13:26:39.000Z</time>
      </trkpt>
      <trkpt lat="44.49883" lon="2.13828">
        <ele>319.9</ele>
        <time>2022-10-30T13:26:42.000Z</time>
      </trkpt>
      <trkpt lat="44.49883" lon="2.13828">
        <ele>319.9</ele>
        <time>2022-10-30T13:26:43.000Z</time>
      </trkpt>
      <trkpt lat="44.49883" lon="2.13828">
        <ele>319.9</ele>
        <time>2022-10-30T13:26:44.000Z</time>
      </trkpt>
      <trkpt lat="44.49883" lon="2.13829">
        <ele>319.9</ele>
        <time>2022-10-30T13:26:46.000Z</time>
      </trkpt>
      <trkpt lat="44.49883" lon="2.13829">
        <ele>319.9</ele>
        <time>2022-10-30T13:26:47.000Z</time>
      </trkpt>
      <trkpt lat="44.49883" lon="2.13828">
        <ele>320</ele>
        <time>2022-10-30T13:26:51.000Z</time>
      </trkpt>
      <trkpt lat="44.49885" lon="2.13826">
        <ele>320.2</ele>
        <time>2022-10-30T13:27:01.000Z</time>
      </trkpt>
      <trkpt lat="44.49885" lon="2.13826">
        <ele>320.2</ele>
        <time>2022-10-30T13:27:02.000Z</time>
      </trkpt>
      <trkpt lat="44.49885" lon="2.13827">
        <ele>319.8</ele>
        <time>2022-10-30T13:27:05.000Z</time>
      </trkpt>
      <trkpt lat="44.49886" lon="2.13827">
        <ele>319.6</ele>
        <time>2022-10-30T13:27:09.000Z</time>
      </trkpt>
      <trkpt lat="44.49886" lon="2.13827">
        <ele>319.6</ele>
        <time>2022-10-30T13:27:10.000Z</time>
      </trkpt>
      <trkpt lat="44.49885" lon="2.13827">
        <ele>319.6</ele>
        <time>2022-10-30T13:27:14.000Z</time>
      </trkpt>
      <trkpt lat="44.49892" lon="2.13816">
        <ele>320.2</ele>
        <time>2022-10-30T13:27:58.000Z</time>
      </trkpt>
      <trkpt lat="44.4989" lon="2.13816">
        <ele>319.8</ele>
        <time>2022-10-30T13:28:02.000Z</time>
      </trkpt>
      <trkpt lat="44.4989" lon="2.13817">
        <ele>319.7</ele>
        <time>2022-10-30T13:28:05.000Z</time>
      </trkpt>
      <trkpt lat="44.49898" lon="2.1381">
        <ele>314.3</ele>
        <time>2022-10-30T13:28:15.000Z</time>
      </trkpt>
      <trkpt lat="44.499" lon="2.13796">
        <ele>313</ele>
        <time>2022-10-30T13:28:29.000Z</time>
      </trkpt>
      <trkpt lat="44.49897" lon="2.13783">
        <ele>312.1</ele>
        <time>2022-10-30T13:28:37.000Z</time>
      </trkpt>
      <trkpt lat="44.49896" lon="2.13769">
        <ele>311.9</ele>
        <time>2022-10-30T13:28:46.000Z</time>
      </trkpt>
      <trkpt lat="44.49897" lon="2.13756">
        <ele>311.8</ele>
        <time>2022-10-30T13:28:54.000Z</time>
      </trkpt>
      <trkpt lat="44.49899" lon="2.13743">
        <ele>311.5</ele>
        <time>2022-10-30T13:29:03.000Z</time>
      </trkpt>
      <trkpt lat="44.49898" lon="2.13729">
        <ele>311.4</ele>
        <time>2022-10-30T13:29:13.000Z</time>
      </trkpt>
      <trkpt lat="44.49901" lon="2.13715">
        <ele>310.7</ele>
        <time>2022-10-30T13:29:22.000Z</time>
      </trkpt>
      <trkpt lat="44.49905" lon="2.13703">
        <ele>310.5</ele>
        <time>2022-10-30T13:29:30.000Z</time>
      </trkpt>
      <trkpt lat="44.49911" lon="2.13699">
        <ele>310.2</ele>
        <time>2022-10-30T13:29:37.000Z</time>
      </trkpt>
      <trkpt lat="44.49912" lon="2.13699">
        <ele>310.1</ele>
        <time>2022-10-30T13:29:40.000Z</time>
      </trkpt>
      <trkpt lat="44.49912" lon="2.13699">
        <ele>310</ele>
        <time>2022-10-30T13:29:41.000Z</time>
      </trkpt>
      <trkpt lat="44.49912" lon="2.13699">
        <ele>309.9</ele>
        <time>2022-10-30T13:29:42.000Z</time>
      </trkpt>
      <trkpt lat="44.49911" lon="2.13699">
        <ele>309.6</ele>
        <time>2022-10-30T13:29:44.000Z</time>
      </trkpt>
      <trkpt lat="44.49911" lon="2.13699">
        <ele>309.4</ele>
        <time>2022-10-30T13:29:45.000Z</time>
      </trkpt>
      <trkpt lat="44.49911" lon="2.137">
        <ele>309.1</ele>
        <time>2022-10-30T13:29:48.000Z</time>
      </trkpt>
      <trkpt lat="44.49911" lon="2.13699">
        <ele>309.3</ele>
        <time>2022-10-30T13:29:52.000Z</time>
      </trkpt>
      <trkpt lat="44.49907" lon="2.13686">
        <ele>307</ele>
        <time>2022-10-30T13:30:08.000Z</time>
      </trkpt>
      <trkpt lat="44.49906" lon="2.13683">
        <ele>306.7</ele>
        <time>2022-10-30T13:30:16.000Z</time>
      </trkpt>
      <trkpt lat="44.49906" lon="2.13682">
        <ele>306.8</ele>
        <time>2022-10-30T13:30:17.000Z</time>
      </trkpt>
      <trkpt lat="44.49907" lon="2.13684">
        <ele>306.9</ele>
        <time>2022-10-30T13:30:26.000Z</time>
      </trkpt>
      <trkpt lat="44.49907" lon="2.13685">
        <ele>307.1</ele>
        <time>2022-10-30T13:30:27.000Z</time>
      </trkpt>
      <trkpt lat="44.49909" lon="2.13687">
        <ele>307.2</ele>
        <time>2022-10-30T13:30:35.000Z</time>
      </trkpt>
      <trkpt lat="44.49908" lon="2.13687">
        <ele>307.1</ele>
        <time>2022-10-30T13:30:40.000Z</time>
      </trkpt>
      <trkpt lat="44.49908" lon="2.13687">
        <ele>307.1</ele>
        <time>2022-10-30T13:30:41.000Z</time>
      </trkpt>
      <trkpt lat="44.49908" lon="2.13688">
        <ele>307</ele>
        <time>2022-10-30T13:30:43.000Z</time>
      </trkpt>
      <trkpt lat="44.49908" lon="2.13688">
        <ele>307</ele>
        <time>2022-10-30T13:30:44.000Z</time>
      </trkpt>
      <trkpt lat="44.49908" lon="2.13688">
        <ele>306.9</ele>
        <time>2022-10-30T13:30:49.000Z</time>
      </trkpt>
      <trkpt lat="44.49908" lon="2.13689">
        <ele>306.9</ele>
        <time>2022-10-30T13:30:53.000Z</time>
      </trkpt>
      <trkpt lat="44.49908" lon="2.13688">
        <ele>306.9</ele>
        <time>2022-10-30T13:30:57.000Z</time>
      </trkpt>
      <trkpt lat="44.49906" lon="2.13675">
        <ele>306.1</ele>
        <time>2022-10-30T13:31:05.000Z</time>
      </trkpt>
      <trkpt lat="44.49905" lon="2.13661">
        <ele>306.1</ele>
        <time>2022-10-30T13:31:12.000Z</time>
      </trkpt>
      <trkpt lat="44.49907" lon="2.13647">
        <ele>305.3</ele>
        <time>2022-10-30T13:31:21.000Z</time>
      </trkpt>
      <trkpt lat="44.49906" lon="2.13634">
        <ele>305.4</ele>
        <time>2022-10-30T13:31:30.000Z</time>
      </trkpt>
      <trkpt lat="44.49905" lon="2.1362">
        <ele>306.8</ele>
        <time>2022-10-30T13:31:43.000Z</time>
      </trkpt>
      <trkpt lat="44.49903" lon="2.13606">
        <ele>306.9</ele>
        <time>2022-10-30T13:31:51.000Z</time>
      </trkpt>
      <trkpt lat="44.49901" lon="2.13593">
        <ele>306.5</ele>
        <time>2022-10-30T13:31:58.000Z</time>
      </trkpt>
      <trkpt lat="44.49898" lon="2.13579">
        <ele>306.4</ele>
        <time>2022-10-30T13:32:07.000Z</time>
      </trkpt>
      <trkpt lat="44.49898" lon="2.13566">
        <ele>306.8</ele>
        <time>2022-10-30T13:32:14.000Z</time>
      </trkpt>
      <trkpt lat="44.49894" lon="2.13554">
        <ele>307.5</ele>
        <time>2022-10-30T13:32:23.000Z</time>
      </trkpt>
      <trkpt lat="44.49887" lon="2.13545">
        <ele>307.6</ele>
        <time>2022-10-30T13:32:32.000Z</time>
      </trkpt>
      <trkpt lat="44.4988" lon="2.13537">
        <ele>306.6</ele>
        <time>2022-10-30T13:32:40.000Z</time>
      </trkpt>
      <trkpt lat="44.49871" lon="2.1353">
        <ele>306</ele>
        <time>2022-10-30T13:32:49.000Z</time>
      </trkpt>
      <trkpt lat="44.49867" lon="2.13526">
        <ele>305.8</ele>
        <time>2022-10-30T13:32:56.000Z</time>
      </trkpt>
      <trkpt lat="44.49867" lon="2.13526">
        <ele>305.7</ele>
        <time>2022-10-30T13:32:59.000Z</time>
      </trkpt>
      <trkpt lat="44.49873" lon="2.13536">
        <ele>304.5</ele>
        <time>2022-10-30T13:33:07.000Z</time>
      </trkpt>
      <trkpt lat="44.49881" lon="2.13545">
        <ele>304</ele>
        <time>2022-10-30T13:33:14.000Z</time>
      </trkpt>
      <trkpt lat="44.49889" lon="2.13554">
        <ele>302.6</ele>
        <time>2022-10-30T13:33:22.000Z</time>
      </trkpt>
      <trkpt lat="44.49895" lon="2.13565">
        <ele>301.1</ele>
        <time>2022-10-30T13:33:32.000Z</time>
      </trkpt>
      <trkpt lat="44.499" lon="2.13572">
        <ele>300.9</ele>
        <time>2022-10-30T13:33:38.000Z</time>
      </trkpt>
      <trkpt lat="44.499" lon="2.13571">
        <ele>300.9</ele>
        <time>2022-10-30T13:33:39.000Z</time>
      </trkpt>
      <trkpt lat="44.49899" lon="2.13571">
        <ele>301.1</ele>
        <time>2022-10-30T13:33:41.000Z</time>
      </trkpt>
      <trkpt lat="44.499" lon="2.13571">
        <ele>301.2</ele>
        <time>2022-10-30T13:33:44.000Z</time>
      </trkpt>
      <trkpt lat="44.49909" lon="2.13575">
        <ele>300.8</ele>
        <time>2022-10-30T13:33:59.000Z</time>
      </trkpt>
      <trkpt lat="44.49918" lon="2.1357">
        <ele>299.6</ele>
        <time>2022-10-30T13:34:11.000Z</time>
      </trkpt>
      <trkpt lat="44.49927" lon="2.13572">
        <ele>297.8</ele>
        <time>2022-10-30T13:34:18.000Z</time>
      </trkpt>
      <trkpt lat="44.49935" lon="2.13575">
        <ele>297.9</ele>
        <time>2022-10-30T13:34:26.000Z</time>
      </trkpt>
      <trkpt lat="44.49934" lon="2.13576">
        <ele>297.8</ele>
        <time>2022-10-30T13:34:30.000Z</time>
      </trkpt>
      <trkpt lat="44.4994" lon="2.13579">
        <ele>296.1</ele>
        <time>2022-10-30T13:34:38.000Z</time>
      </trkpt>
      <trkpt lat="44.49939" lon="2.13578">
        <ele>296.2</ele>
        <time>2022-10-30T13:34:39.000Z</time>
      </trkpt>
      <trkpt lat="44.49938" lon="2.13575">
        <ele>295.7</ele>
        <time>2022-10-30T13:34:45.000Z</time>
      </trkpt>
      <trkpt lat="44.49938" lon="2.13575">
        <ele>295.6</ele>
        <time>2022-10-30T13:34:47.000Z</time>
      </trkpt>
      <trkpt lat="44.49936" lon="2.13561">
        <ele>294.7</ele>
        <time>2022-10-30T13:34:57.000Z</time>
      </trkpt>
      <trkpt lat="44.49942" lon="2.13549">
        <ele>294.6</ele>
        <time>2022-10-30T13:35:11.000Z</time>
      </trkpt>
      <trkpt lat="44.49945" lon="2.13537">
        <ele>294.6</ele>
        <time>2022-10-30T13:35:20.000Z</time>
      </trkpt>
      <trkpt lat="44.49946" lon="2.13524">
        <ele>295.2</ele>
        <time>2022-10-30T13:35:31.000Z</time>
      </trkpt>
      <trkpt lat="44.49941" lon="2.13513">
        <ele>297.8</ele>
        <time>2022-10-30T13:35:40.000Z</time>
      </trkpt>
      <trkpt lat="44.49935" lon="2.13502">
        <ele>298.4</ele>
        <time>2022-10-30T13:35:53.000Z</time>
      </trkpt>
      <trkpt lat="44.49932" lon="2.1349">
        <ele>298.8</ele>
        <time>2022-10-30T13:36:05.000Z</time>
      </trkpt>
      <trkpt lat="44.4993" lon="2.13477">
        <ele>299.9</ele>
        <time>2022-10-30T13:36:15.000Z</time>
      </trkpt>
      <trkpt lat="44.49929" lon="2.13476">
        <ele>300.3</ele>
        <time>2022-10-30T13:36:18.000Z</time>
      </trkpt>
      <trkpt lat="44.49929" lon="2.13475">
        <ele>300.6</ele>
        <time>2022-10-30T13:36:19.000Z</time>
      </trkpt>
      <trkpt lat="44.49937" lon="2.13482">
        <ele>308.3</ele>
        <time>2022-10-30T13:36:58.000Z</time>
      </trkpt>
      <trkpt lat="44.49944" lon="2.1349">
        <ele>312.3</ele>
        <time>2022-10-30T13:37:11.000Z</time>
      </trkpt>
      <trkpt lat="44.49944" lon="2.13491">
        <ele>312.7</ele>
        <time>2022-10-30T13:37:16.000Z</time>
      </trkpt>
      <trkpt lat="44.49944" lon="2.13492">
        <ele>312.7</ele>
        <time>2022-10-30T13:37:22.000Z</time>
      </trkpt>
      <trkpt lat="44.49944" lon="2.13492">
        <ele>312.8</ele>
        <time>2022-10-30T13:37:23.000Z</time>
      </trkpt>
      <trkpt lat="44.49944" lon="2.13492">
        <ele>312.8</ele>
        <time>2022-10-30T13:37:27.000Z</time>
      </trkpt>
      <trkpt lat="44.49944" lon="2.13492">
        <ele>312.8</ele>
        <time>2022-10-30T13:37:28.000Z</time>
      </trkpt>
      <trkpt lat="44.49945" lon="2.13492">
        <ele>313.1</ele>
        <time>2022-10-30T13:37:30.000Z</time>
      </trkpt>
      <trkpt lat="44.49953" lon="2.13498">
        <ele>315.1</ele>
        <time>2022-10-30T13:37:41.000Z</time>
      </trkpt>
      <trkpt lat="44.49962" lon="2.13505">
        <ele>317.7</ele>
        <time>2022-10-30T13:37:55.000Z</time>
      </trkpt>
      <trkpt lat="44.49971" lon="2.1351">
        <ele>318.6</ele>
        <time>2022-10-30T13:38:08.000Z</time>
      </trkpt>
      <trkpt lat="44.4998" lon="2.13511">
        <ele>320.8</ele>
        <time>2022-10-30T13:38:20.000Z</time>
      </trkpt>
      <trkpt lat="44.49989" lon="2.13514">
        <ele>322.5</ele>
        <time>2022-10-30T13:38:31.000Z</time>
      </trkpt>
      <trkpt lat="44.49998" lon="2.13512">
        <ele>323.7</ele>
        <time>2022-10-30T13:38:41.000Z</time>
      </trkpt>
      <trkpt lat="44.50007" lon="2.13511">
        <ele>322.8</ele>
        <time>2022-10-30T13:38:50.000Z</time>
      </trkpt>
      <trkpt lat="44.50017" lon="2.13514">
        <ele>323.1</ele>
        <time>2022-10-30T13:38:59.000Z</time>
      </trkpt>
      <trkpt lat="44.50026" lon="2.13512">
        <ele>322.5</ele>
        <time>2022-10-30T13:39:12.000Z</time>
      </trkpt>
      <trkpt lat="44.50035" lon="2.13511">
        <ele>323.2</ele>
        <time>2022-10-30T13:39:22.000Z</time>
      </trkpt>
      <trkpt lat="44.50045" lon="2.13513">
        <ele>323.9</ele>
        <time>2022-10-30T13:39:32.000Z</time>
      </trkpt>
      <trkpt lat="44.50055" lon="2.1351">
        <ele>324.7</ele>
        <time>2022-10-30T13:39:42.000Z</time>
      </trkpt>
      <trkpt lat="44.50064" lon="2.13508">
        <ele>325.6</ele>
        <time>2022-10-30T13:39:50.000Z</time>
      </trkpt>
      <trkpt lat="44.50067" lon="2.13509">
        <ele>326.3</ele>
        <time>2022-10-30T13:39:54.000Z</time>
      </trkpt>
      <trkpt lat="44.50067" lon="2.13509">
        <ele>326.4</ele>
        <time>2022-10-30T13:39:55.000Z</time>
      </trkpt>
      <trkpt lat="44.50071" lon="2.13508">
        <ele>328.1</ele>
        <time>2022-10-30T13:40:11.000Z</time>
      </trkpt>
      <trkpt lat="44.50071" lon="2.13508">
        <ele>328.2</ele>
        <time>2022-10-30T13:40:12.000Z</time>
      </trkpt>
      <trkpt lat="44.50067" lon="2.13511">
        <ele>327.9</ele>
        <time>2022-10-30T13:40:19.000Z</time>
      </trkpt>
      <trkpt lat="44.50068" lon="2.13511">
        <ele>327.7</ele>
        <time>2022-10-30T13:40:20.000Z</time>
      </trkpt>
      <trkpt lat="44.50069" lon="2.13508">
        <ele>328.2</ele>
        <time>2022-10-30T13:40:25.000Z</time>
      </trkpt>
      <trkpt lat="44.5007" lon="2.13508">
        <ele>328.3</ele>
        <time>2022-10-30T13:40:31.000Z</time>
      </trkpt>
      <trkpt lat="44.50071" lon="2.13507">
        <ele>328.9</ele>
        <time>2022-10-30T13:40:37.000Z</time>
      </trkpt>
      <trkpt lat="44.50071" lon="2.13507">
        <ele>328.9</ele>
        <time>2022-10-30T13:40:58.000Z</time>
      </trkpt>
      <trkpt lat="44.50072" lon="2.13507">
        <ele>328.9</ele>
        <time>2022-10-30T13:41:00.000Z</time>
      </trkpt>
      <trkpt lat="44.50072" lon="2.13507">
        <ele>328.9</ele>
        <time>2022-10-30T13:41:11.000Z</time>
      </trkpt>
      <trkpt lat="44.50072" lon="2.13507">
        <ele>329.2</ele>
        <time>2022-10-30T13:41:13.000Z</time>
      </trkpt>
      <trkpt lat="44.50072" lon="2.13508">
        <ele>329.9</ele>
        <time>2022-10-30T13:41:49.000Z</time>
      </trkpt>
      <trkpt lat="44.50072" lon="2.13508">
        <ele>330</ele>
        <time>2022-10-30T13:41:50.000Z</time>
      </trkpt>
      <trkpt lat="44.50072" lon="2.13508">
        <ele>330.2</ele>
        <time>2022-10-30T13:41:54.000Z</time>
      </trkpt>
      <trkpt lat="44.50069" lon="2.13512">
        <ele>333.3</ele>
        <time>2022-10-30T13:42:06.000Z</time>
      </trkpt>
      <trkpt lat="44.50069" lon="2.13512">
        <ele>333.4</ele>
        <time>2022-10-30T13:42:11.000Z</time>
      </trkpt>
      <trkpt lat="44.50069" lon="2.13512">
        <ele>333.4</ele>
        <time>2022-10-30T13:42:12.000Z</time>
      </trkpt>
      <trkpt lat="44.50068" lon="2.13512">
        <ele>333.5</ele>
        <time>2022-10-30T13:42:18.000Z</time>
      </trkpt>
      <trkpt lat="44.50068" lon="2.13512">
        <ele>333.6</ele>
        <time>2022-10-30T13:42:19.000Z</time>
      </trkpt>
      <trkpt lat="44.50068" lon="2.13512">
        <ele>333.6</ele>
        <time>2022-10-30T13:42:20.000Z</time>
      </trkpt>
      <trkpt lat="44.50067" lon="2.13513">
        <ele>333.6</ele>
        <time>2022-10-30T13:42:23.000Z</time>
      </trkpt>
      <trkpt lat="44.50067" lon="2.13513">
        <ele>333.6</ele>
        <time>2022-10-30T13:42:26.000Z</time>
      </trkpt>
      <trkpt lat="44.50066" lon="2.13514">
        <ele>333.9</ele>
        <time>2022-10-30T13:42:28.000Z</time>
      </trkpt>
      <trkpt lat="44.50066" lon="2.13514">
        <ele>333.9</ele>
        <time>2022-10-30T13:42:29.000Z</time>
      </trkpt>
      <trkpt lat="44.50066" lon="2.13514">
        <ele>334</ele>
        <time>2022-10-30T13:42:30.000Z</time>
      </trkpt>
      <trkpt lat="44.50066" lon="2.13514">
        <ele>334.1</ele>
        <time>2022-10-30T13:42:31.000Z</time>
      </trkpt>
      <trkpt lat="44.50066" lon="2.13514">
        <ele>334</ele>
        <time>2022-10-30T13:42:33.000Z</time>
      </trkpt>
      <trkpt lat="44.50065" lon="2.13513">
        <ele>333.9</ele>
        <time>2022-10-30T13:42:34.000Z</time>
      </trkpt>
      <trkpt lat="44.50065" lon="2.13513">
        <ele>333.9</ele>
        <time>2022-10-30T13:42:35.000Z</time>
      </trkpt>
      <trkpt lat="44.50065" lon="2.13513">
        <ele>333.9</ele>
        <time>2022-10-30T13:42:38.000Z</time>
      </trkpt>
      <trkpt lat="44.50066" lon="2.13511">
        <ele>333.2</ele>
        <time>2022-10-30T13:42:46.000Z</time>
      </trkpt>
      <trkpt lat="44.50066" lon="2.13511">
        <ele>333.2</ele>
        <time>2022-10-30T13:42:48.000Z</time>
      </trkpt>
      <trkpt lat="44.50075" lon="2.13508">
        <ele>332.8</ele>
        <time>2022-10-30T13:42:57.000Z</time>
      </trkpt>
      <trkpt lat="44.50085" lon="2.1351">
        <ele>333.4</ele>
        <time>2022-10-30T13:43:07.000Z</time>
      </trkpt>
      <trkpt lat="44.50094" lon="2.13509">
        <ele>334.3</ele>
        <time>2022-10-30T13:43:16.000Z</time>
      </trkpt>
      <trkpt lat="44.50103" lon="2.13505">
        <ele>334.7</ele>
        <time>2022-10-30T13:43:25.000Z</time>
      </trkpt>
      <trkpt lat="44.50111" lon="2.13499">
        <ele>334.9</ele>
        <time>2022-10-30T13:43:32.000Z</time>
      </trkpt>
      <trkpt lat="44.5012" lon="2.135">
        <ele>336.8</ele>
        <time>2022-10-30T13:43:43.000Z</time>
      </trkpt>
      <trkpt lat="44.50129" lon="2.13493">
        <ele>337.6</ele>
        <time>2022-10-30T13:43:55.000Z</time>
      </trkpt>
      <trkpt lat="44.50138" lon="2.13494">
        <ele>339.9</ele>
        <time>2022-10-30T13:44:04.000Z</time>
      </trkpt>
      <trkpt lat="44.5014" lon="2.13491">
        <ele>340.4</ele>
        <time>2022-10-30T13:44:10.000Z</time>
      </trkpt>
      <trkpt lat="44.5014" lon="2.13491">
        <ele>340.5</ele>
        <time>2022-10-30T13:44:16.000Z</time>
      </trkpt>
      <trkpt lat="44.5014" lon="2.1349">
        <ele>340.5</ele>
        <time>2022-10-30T13:44:18.000Z</time>
      </trkpt>
      <trkpt lat="44.50139" lon="2.13491">
        <ele>340.5</ele>
        <time>2022-10-30T13:44:19.000Z</time>
      </trkpt>
      <trkpt lat="44.50137" lon="2.13493">
        <ele>340.3</ele>
        <time>2022-10-30T13:44:25.000Z</time>
      </trkpt>
      <trkpt lat="44.50138" lon="2.13492">
        <ele>340.5</ele>
        <time>2022-10-30T13:44:26.000Z</time>
      </trkpt>
      <trkpt lat="44.50147" lon="2.13494">
        <ele>340.5</ele>
        <time>2022-10-30T13:44:36.000Z</time>
      </trkpt>
      <trkpt lat="44.50156" lon="2.13498">
        <ele>340.2</ele>
        <time>2022-10-30T13:44:43.000Z</time>
      </trkpt>
      <trkpt lat="44.50165" lon="2.13495">
        <ele>341.4</ele>
        <time>2022-10-30T13:44:51.000Z</time>
      </trkpt>
      <trkpt lat="44.50174" lon="2.13497">
        <ele>342.7</ele>
        <time>2022-10-30T13:45:02.000Z</time>
      </trkpt>
      <trkpt lat="44.50184" lon="2.13501">
        <ele>344</ele>
        <time>2022-10-30T13:45:11.000Z</time>
      </trkpt>
      <trkpt lat="44.50193" lon="2.13499">
        <ele>344.9</ele>
        <time>2022-10-30T13:45:19.000Z</time>
      </trkpt>
      <trkpt lat="44.50202" lon="2.13495">
        <ele>347.6</ele>
        <time>2022-10-30T13:45:28.000Z</time>
      </trkpt>
      <trkpt lat="44.50212" lon="2.13493">
        <ele>351.4</ele>
        <time>2022-10-30T13:45:40.000Z</time>
      </trkpt>
      <trkpt lat="44.50221" lon="2.1349">
        <ele>353.7</ele>
        <time>2022-10-30T13:45:49.000Z</time>
      </trkpt>
      <trkpt lat="44.5023" lon="2.13486">
        <ele>357</ele>
        <time>2022-10-30T13:46:03.000Z</time>
      </trkpt>
      <trkpt lat="44.50239" lon="2.13482">
        <ele>359.7</ele>
        <time>2022-10-30T13:46:14.000Z</time>
      </trkpt>
      <trkpt lat="44.50239" lon="2.13469">
        <ele>361.1</ele>
        <time>2022-10-30T13:46:28.000Z</time>
      </trkpt>
      <trkpt lat="44.50231" lon="2.13463">
        <ele>361.7</ele>
        <time>2022-10-30T13:46:37.000Z</time>
      </trkpt>
      <trkpt lat="44.50223" lon="2.13455">
        <ele>362.5</ele>
        <time>2022-10-30T13:46:45.000Z</time>
      </trkpt>
      <trkpt lat="44.50215" lon="2.13449">
        <ele>364.5</ele>
        <time>2022-10-30T13:46:55.000Z</time>
      </trkpt>
      <trkpt lat="44.50206" lon="2.13444">
        <ele>366.2</ele>
        <time>2022-10-30T13:47:07.000Z</time>
      </trkpt>
      <trkpt lat="44.50199" lon="2.13433">
        <ele>367.3</ele>
        <time>2022-10-30T13:47:17.000Z</time>
      </trkpt>
      <trkpt lat="44.50191" lon="2.13427">
        <ele>368.7</ele>
        <time>2022-10-30T13:47:28.000Z</time>
      </trkpt>
      <trkpt lat="44.50183" lon="2.13421">
        <ele>369.1</ele>
        <time>2022-10-30T13:47:38.000Z</time>
      </trkpt>
      <trkpt lat="44.50176" lon="2.13412">
        <ele>369.7</ele>
        <time>2022-10-30T13:47:49.000Z</time>
      </trkpt>
      <trkpt lat="44.50167" lon="2.13409">
        <ele>373.6</ele>
        <time>2022-10-30T13:48:00.000Z</time>
      </trkpt>
      <trkpt lat="44.50158" lon="2.13402">
        <ele>380.5</ele>
        <time>2022-10-30T13:48:10.000Z</time>
      </trkpt>
      <trkpt lat="44.50154" lon="2.13399">
        <ele>383.1</ele>
        <time>2022-10-30T13:48:16.000Z</time>
      </trkpt>
      <trkpt lat="44.50154" lon="2.13399">
        <ele>384.3</ele>
        <time>2022-10-30T13:48:17.000Z</time>
      </trkpt>
      <trkpt lat="44.50153" lon="2.13388">
        <ele>388.2</ele>
        <time>2022-10-30T13:48:29.000Z</time>
      </trkpt>
      <trkpt lat="44.50153" lon="2.13388">
        <ele>388.5</ele>
        <time>2022-10-30T13:48:31.000Z</time>
      </trkpt>
      <trkpt lat="44.50151" lon="2.13388">
        <ele>390.8</ele>
        <time>2022-10-30T13:48:36.000Z</time>
      </trkpt>
      <trkpt lat="44.50151" lon="2.13388">
        <ele>390.9</ele>
        <time>2022-10-30T13:48:38.000Z</time>
      </trkpt>
      <trkpt lat="44.50151" lon="2.13388">
        <ele>390.8</ele>
        <time>2022-10-30T13:48:39.000Z</time>
      </trkpt>
      <trkpt lat="44.50151" lon="2.13388">
        <ele>390.9</ele>
        <time>2022-10-30T13:48:43.000Z</time>
      </trkpt>
      <trkpt lat="44.50151" lon="2.13388">
        <ele>391</ele>
        <time>2022-10-30T13:48:45.000Z</time>
      </trkpt>
      <trkpt lat="44.5015" lon="2.1339">
        <ele>391</ele>
        <time>2022-10-30T13:49:32.000Z</time>
      </trkpt>
      <trkpt lat="44.5015" lon="2.1339">
        <ele>391</ele>
        <time>2022-10-30T13:49:33.000Z</time>
      </trkpt>
      <trkpt lat="44.5015" lon="2.1339">
        <ele>391</ele>
        <time>2022-10-30T13:49:58.000Z</time>
      </trkpt>
      <trkpt lat="44.5015" lon="2.1339">
        <ele>391</ele>
        <time>2022-10-30T13:49:59.000Z</time>
      </trkpt>
      <trkpt lat="44.5015" lon="2.1339">
        <ele>391.2</ele>
        <time>2022-10-30T13:50:00.000Z</time>
      </trkpt>
      <trkpt lat="44.50151" lon="2.1339">
        <ele>391.3</ele>
        <time>2022-10-30T13:50:02.000Z</time>
      </trkpt>
      <trkpt lat="44.50151" lon="2.13391">
        <ele>391.5</ele>
        <time>2022-10-30T13:50:07.000Z</time>
      </trkpt>
      <trkpt lat="44.50159" lon="2.13383">
        <ele>393.6</ele>
        <time>2022-10-30T13:50:19.000Z</time>
      </trkpt>
      <trkpt lat="44.50163" lon="2.13381">
        <ele>394</ele>
        <time>2022-10-30T13:50:25.000Z</time>
      </trkpt>
      <trkpt lat="44.50163" lon="2.13381">
        <ele>394</ele>
        <time>2022-10-30T13:50:26.000Z</time>
      </trkpt>
      <trkpt lat="44.50165" lon="2.13381">
        <ele>394.7</ele>
        <time>2022-10-30T13:50:31.000Z</time>
      </trkpt>
      <trkpt lat="44.50165" lon="2.13381">
        <ele>394.7</ele>
        <time>2022-10-30T13:50:32.000Z</time>
      </trkpt>
      <trkpt lat="44.50174" lon="2.1338">
        <ele>395.2</ele>
        <time>2022-10-30T13:50:43.000Z</time>
      </trkpt>
      <trkpt lat="44.50183" lon="2.1338">
        <ele>397.3</ele>
        <time>2022-10-30T13:50:53.000Z</time>
      </trkpt>
      <trkpt lat="44.50183" lon="2.1338">
        <ele>397.2</ele>
        <time>2022-10-30T13:50:55.000Z</time>
      </trkpt>
      <trkpt lat="44.50183" lon="2.1338">
        <ele>397.6</ele>
        <time>2022-10-30T13:50:56.000Z</time>
      </trkpt>
      <trkpt lat="44.50193" lon="2.13377">
        <ele>400.1</ele>
        <time>2022-10-30T13:51:05.000Z</time>
      </trkpt>
      <trkpt lat="44.50202" lon="2.13374">
        <ele>402</ele>
        <time>2022-10-30T13:51:15.000Z</time>
      </trkpt>
      <trkpt lat="44.50212" lon="2.13371">
        <ele>404.3</ele>
        <time>2022-10-30T13:51:25.000Z</time>
      </trkpt>
      <trkpt lat="44.50221" lon="2.13368">
        <ele>404.3</ele>
        <time>2022-10-30T13:51:35.000Z</time>
      </trkpt>
      <trkpt lat="44.5023" lon="2.13365">
        <ele>405.5</ele>
        <time>2022-10-30T13:51:45.000Z</time>
      </trkpt>
      <trkpt lat="44.5024" lon="2.13364">
        <ele>407.6</ele>
        <time>2022-10-30T13:51:54.000Z</time>
      </trkpt>
      <trkpt lat="44.50249" lon="2.1336">
        <ele>410.6</ele>
        <time>2022-10-30T13:52:15.000Z</time>
      </trkpt>
      <trkpt lat="44.50255" lon="2.13349">
        <ele>412.1</ele>
        <time>2022-10-30T13:52:26.000Z</time>
      </trkpt>
      <trkpt lat="44.50264" lon="2.13348">
        <ele>414.2</ele>
        <time>2022-10-30T13:52:32.000Z</time>
      </trkpt>
      <trkpt lat="44.50274" lon="2.13348">
        <ele>415.3</ele>
        <time>2022-10-30T13:52:39.000Z</time>
      </trkpt>
      <trkpt lat="44.50283" lon="2.13346">
        <ele>417.2</ele>
        <time>2022-10-30T13:52:46.000Z</time>
      </trkpt>
      <trkpt lat="44.50292" lon="2.13342">
        <ele>419.1</ele>
        <time>2022-10-30T13:52:57.000Z</time>
      </trkpt>
      <trkpt lat="44.50301" lon="2.13342">
        <ele>420.2</ele>
        <time>2022-10-30T13:53:06.000Z</time>
      </trkpt>
      <trkpt lat="44.5031" lon="2.13344">
        <ele>421.5</ele>
        <time>2022-10-30T13:53:13.000Z</time>
      </trkpt>
      <trkpt lat="44.50319" lon="2.13347">
        <ele>422.1</ele>
        <time>2022-10-30T13:53:23.000Z</time>
      </trkpt>
      <trkpt lat="44.50329" lon="2.1335">
        <ele>422.8</ele>
        <time>2022-10-30T13:53:33.000Z</time>
      </trkpt>
      <trkpt lat="44.50338" lon="2.13352">
        <ele>424.3</ele>
        <time>2022-10-30T13:53:43.000Z</time>
      </trkpt>
      <trkpt lat="44.50348" lon="2.13352">
        <ele>425.5</ele>
        <time>2022-10-30T13:53:52.000Z</time>
      </trkpt>
      <trkpt lat="44.50357" lon="2.1335">
        <ele>427.4</ele>
        <time>2022-10-30T13:54:01.000Z</time>
      </trkpt>
      <trkpt lat="44.50367" lon="2.13348">
        <ele>429.4</ele>
        <time>2022-10-30T13:54:11.000Z</time>
      </trkpt>
      <trkpt lat="44.50376" lon="2.13347">
        <ele>432.5</ele>
        <time>2022-10-30T13:54:22.000Z</time>
      </trkpt>
      <trkpt lat="44.50379" lon="2.13347">
        <ele>433.4</ele>
        <time>2022-10-30T13:54:27.000Z</time>
      </trkpt>
      <trkpt lat="44.50379" lon="2.13348">
        <ele>433.5</ele>
        <time>2022-10-30T13:54:35.000Z</time>
      </trkpt>
      <trkpt lat="44.50379" lon="2.13348">
        <ele>433.6</ele>
        <time>2022-10-30T13:54:36.000Z</time>
      </trkpt>
      <trkpt lat="44.50379" lon="2.13348">
        <ele>433.9</ele>
        <time>2022-10-30T13:55:03.000Z</time>
      </trkpt>
      <trkpt lat="44.50379" lon="2.13348">
        <ele>433.9</ele>
        <time>2022-10-30T13:55:04.000Z</time>
      </trkpt>
      <trkpt lat="44.50379" lon="2.13348">
        <ele>433.9</ele>
        <time>2022-10-30T13:55:54.000Z</time>
      </trkpt>
      <trkpt lat="44.50388" lon="2.13353">
        <ele>435</ele>
        <time>2022-10-30T13:56:06.000Z</time>
      </trkpt>
      <trkpt lat="44.50397" lon="2.13357">
        <ele>435.3</ele>
        <time>2022-10-30T13:56:15.000Z</time>
      </trkpt>
      <trkpt lat="44.50406" lon="2.1336">
        <ele>435.6</ele>
        <time>2022-10-30T13:56:24.000Z</time>
      </trkpt>
      <trkpt lat="44.50414" lon="2.13364">
        <ele>435.3</ele>
        <time>2022-10-30T13:56:32.000Z</time>
      </trkpt>
      <trkpt lat="44.50424" lon="2.13366">
        <ele>435.8</ele>
        <time>2022-10-30T13:56:41.000Z</time>
      </trkpt>
      <trkpt lat="44.50434" lon="2.13368">
        <ele>436.3</ele>
        <time>2022-10-30T13:56:50.000Z</time>
      </trkpt>
      <trkpt lat="44.50444" lon="2.13371">
        <ele>436.3</ele>
        <time>2022-10-30T13:56:59.000Z</time>
      </trkpt>
      <trkpt lat="44.50453" lon="2.13374">
        <ele>436.9</ele>
        <time>2022-10-30T13:57:08.000Z</time>
      </trkpt>
      <trkpt lat="44.50463" lon="2.13376">
        <ele>438</ele>
        <time>2022-10-30T13:57:17.000Z</time>
      </trkpt>
      <trkpt lat="44.50472" lon="2.13379">
        <ele>438.6</ele>
        <time>2022-10-30T13:57:25.000Z</time>
      </trkpt>
      <trkpt lat="44.50481" lon="2.13382">
        <ele>440.4</ele>
        <time>2022-10-30T13:57:34.000Z</time>
      </trkpt>
      <trkpt lat="44.5049" lon="2.13385">
        <ele>441.4</ele>
        <time>2022-10-30T13:57:44.000Z</time>
      </trkpt>
      <trkpt lat="44.50499" lon="2.13384">
        <ele>441.4</ele>
        <time>2022-10-30T13:57:52.000Z</time>
      </trkpt>
      <trkpt lat="44.50503" lon="2.13371">
        <ele>441.8</ele>
        <time>2022-10-30T13:58:02.000Z</time>
      </trkpt>
      <trkpt lat="44.50503" lon="2.13358">
        <ele>441.3</ele>
        <time>2022-10-30T13:58:12.000Z</time>
      </trkpt>
      <trkpt lat="44.50508" lon="2.13345">
        <ele>441.7</ele>
        <time>2022-10-30T13:58:20.000Z</time>
      </trkpt>
      <trkpt lat="44.50513" lon="2.13346">
        <ele>441.4</ele>
        <time>2022-10-30T13:58:29.000Z</time>
      </trkpt>
      <trkpt lat="44.50513" lon="2.13346">
        <ele>441.4</ele>
        <time>2022-10-30T13:58:30.000Z</time>
      </trkpt>
      <trkpt lat="44.50513" lon="2.13346">
        <ele>441.4</ele>
        <time>2022-10-30T13:58:31.000Z</time>
      </trkpt>
      <trkpt lat="44.50513" lon="2.13346">
        <ele>441.6</ele>
        <time>2022-10-30T13:58:33.000Z</time>
      </trkpt>
      <trkpt lat="44.50516" lon="2.13339">
        <ele>441.1</ele>
        <time>2022-10-30T13:58:43.000Z</time>
      </trkpt>
      <trkpt lat="44.50516" lon="2.13339">
        <ele>441</ele>
        <time>2022-10-30T13:58:51.000Z</time>
      </trkpt>
      <trkpt lat="44.50516" lon="2.1334">
        <ele>441</ele>
        <time>2022-10-30T13:58:52.000Z</time>
      </trkpt>
      <trkpt lat="44.50516" lon="2.13339">
        <ele>441</ele>
        <time>2022-10-30T13:58:53.000Z</time>
      </trkpt>
      <trkpt lat="44.50519" lon="2.13327">
        <ele>440</ele>
        <time>2022-10-30T13:59:02.000Z</time>
      </trkpt>
      <trkpt lat="44.50524" lon="2.13316">
        <ele>440.5</ele>
        <time>2022-10-30T13:59:10.000Z</time>
      </trkpt>
      <trkpt lat="44.50522" lon="2.13302">
        <ele>440.8</ele>
        <time>2022-10-30T13:59:17.000Z</time>
      </trkpt>
      <trkpt lat="44.50521" lon="2.13302">
        <ele>440.7</ele>
        <time>2022-10-30T13:59:19.000Z</time>
      </trkpt>
      <trkpt lat="44.50522" lon="2.13301">
        <ele>440.6</ele>
        <time>2022-10-30T13:59:20.000Z</time>
      </trkpt>
      <trkpt lat="44.50526" lon="2.13289">
        <ele>439.6</ele>
        <time>2022-10-30T13:59:28.000Z</time>
      </trkpt>
      <trkpt lat="44.50529" lon="2.13276">
        <ele>438.4</ele>
        <time>2022-10-30T13:59:35.000Z</time>
      </trkpt>
      <trkpt lat="44.50533" lon="2.13264">
        <ele>438.3</ele>
        <time>2022-10-30T13:59:41.000Z</time>
      </trkpt>
      <trkpt lat="44.50538" lon="2.13253">
        <ele>437.7</ele>
        <time>2022-10-30T13:59:50.000Z</time>
      </trkpt>
      <trkpt lat="44.50538" lon="2.13253">
        <ele>437.6</ele>
        <time>2022-10-30T13:59:51.000Z</time>
      </trkpt>
      <trkpt lat="44.50538" lon="2.13253">
        <ele>437.4</ele>
        <time>2022-10-30T13:59:59.000Z</time>
      </trkpt>
      <trkpt lat="44.50538" lon="2.13253">
        <ele>437.4</ele>
        <time>2022-10-30T14:00:00.000Z</time>
      </trkpt>
      <trkpt lat="44.50538" lon="2.13253">
        <ele>437.5</ele>
        <time>2022-10-30T14:00:08.000Z</time>
      </trkpt>
      <trkpt lat="44.50538" lon="2.13253">
        <ele>437.4</ele>
        <time>2022-10-30T14:00:09.000Z</time>
      </trkpt>
      <trkpt lat="44.50539" lon="2.13253">
        <ele>437.2</ele>
        <time>2022-10-30T14:00:10.000Z</time>
      </trkpt>
      <trkpt lat="44.50543" lon="2.1324">
        <ele>436.9</ele>
        <time>2022-10-30T14:00:19.000Z</time>
      </trkpt>
      <trkpt lat="44.50548" lon="2.13228">
        <ele>435.9</ele>
        <time>2022-10-30T14:00:28.000Z</time>
      </trkpt>
      <trkpt lat="44.50553" lon="2.13217">
        <ele>435.8</ele>
        <time>2022-10-30T14:00:36.000Z</time>
      </trkpt>
      <trkpt lat="44.50557" lon="2.13205">
        <ele>436.2</ele>
        <time>2022-10-30T14:00:44.000Z</time>
      </trkpt>
      <trkpt lat="44.50561" lon="2.13194">
        <ele>436</ele>
        <time>2022-10-30T14:00:53.000Z</time>
      </trkpt>
      <trkpt lat="44.50567" lon="2.13182">
        <ele>435.6</ele>
        <time>2022-10-30T14:01:02.000Z</time>
      </trkpt>
      <trkpt lat="44.50572" lon="2.13173">
        <ele>434.7</ele>
        <time>2022-10-30T14:01:10.000Z</time>
      </trkpt>
      <trkpt lat="44.50579" lon="2.13162">
        <ele>434.5</ele>
        <time>2022-10-30T14:01:18.000Z</time>
      </trkpt>
      <trkpt lat="44.50585" lon="2.13152">
        <ele>433.3</ele>
        <time>2022-10-30T14:01:27.000Z</time>
      </trkpt>
      <trkpt lat="44.5059" lon="2.13141">
        <ele>432.2</ele>
        <time>2022-10-30T14:01:36.000Z</time>
      </trkpt>
      <trkpt lat="44.50595" lon="2.1313">
        <ele>431.3</ele>
        <time>2022-10-30T14:01:44.000Z</time>
      </trkpt>
      <trkpt lat="44.506" lon="2.13119">
        <ele>431</ele>
        <time>2022-10-30T14:01:52.000Z</time>
      </trkpt>
      <trkpt lat="44.50607" lon="2.13109">
        <ele>429.9</ele>
        <time>2022-10-30T14:02:00.000Z</time>
      </trkpt>
      <trkpt lat="44.50612" lon="2.13098">
        <ele>428.9</ele>
        <time>2022-10-30T14:02:09.000Z</time>
      </trkpt>
      <trkpt lat="44.50618" lon="2.13088">
        <ele>426.8</ele>
        <time>2022-10-30T14:02:18.000Z</time>
      </trkpt>
      <trkpt lat="44.50624" lon="2.13077">
        <ele>424.9</ele>
        <time>2022-10-30T14:02:27.000Z</time>
      </trkpt>
      <trkpt lat="44.5063" lon="2.13067">
        <ele>423.2</ele>
        <time>2022-10-30T14:02:36.000Z</time>
      </trkpt>
      <trkpt lat="44.50636" lon="2.13057">
        <ele>420.8</ele>
        <time>2022-10-30T14:02:45.000Z</time>
      </trkpt>
      <trkpt lat="44.50641" lon="2.13047">
        <ele>419</ele>
        <time>2022-10-30T14:02:53.000Z</time>
      </trkpt>
      <trkpt lat="44.50646" lon="2.13035">
        <ele>417.9</ele>
        <time>2022-10-30T14:03:02.000Z</time>
      </trkpt>
      <trkpt lat="44.50651" lon="2.13022">
        <ele>415.8</ele>
        <time>2022-10-30T14:03:11.000Z</time>
      </trkpt>
      <trkpt lat="44.50656" lon="2.13012">
        <ele>414.9</ele>
        <time>2022-10-30T14:03:20.000Z</time>
      </trkpt>
      <trkpt lat="44.50661" lon="2.13">
        <ele>414.8</ele>
        <time>2022-10-30T14:03:28.000Z</time>
      </trkpt>
      <trkpt lat="44.50667" lon="2.1299">
        <ele>412.7</ele>
        <time>2022-10-30T14:03:37.000Z</time>
      </trkpt>
      <trkpt lat="44.50673" lon="2.1298">
        <ele>411.1</ele>
        <time>2022-10-30T14:03:47.000Z</time>
      </trkpt>
      <trkpt lat="44.50679" lon="2.12969">
        <ele>409.3</ele>
        <time>2022-10-30T14:03:58.000Z</time>
      </trkpt>
      <trkpt lat="44.50685" lon="2.12959">
        <ele>407.5</ele>
        <time>2022-10-30T14:04:09.000Z</time>
      </trkpt>
      <trkpt lat="44.50688" lon="2.12946">
        <ele>406.8</ele>
        <time>2022-10-30T14:04:21.000Z</time>
      </trkpt>
      <trkpt lat="44.50697" lon="2.12945">
        <ele>405.2</ele>
        <time>2022-10-30T14:04:31.000Z</time>
      </trkpt>
      <trkpt lat="44.50703" lon="2.12955">
        <ele>404.2</ele>
        <time>2022-10-30T14:04:44.000Z</time>
      </trkpt>
      <trkpt lat="44.50703" lon="2.12958">
        <ele>403.6</ele>
        <time>2022-10-30T14:04:47.000Z</time>
      </trkpt>
      <trkpt lat="44.50703" lon="2.12959">
        <ele>403.5</ele>
        <time>2022-10-30T14:04:59.000Z</time>
      </trkpt>
      <trkpt lat="44.50702" lon="2.1296">
        <ele>403</ele>
        <time>2022-10-30T14:05:02.000Z</time>
      </trkpt>
      <trkpt lat="44.50703" lon="2.1296">
        <ele>402.7</ele>
        <time>2022-10-30T14:05:03.000Z</time>
      </trkpt>
      <trkpt lat="44.50706" lon="2.12972">
        <ele>399.7</ele>
        <time>2022-10-30T14:05:20.000Z</time>
      </trkpt>
      <trkpt lat="44.50705" lon="2.12985">
        <ele>397.9</ele>
        <time>2022-10-30T14:05:28.000Z</time>
      </trkpt>
      <trkpt lat="44.50703" lon="2.12998">
        <ele>396.6</ele>
        <time>2022-10-30T14:05:38.000Z</time>
      </trkpt>
      <trkpt lat="44.50703" lon="2.13011">
        <ele>396.4</ele>
        <time>2022-10-30T14:05:46.000Z</time>
      </trkpt>
      <trkpt lat="44.50702" lon="2.13025">
        <ele>395.5</ele>
        <time>2022-10-30T14:05:56.000Z</time>
      </trkpt>
      <trkpt lat="44.50699" lon="2.13038">
        <ele>395.7</ele>
        <time>2022-10-30T14:06:05.000Z</time>
      </trkpt>
      <trkpt lat="44.50696" lon="2.13051">
        <ele>394.1</ele>
        <time>2022-10-30T14:06:14.000Z</time>
      </trkpt>
      <trkpt lat="44.50692" lon="2.13064">
        <ele>392.6</ele>
        <time>2022-10-30T14:06:23.000Z</time>
      </trkpt>
      <trkpt lat="44.50689" lon="2.13076">
        <ele>391.2</ele>
        <time>2022-10-30T14:06:32.000Z</time>
      </trkpt>
      <trkpt lat="44.50687" lon="2.13088">
        <ele>390.4</ele>
        <time>2022-10-30T14:06:42.000Z</time>
      </trkpt>
      <trkpt lat="44.50685" lon="2.13102">
        <ele>390</ele>
        <time>2022-10-30T14:06:55.000Z</time>
      </trkpt>
      <trkpt lat="44.50682" lon="2.13115">
        <ele>389.8</ele>
        <time>2022-10-30T14:07:01.000Z</time>
      </trkpt>
      <trkpt lat="44.50682" lon="2.13129">
        <ele>388.3</ele>
        <time>2022-10-30T14:07:10.000Z</time>
      </trkpt>
      <trkpt lat="44.50681" lon="2.13143">
        <ele>387.3</ele>
        <time>2022-10-30T14:07:19.000Z</time>
      </trkpt>
      <trkpt lat="44.50684" lon="2.13156">
        <ele>388.2</ele>
        <time>2022-10-30T14:07:31.000Z</time>
      </trkpt>
      <trkpt lat="44.50688" lon="2.13168">
        <ele>390.4</ele>
        <time>2022-10-30T14:07:43.000Z</time>
      </trkpt>
      <trkpt lat="44.50695" lon="2.13178">
        <ele>390.4</ele>
        <time>2022-10-30T14:07:54.000Z</time>
      </trkpt>
      <trkpt lat="44.50703" lon="2.13174">
        <ele>385.7</ele>
        <time>2022-10-30T14:08:02.000Z</time>
      </trkpt>
      <trkpt lat="44.50706" lon="2.13173">
        <ele>384.1</ele>
        <time>2022-10-30T14:08:07.000Z</time>
      </trkpt>
      <trkpt lat="44.50707" lon="2.13173">
        <ele>384</ele>
        <time>2022-10-30T14:08:11.000Z</time>
      </trkpt>
      <trkpt lat="44.50717" lon="2.13174">
        <ele>382.3</ele>
        <time>2022-10-30T14:08:20.000Z</time>
      </trkpt>
      <trkpt lat="44.50725" lon="2.13168">
        <ele>380.5</ele>
        <time>2022-10-30T14:08:30.000Z</time>
      </trkpt>
      <trkpt lat="44.50731" lon="2.13157">
        <ele>377.6</ele>
        <time>2022-10-30T14:08:39.000Z</time>
      </trkpt>
      <trkpt lat="44.50736" lon="2.13146">
        <ele>376.2</ele>
        <time>2022-10-30T14:08:48.000Z</time>
      </trkpt>
      <trkpt lat="44.50744" lon="2.13138">
        <ele>374.5</ele>
        <time>2022-10-30T14:08:58.000Z</time>
      </trkpt>
      <trkpt lat="44.50752" lon="2.1313">
        <ele>373.4</ele>
        <time>2022-10-30T14:09:09.000Z</time>
      </trkpt>
      <trkpt lat="44.5076" lon="2.13124">
        <ele>371.9</ele>
        <time>2022-10-30T14:09:19.000Z</time>
      </trkpt>
      <trkpt lat="44.50769" lon="2.13119">
        <ele>368.9</ele>
        <time>2022-10-30T14:09:29.000Z</time>
      </trkpt>
      <trkpt lat="44.50777" lon="2.13111">
        <ele>366.7</ele>
        <time>2022-10-30T14:09:41.000Z</time>
      </trkpt>
      <trkpt lat="44.50784" lon="2.13103">
        <ele>365.9</ele>
        <time>2022-10-30T14:09:51.000Z</time>
      </trkpt>
      <trkpt lat="44.50793" lon="2.13097">
        <ele>366.3</ele>
        <time>2022-10-30T14:10:00.000Z</time>
      </trkpt>
      <trkpt lat="44.50801" lon="2.13093">
        <ele>365.4</ele>
        <time>2022-10-30T14:10:09.000Z</time>
      </trkpt>
      <trkpt lat="44.50793" lon="2.13087">
        <ele>364.7</ele>
        <time>2022-10-30T14:10:23.000Z</time>
      </trkpt>
      <trkpt lat="44.50784" lon="2.13087">
        <ele>364.3</ele>
        <time>2022-10-30T14:10:33.000Z</time>
      </trkpt>
      <trkpt lat="44.50775" lon="2.13088">
        <ele>363.3</ele>
        <time>2022-10-30T14:10:42.000Z</time>
      </trkpt>
      <trkpt lat="44.50765" lon="2.13088">
        <ele>362.9</ele>
        <time>2022-10-30T14:10:49.000Z</time>
      </trkpt>
      <trkpt lat="44.50755" lon="2.13087">
        <ele>363.4</ele>
        <time>2022-10-30T14:10:57.000Z</time>
      </trkpt>
      <trkpt lat="44.5076" lon="2.13075">
        <ele>359.6</ele>
        <time>2022-10-30T14:11:11.000Z</time>
      </trkpt>
      <trkpt lat="44.5077" lon="2.13072">
        <ele>358.4</ele>
        <time>2022-10-30T14:11:19.000Z</time>
      </trkpt>
      <trkpt lat="44.50777" lon="2.13065">
        <ele>356.3</ele>
        <time>2022-10-30T14:11:29.000Z</time>
      </trkpt>
      <trkpt lat="44.50785" lon="2.13059">
        <ele>355.6</ele>
        <time>2022-10-30T14:11:40.000Z</time>
      </trkpt>
      <trkpt lat="44.50791" lon="2.13049">
        <ele>355.3</ele>
        <time>2022-10-30T14:11:51.000Z</time>
      </trkpt>
      <trkpt lat="44.50797" lon="2.13038">
        <ele>353.6</ele>
        <time>2022-10-30T14:12:01.000Z</time>
      </trkpt>
      <trkpt lat="44.50804" lon="2.13031">
        <ele>351.4</ele>
        <time>2022-10-30T14:12:11.000Z</time>
      </trkpt>
      <trkpt lat="44.50813" lon="2.13025">
        <ele>350</ele>
        <time>2022-10-30T14:12:21.000Z</time>
      </trkpt>
      <trkpt lat="44.50821" lon="2.1302">
        <ele>347.8</ele>
        <time>2022-10-30T14:12:32.000Z</time>
      </trkpt>
      <trkpt lat="44.50819" lon="2.13007">
        <ele>346.6</ele>
        <time>2022-10-30T14:12:44.000Z</time>
      </trkpt>
      <trkpt lat="44.50809" lon="2.1301">
        <ele>345.7</ele>
        <time>2022-10-30T14:12:50.000Z</time>
      </trkpt>
      <trkpt lat="44.508" lon="2.1301">
        <ele>344.9</ele>
        <time>2022-10-30T14:12:58.000Z</time>
      </trkpt>
      <trkpt lat="44.50798" lon="2.13003">
        <ele>342.9</ele>
        <time>2022-10-30T14:13:15.000Z</time>
      </trkpt>
      <trkpt lat="44.50799" lon="2.13002">
        <ele>342.9</ele>
        <time>2022-10-30T14:13:19.000Z</time>
      </trkpt>
      <trkpt lat="44.50805" lon="2.12992">
        <ele>340.5</ele>
        <time>2022-10-30T14:13:29.000Z</time>
      </trkpt>
      <trkpt lat="44.50811" lon="2.12982">
        <ele>340</ele>
        <time>2022-10-30T14:13:39.000Z</time>
      </trkpt>
      <trkpt lat="44.50813" lon="2.12969">
        <ele>339.7</ele>
        <time>2022-10-30T14:13:50.000Z</time>
      </trkpt>
      <trkpt lat="44.50816" lon="2.12956">
        <ele>340.5</ele>
        <time>2022-10-30T14:14:01.000Z</time>
      </trkpt>
      <trkpt lat="44.50821" lon="2.12945">
        <ele>342</ele>
        <time>2022-10-30T14:14:12.000Z</time>
      </trkpt>
      <trkpt lat="44.50824" lon="2.12932">
        <ele>342.1</ele>
        <time>2022-10-30T14:14:24.000Z</time>
      </trkpt>
      <trkpt lat="44.50829" lon="2.12921">
        <ele>343.1</ele>
        <time>2022-10-30T14:14:34.000Z</time>
      </trkpt>
      <trkpt lat="44.50834" lon="2.12908">
        <ele>344.4</ele>
        <time>2022-10-30T14:14:44.000Z</time>
      </trkpt>
      <trkpt lat="44.50839" lon="2.12897">
        <ele>345.3</ele>
        <time>2022-10-30T14:14:53.000Z</time>
      </trkpt>
      <trkpt lat="44.50846" lon="2.12888">
        <ele>346.5</ele>
        <time>2022-10-30T14:15:02.000Z</time>
      </trkpt>
      <trkpt lat="44.50851" lon="2.12876">
        <ele>347.2</ele>
        <time>2022-10-30T14:15:11.000Z</time>
      </trkpt>
      <trkpt lat="44.50844" lon="2.12867">
        <ele>347.2</ele>
        <time>2022-10-30T14:15:20.000Z</time>
      </trkpt>
      <trkpt lat="44.50836" lon="2.1286">
        <ele>346.8</ele>
        <time>2022-10-30T14:15:29.000Z</time>
      </trkpt>
      <trkpt lat="44.50828" lon="2.12851">
        <ele>346.9</ele>
        <time>2022-10-30T14:15:38.000Z</time>
      </trkpt>
      <trkpt lat="44.50832" lon="2.1284">
        <ele>345.6</ele>
        <time>2022-10-30T14:15:49.000Z</time>
      </trkpt>
      <trkpt lat="44.50841" lon="2.12842">
        <ele>344.1</ele>
        <time>2022-10-30T14:15:59.000Z</time>
      </trkpt>
      <trkpt lat="44.50851" lon="2.12844">
        <ele>343.4</ele>
        <time>2022-10-30T14:16:06.000Z</time>
      </trkpt>
      <trkpt lat="44.50861" lon="2.12846">
        <ele>341.4</ele>
        <time>2022-10-30T14:16:13.000Z</time>
      </trkpt>
      <trkpt lat="44.5087" lon="2.12846">
        <ele>339.8</ele>
        <time>2022-10-30T14:16:22.000Z</time>
      </trkpt>
      <trkpt lat="44.5088" lon="2.12843">
        <ele>337.2</ele>
        <time>2022-10-30T14:16:30.000Z</time>
      </trkpt>
      <trkpt lat="44.5088" lon="2.1283">
        <ele>335.3</ele>
        <time>2022-10-30T14:16:41.000Z</time>
      </trkpt>
      <trkpt lat="44.50877" lon="2.12818">
        <ele>334</ele>
        <time>2022-10-30T14:16:49.000Z</time>
      </trkpt>
      <trkpt lat="44.50873" lon="2.12806">
        <ele>332.5</ele>
        <time>2022-10-30T14:16:58.000Z</time>
      </trkpt>
      <trkpt lat="44.5087" lon="2.12794">
        <ele>332.3</ele>
        <time>2022-10-30T14:17:07.000Z</time>
      </trkpt>
      <trkpt lat="44.50866" lon="2.12782">
        <ele>331.2</ele>
        <time>2022-10-30T14:17:18.000Z</time>
      </trkpt>
      <trkpt lat="44.50862" lon="2.12771">
        <ele>329.5</ele>
        <time>2022-10-30T14:17:33.000Z</time>
      </trkpt>
      <trkpt lat="44.50861" lon="2.1277">
        <ele>329.4</ele>
        <time>2022-10-30T14:17:34.000Z</time>
      </trkpt>
      <trkpt lat="44.50857" lon="2.12758">
        <ele>327.4</ele>
        <time>2022-10-30T14:17:44.000Z</time>
      </trkpt>
      <trkpt lat="44.50851" lon="2.12747">
        <ele>325.2</ele>
        <time>2022-10-30T14:17:53.000Z</time>
      </trkpt>
      <trkpt lat="44.50845" lon="2.12738">
        <ele>322.4</ele>
        <time>2022-10-30T14:18:05.000Z</time>
      </trkpt>
      <trkpt lat="44.50839" lon="2.12727">
        <ele>319.7</ele>
        <time>2022-10-30T14:18:15.000Z</time>
      </trkpt>
      <trkpt lat="44.50833" lon="2.12716">
        <ele>317.1</ele>
        <time>2022-10-30T14:18:26.000Z</time>
      </trkpt>
      <trkpt lat="44.50827" lon="2.12705">
        <ele>315.2</ele>
        <time>2022-10-30T14:18:36.000Z</time>
      </trkpt>
      <trkpt lat="44.5082" lon="2.12696">
        <ele>313.7</ele>
        <time>2022-10-30T14:18:46.000Z</time>
      </trkpt>
      <trkpt lat="44.50812" lon="2.1269">
        <ele>312</ele>
        <time>2022-10-30T14:18:54.000Z</time>
      </trkpt>
      <trkpt lat="44.50804" lon="2.12683">
        <ele>311.4</ele>
        <time>2022-10-30T14:19:03.000Z</time>
      </trkpt>
      <trkpt lat="44.50796" lon="2.12676">
        <ele>308.7</ele>
        <time>2022-10-30T14:19:17.000Z</time>
      </trkpt>
      <trkpt lat="44.50788" lon="2.1267">
        <ele>306.6</ele>
        <time>2022-10-30T14:19:30.000Z</time>
      </trkpt>
      <trkpt lat="44.5078" lon="2.12663">
        <ele>303.7</ele>
        <time>2022-10-30T14:19:40.000Z</time>
      </trkpt>
      <trkpt lat="44.50772" lon="2.12656">
        <ele>301.1</ele>
        <time>2022-10-30T14:19:49.000Z</time>
      </trkpt>
      <trkpt lat="44.50762" lon="2.12652">
        <ele>298.3</ele>
        <time>2022-10-30T14:19:58.000Z</time>
      </trkpt>
      <trkpt lat="44.50753" lon="2.12647">
        <ele>296</ele>
        <time>2022-10-30T14:20:08.000Z</time>
      </trkpt>
      <trkpt lat="44.50745" lon="2.12642">
        <ele>294.4</ele>
        <time>2022-10-30T14:20:15.000Z</time>
      </trkpt>
      <trkpt lat="44.50736" lon="2.12636">
        <ele>293.2</ele>
        <time>2022-10-30T14:20:24.000Z</time>
      </trkpt>
      <trkpt lat="44.50728" lon="2.1263">
        <ele>291.5</ele>
        <time>2022-10-30T14:20:32.000Z</time>
      </trkpt>
      <trkpt lat="44.5072" lon="2.12624">
        <ele>289.4</ele>
        <time>2022-10-30T14:20:40.000Z</time>
      </trkpt>
      <trkpt lat="44.50712" lon="2.12622">
        <ele>287.5</ele>
        <time>2022-10-30T14:20:54.000Z</time>
      </trkpt>
      <trkpt lat="44.50712" lon="2.12621">
        <ele>287.4</ele>
        <time>2022-10-30T14:20:57.000Z</time>
      </trkpt>
      <trkpt lat="44.50712" lon="2.12621">
        <ele>287.4</ele>
        <time>2022-10-30T14:20:58.000Z</time>
      </trkpt>
      <trkpt lat="44.50712" lon="2.12621">
        <ele>287.3</ele>
        <time>2022-10-30T14:20:59.000Z</time>
      </trkpt>
      <trkpt lat="44.50712" lon="2.12621">
        <ele>287.3</ele>
        <time>2022-10-30T14:21:00.000Z</time>
      </trkpt>
      <trkpt lat="44.50712" lon="2.12621">
        <ele>287.4</ele>
        <time>2022-10-30T14:21:03.000Z</time>
      </trkpt>
      <trkpt lat="44.50712" lon="2.12621">
        <ele>287.3</ele>
        <time>2022-10-30T14:21:04.000Z</time>
      </trkpt>
      <trkpt lat="44.50712" lon="2.1262">
        <ele>287.7</ele>
        <time>2022-10-30T14:21:09.000Z</time>
      </trkpt>
      <trkpt lat="44.50712" lon="2.1262">
        <ele>287.8</ele>
        <time>2022-10-30T14:21:11.000Z</time>
      </trkpt>
      <trkpt lat="44.50713" lon="2.1262">
        <ele>287.9</ele>
        <time>2022-10-30T14:21:12.000Z</time>
      </trkpt>
      <trkpt lat="44.50713" lon="2.1262">
        <ele>287.8</ele>
        <time>2022-10-30T14:21:13.000Z</time>
      </trkpt>
      <trkpt lat="44.50712" lon="2.12621">
        <ele>288</ele>
        <time>2022-10-30T14:21:14.000Z</time>
      </trkpt>
      <trkpt lat="44.50712" lon="2.12621">
        <ele>288.1</ele>
        <time>2022-10-30T14:21:15.000Z</time>
      </trkpt>
      <trkpt lat="44.50712" lon="2.12622">
        <ele>288</ele>
        <time>2022-10-30T14:21:25.000Z</time>
      </trkpt>
      <trkpt lat="44.50712" lon="2.12622">
        <ele>288</ele>
        <time>2022-10-30T14:21:26.000Z</time>
      </trkpt>
      <trkpt lat="44.50712" lon="2.12622">
        <ele>287.5</ele>
        <time>2022-10-30T14:21:28.000Z</time>
      </trkpt>
      <trkpt lat="44.50712" lon="2.12621">
        <ele>286.4</ele>
        <time>2022-10-30T14:21:31.000Z</time>
      </trkpt>
      <trkpt lat="44.50712" lon="2.12621">
        <ele>286.2</ele>
        <time>2022-10-30T14:21:43.000Z</time>
      </trkpt>
      <trkpt lat="44.50705" lon="2.12614">
        <ele>282.8</ele>
        <time>2022-10-30T14:21:51.000Z</time>
      </trkpt>
      <trkpt lat="44.50694" lon="2.12611">
        <ele>281.8</ele>
        <time>2022-10-30T14:21:59.000Z</time>
      </trkpt>
      <trkpt lat="44.50685" lon="2.12608">
        <ele>281.8</ele>
        <time>2022-10-30T14:22:06.000Z</time>
      </trkpt>
      <trkpt lat="44.50675" lon="2.12607">
        <ele>281.3</ele>
        <time>2022-10-30T14:22:13.000Z</time>
      </trkpt>
      <trkpt lat="44.50666" lon="2.12603">
        <ele>281</ele>
        <time>2022-10-30T14:22:19.000Z</time>
      </trkpt>
      <trkpt lat="44.50657" lon="2.12599">
        <ele>280.6</ele>
        <time>2022-10-30T14:22:25.000Z</time>
      </trkpt>
      <trkpt lat="44.50649" lon="2.12592">
        <ele>281.4</ele>
        <time>2022-10-30T14:22:32.000Z</time>
      </trkpt>
      <trkpt lat="44.50644" lon="2.12583">
        <ele>279.9</ele>
        <time>2022-10-30T14:22:42.000Z</time>
      </trkpt>
      <trkpt lat="44.50644" lon="2.12584">
        <ele>279.5</ele>
        <time>2022-10-30T14:22:48.000Z</time>
      </trkpt>
      <trkpt lat="44.50646" lon="2.12586">
        <ele>278.4</ele>
        <time>2022-10-30T14:22:53.000Z</time>
      </trkpt>
      <trkpt lat="44.50647" lon="2.12587">
        <ele>278.3</ele>
        <time>2022-10-30T14:22:57.000Z</time>
      </trkpt>
      <trkpt lat="44.50647" lon="2.12586">
        <ele>277.7</ele>
        <time>2022-10-30T14:23:02.000Z</time>
      </trkpt>
      <trkpt lat="44.50647" lon="2.12586">
        <ele>277.7</ele>
        <time>2022-10-30T14:23:06.000Z</time>
      </trkpt>
      <trkpt lat="44.50647" lon="2.12586">
        <ele>277.7</ele>
        <time>2022-10-30T14:23:07.000Z</time>
      </trkpt>
      <trkpt lat="44.50647" lon="2.12586">
        <ele>277.7</ele>
        <time>2022-10-30T14:23:17.000Z</time>
      </trkpt>
      <trkpt lat="44.50647" lon="2.12587">
        <ele>277.5</ele>
        <time>2022-10-30T14:23:20.000Z</time>
      </trkpt>
      <trkpt lat="44.50647" lon="2.12587">
        <ele>277.4</ele>
        <time>2022-10-30T14:23:26.000Z</time>
      </trkpt>
      <trkpt lat="44.50647" lon="2.12587">
        <ele>277.4</ele>
        <time>2022-10-30T14:23:27.000Z</time>
      </trkpt>
      <trkpt lat="44.50647" lon="2.12587">
        <ele>277.4</ele>
        <time>2022-10-30T14:23:33.000Z</time>
      </trkpt>
      <trkpt lat="44.50647" lon="2.12587">
        <ele>277.4</ele>
        <time>2022-10-30T14:23:34.000Z</time>
      </trkpt>
      <trkpt lat="44.50647" lon="2.12587">
        <ele>277.4</ele>
        <time>2022-10-30T14:23:35.000Z</time>
      </trkpt>
      <trkpt lat="44.50638" lon="2.12589">
        <ele>276.4</ele>
        <time>2022-10-30T14:23:43.000Z</time>
      </trkpt>
      <trkpt lat="44.50628" lon="2.12589">
        <ele>275.5</ele>
        <time>2022-10-30T14:23:52.000Z</time>
      </trkpt>
      <trkpt lat="44.50623" lon="2.1259">
        <ele>274.7</ele>
        <time>2022-10-30T14:24:01.000Z</time>
      </trkpt>
      <trkpt lat="44.50622" lon="2.1259">
        <ele>274.5</ele>
        <time>2022-10-30T14:24:02.000Z</time>
      </trkpt>
      <trkpt lat="44.50613" lon="2.12591">
        <ele>274.4</ele>
        <time>2022-10-30T14:24:10.000Z</time>
      </trkpt>
      <trkpt lat="44.50604" lon="2.12592">
        <ele>274.6</ele>
        <time>2022-10-30T14:24:17.000Z</time>
      </trkpt>
      <trkpt lat="44.50594" lon="2.12594">
        <ele>274.9</ele>
        <time>2022-10-30T14:24:25.000Z</time>
      </trkpt>
      <trkpt lat="44.50584" lon="2.12595">
        <ele>274.9</ele>
        <time>2022-10-30T14:24:33.000Z</time>
      </trkpt>
      <trkpt lat="44.50575" lon="2.12594">
        <ele>275</ele>
        <time>2022-10-30T14:24:40.000Z</time>
      </trkpt>
      <trkpt lat="44.50565" lon="2.12592">
        <ele>275.1</ele>
        <time>2022-10-30T14:24:47.000Z</time>
      </trkpt>
      <trkpt lat="44.50556" lon="2.1259">
        <ele>275.8</ele>
        <time>2022-10-30T14:24:54.000Z</time>
      </trkpt>
      <trkpt lat="44.50546" lon="2.12588">
        <ele>274.7</ele>
        <time>2022-10-30T14:25:01.000Z</time>
      </trkpt>
      <trkpt lat="44.50536" lon="2.12586">
        <ele>274.6</ele>
        <time>2022-10-30T14:25:08.000Z</time>
      </trkpt>
      <trkpt lat="44.50527" lon="2.12584">
        <ele>274.6</ele>
        <time>2022-10-30T14:25:15.000Z</time>
      </trkpt>
      <trkpt lat="44.50518" lon="2.12583">
        <ele>274.9</ele>
        <time>2022-10-30T14:25:22.000Z</time>
      </trkpt>
      <trkpt lat="44.50509" lon="2.12579">
        <ele>274.3</ele>
        <time>2022-10-30T14:25:31.000Z</time>
      </trkpt>
      <trkpt lat="44.50504" lon="2.12568">
        <ele>271.5</ele>
        <time>2022-10-30T14:25:44.000Z</time>
      </trkpt>
      <trkpt lat="44.50503" lon="2.12569">
        <ele>270.9</ele>
        <time>2022-10-30T14:25:48.000Z</time>
      </trkpt>
      <trkpt lat="44.50504" lon="2.1257">
        <ele>271</ele>
        <time>2022-10-30T14:25:50.000Z</time>
      </trkpt>
      <trkpt lat="44.50504" lon="2.1257">
        <ele>271</ele>
        <time>2022-10-30T14:25:51.000Z</time>
      </trkpt>
      <trkpt lat="44.50503" lon="2.1257">
        <ele>271.1</ele>
        <time>2022-10-30T14:25:57.000Z</time>
      </trkpt>
      <trkpt lat="44.50501" lon="2.12567">
        <ele>271.5</ele>
        <time>2022-10-30T14:26:06.000Z</time>
      </trkpt>
      <trkpt lat="44.50501" lon="2.12568">
        <ele>271.5</ele>
        <time>2022-10-30T14:26:08.000Z</time>
      </trkpt>
      <trkpt lat="44.50503" lon="2.12569">
        <ele>271.1</ele>
        <time>2022-10-30T14:26:15.000Z</time>
      </trkpt>
      <trkpt lat="44.50503" lon="2.12569">
        <ele>271.2</ele>
        <time>2022-10-30T14:26:16.000Z</time>
      </trkpt>
      <trkpt lat="44.50503" lon="2.12569">
        <ele>271.1</ele>
        <time>2022-10-30T14:26:19.000Z</time>
      </trkpt>
      <trkpt lat="44.50503" lon="2.12568">
        <ele>271.1</ele>
        <time>2022-10-30T14:26:23.000Z</time>
      </trkpt>
      <trkpt lat="44.50502" lon="2.12567">
        <ele>271.1</ele>
        <time>2022-10-30T14:26:26.000Z</time>
      </trkpt>
      <trkpt lat="44.50502" lon="2.12567">
        <ele>271</ele>
        <time>2022-10-30T14:26:27.000Z</time>
      </trkpt>
      <trkpt lat="44.50502" lon="2.12567">
        <ele>270.9</ele>
        <time>2022-10-30T14:26:29.000Z</time>
      </trkpt>
      <trkpt lat="44.50503" lon="2.12567">
        <ele>270.9</ele>
        <time>2022-10-30T14:26:31.000Z</time>
      </trkpt>
      <trkpt lat="44.50503" lon="2.12567">
        <ele>270.8</ele>
        <time>2022-10-30T14:26:32.000Z</time>
      </trkpt>
      <trkpt lat="44.50502" lon="2.12566">
        <ele>270.8</ele>
        <time>2022-10-30T14:26:33.000Z</time>
      </trkpt>
      <trkpt lat="44.50499" lon="2.1257">
        <ele>269.8</ele>
        <time>2022-10-30T14:26:48.000Z</time>
      </trkpt>
      <trkpt lat="44.50499" lon="2.12571">
        <ele>270</ele>
        <time>2022-10-30T14:26:53.000Z</time>
      </trkpt>
      <trkpt lat="44.50499" lon="2.12571">
        <ele>269.8</ele>
        <time>2022-10-30T14:26:55.000Z</time>
      </trkpt>
      <trkpt lat="44.50498" lon="2.12571">
        <ele>269.7</ele>
        <time>2022-10-30T14:26:58.000Z</time>
      </trkpt>
      <trkpt lat="44.50496" lon="2.12571">
        <ele>269.8</ele>
        <time>2022-10-30T14:27:06.000Z</time>
      </trkpt>
      <trkpt lat="44.50497" lon="2.12571">
        <ele>270.1</ele>
        <time>2022-10-30T14:27:07.000Z</time>
      </trkpt>
      <trkpt lat="44.50497" lon="2.12571">
        <ele>270.1</ele>
        <time>2022-10-30T14:27:08.000Z</time>
      </trkpt>
      <trkpt lat="44.50497" lon="2.12571">
        <ele>270.1</ele>
        <time>2022-10-30T14:27:14.000Z</time>
      </trkpt>
      <trkpt lat="44.50488" lon="2.12575">
        <ele>270.9</ele>
        <time>2022-10-30T14:27:25.000Z</time>
      </trkpt>
      <trkpt lat="44.50479" lon="2.1258">
        <ele>270.7</ele>
        <time>2022-10-30T14:27:33.000Z</time>
      </trkpt>
      <trkpt lat="44.5047" lon="2.12587">
        <ele>271.2</ele>
        <time>2022-10-30T14:27:40.000Z</time>
      </trkpt>
      <trkpt lat="44.50462" lon="2.1259">
        <ele>271.2</ele>
        <time>2022-10-30T14:27:50.000Z</time>
      </trkpt>
      <trkpt lat="44.50459" lon="2.12591">
        <ele>272.9</ele>
        <time>2022-10-30T14:28:06.000Z</time>
      </trkpt>
      <trkpt lat="44.50459" lon="2.12591">
        <ele>272.9</ele>
        <time>2022-10-30T14:28:07.000Z</time>
      </trkpt>
      <trkpt lat="44.50459" lon="2.12595">
        <ele>273.6</ele>
        <time>2022-10-30T14:28:16.000Z</time>
      </trkpt>
      <trkpt lat="44.50459" lon="2.12595">
        <ele>273.5</ele>
        <time>2022-10-30T14:28:17.000Z</time>
      </trkpt>
      <trkpt lat="44.50456" lon="2.12601">
        <ele>274.1</ele>
        <time>2022-10-30T14:28:26.000Z</time>
      </trkpt>
      <trkpt lat="44.50456" lon="2.12601">
        <ele>274.1</ele>
        <time>2022-10-30T14:28:27.000Z</time>
      </trkpt>
      <trkpt lat="44.5045" lon="2.12608">
        <ele>272.7</ele>
        <time>2022-10-30T14:28:47.000Z</time>
      </trkpt>
      <trkpt lat="44.5045" lon="2.12609">
        <ele>272.6</ele>
        <time>2022-10-30T14:28:49.000Z</time>
      </trkpt>
      <trkpt lat="44.50452" lon="2.12609">
        <ele>273.3</ele>
        <time>2022-10-30T14:28:54.000Z</time>
      </trkpt>
      <trkpt lat="44.50454" lon="2.12606">
        <ele>273.2</ele>
        <time>2022-10-30T14:28:56.000Z</time>
      </trkpt>
      <trkpt lat="44.50459" lon="2.12595">
        <ele>272.6</ele>
        <time>2022-10-30T14:29:01.000Z</time>
      </trkpt>
      <trkpt lat="44.50463" lon="2.12583">
        <ele>270.4</ele>
        <time>2022-10-30T14:29:05.000Z</time>
      </trkpt>
      <trkpt lat="44.50467" lon="2.1257">
        <ele>269</ele>
        <time>2022-10-30T14:29:11.000Z</time>
      </trkpt>
      <trkpt lat="44.50472" lon="2.12558">
        <ele>270.7</ele>
        <time>2022-10-30T14:29:18.000Z</time>
      </trkpt>
      <trkpt lat="44.50475" lon="2.12545">
        <ele>271.9</ele>
        <time>2022-10-30T14:29:26.000Z</time>
      </trkpt>
      <trkpt lat="44.50476" lon="2.12532">
        <ele>272.7</ele>
        <time>2022-10-30T14:29:34.000Z</time>
      </trkpt>
      <trkpt lat="44.5048" lon="2.1252">
        <ele>271.9</ele>
        <time>2022-10-30T14:29:44.000Z</time>
      </trkpt>
      <trkpt lat="44.50483" lon="2.12508">
        <ele>271.6</ele>
        <time>2022-10-30T14:29:53.000Z</time>
      </trkpt>
      <trkpt lat="44.50486" lon="2.12495">
        <ele>272.2</ele>
        <time>2022-10-30T14:30:02.000Z</time>
      </trkpt>
      <trkpt lat="44.50487" lon="2.12482">
        <ele>273.5</ele>
        <time>2022-10-30T14:30:10.000Z</time>
      </trkpt>
      <trkpt lat="44.50487" lon="2.12469">
        <ele>273.8</ele>
        <time>2022-10-30T14:30:19.000Z</time>
      </trkpt>
      <trkpt lat="44.50489" lon="2.12456">
        <ele>273</ele>
        <time>2022-10-30T14:30:27.000Z</time>
      </trkpt>
      <trkpt lat="44.50493" lon="2.12443">
        <ele>274.5</ele>
        <time>2022-10-30T14:30:35.000Z</time>
      </trkpt>
      <trkpt lat="44.50495" lon="2.12429">
        <ele>274.2</ele>
        <time>2022-10-30T14:30:43.000Z</time>
      </trkpt>
      <trkpt lat="44.50498" lon="2.12416">
        <ele>273.7</ele>
        <time>2022-10-30T14:30:52.000Z</time>
      </trkpt>
      <trkpt lat="44.50501" lon="2.12404">
        <ele>272.9</ele>
        <time>2022-10-30T14:31:01.000Z</time>
      </trkpt>
      <trkpt lat="44.50506" lon="2.12392">
        <ele>272.7</ele>
        <time>2022-10-30T14:31:10.000Z</time>
      </trkpt>
      <trkpt lat="44.50511" lon="2.1238">
        <ele>273</ele>
        <time>2022-10-30T14:31:18.000Z</time>
      </trkpt>
      <trkpt lat="44.50515" lon="2.12369">
        <ele>272.3</ele>
        <time>2022-10-30T14:31:26.000Z</time>
      </trkpt>
      <trkpt lat="44.50519" lon="2.12357">
        <ele>271.5</ele>
        <time>2022-10-30T14:31:36.000Z</time>
      </trkpt>
      <trkpt lat="44.50524" lon="2.12345">
        <ele>270.7</ele>
        <time>2022-10-30T14:31:44.000Z</time>
      </trkpt>
      <trkpt lat="44.50529" lon="2.12333">
        <ele>270.8</ele>
        <time>2022-10-30T14:31:52.000Z</time>
      </trkpt>
      <trkpt lat="44.50534" lon="2.12321">
        <ele>272.2</ele>
        <time>2022-10-30T14:31:59.000Z</time>
      </trkpt>
      <trkpt lat="44.5054" lon="2.1231">
        <ele>271.2</ele>
        <time>2022-10-30T14:32:08.000Z</time>
      </trkpt>
      <trkpt lat="44.50544" lon="2.12299">
        <ele>270.9</ele>
        <time>2022-10-30T14:32:17.000Z</time>
      </trkpt>
      <trkpt lat="44.50548" lon="2.12287">
        <ele>271.1</ele>
        <time>2022-10-30T14:32:25.000Z</time>
      </trkpt>
      <trkpt lat="44.50551" lon="2.12275">
        <ele>271.7</ele>
        <time>2022-10-30T14:32:33.000Z</time>
      </trkpt>
      <trkpt lat="44.50554" lon="2.12262">
        <ele>271.9</ele>
        <time>2022-10-30T14:32:41.000Z</time>
      </trkpt>
      <trkpt lat="44.50558" lon="2.12249">
        <ele>270.9</ele>
        <time>2022-10-30T14:32:50.000Z</time>
      </trkpt>
      <trkpt lat="44.50561" lon="2.12236">
        <ele>270.7</ele>
        <time>2022-10-30T14:32:59.000Z</time>
      </trkpt>
      <trkpt lat="44.50564" lon="2.12223">
        <ele>270.9</ele>
        <time>2022-10-30T14:33:07.000Z</time>
      </trkpt>
      <trkpt lat="44.50566" lon="2.12209">
        <ele>271</ele>
        <time>2022-10-30T14:33:15.000Z</time>
      </trkpt>
      <trkpt lat="44.50567" lon="2.12204">
        <ele>270.7</ele>
        <time>2022-10-30T14:33:21.000Z</time>
      </trkpt>
      <trkpt lat="44.50567" lon="2.12203">
        <ele>270.6</ele>
        <time>2022-10-30T14:33:23.000Z</time>
      </trkpt>
      <trkpt lat="44.5057" lon="2.1219">
        <ele>270.9</ele>
        <time>2022-10-30T14:33:31.000Z</time>
      </trkpt>
      <trkpt lat="44.50572" lon="2.12177">
        <ele>271.7</ele>
        <time>2022-10-30T14:33:38.000Z</time>
      </trkpt>
      <trkpt lat="44.50575" lon="2.12164">
        <ele>272.6</ele>
        <time>2022-10-30T14:33:45.000Z</time>
      </trkpt>
      <trkpt lat="44.50579" lon="2.12151">
        <ele>271.3</ele>
        <time>2022-10-30T14:33:54.000Z</time>
      </trkpt>
      <trkpt lat="44.50583" lon="2.12139">
        <ele>271.4</ele>
        <time>2022-10-30T14:34:02.000Z</time>
      </trkpt>
      <trkpt lat="44.50588" lon="2.12128">
        <ele>271.1</ele>
        <time>2022-10-30T14:34:10.000Z</time>
      </trkpt>
      <trkpt lat="44.50595" lon="2.12117">
        <ele>271.5</ele>
        <time>2022-10-30T14:34:19.000Z</time>
      </trkpt>
      <trkpt lat="44.50601" lon="2.12107">
        <ele>271.9</ele>
        <time>2022-10-30T14:34:27.000Z</time>
      </trkpt>
      <trkpt lat="44.50606" lon="2.12096">
        <ele>271.6</ele>
        <time>2022-10-30T14:34:35.000Z</time>
      </trkpt>
      <trkpt lat="44.50609" lon="2.12089">
        <ele>272.5</ele>
        <time>2022-10-30T14:34:42.000Z</time>
      </trkpt>
      <trkpt lat="44.50609" lon="2.12089">
        <ele>272.6</ele>
        <time>2022-10-30T14:34:43.000Z</time>
      </trkpt>
      <trkpt lat="44.50612" lon="2.12077">
        <ele>272.3</ele>
        <time>2022-10-30T14:34:53.000Z</time>
      </trkpt>
      <trkpt lat="44.50616" lon="2.12063">
        <ele>272.2</ele>
        <time>2022-10-30T14:35:03.000Z</time>
      </trkpt>
      <trkpt lat="44.50614" lon="2.12051">
        <ele>272.3</ele>
        <time>2022-10-30T14:35:12.000Z</time>
      </trkpt>
      <trkpt lat="44.50611" lon="2.12053">
        <ele>272</ele>
        <time>2022-10-30T14:35:18.000Z</time>
      </trkpt>
      <trkpt lat="44.50611" lon="2.12053">
        <ele>271.9</ele>
        <time>2022-10-30T14:35:20.000Z</time>
      </trkpt>
      <trkpt lat="44.50607" lon="2.12056">
        <ele>272.1</ele>
        <time>2022-10-30T14:35:32.000Z</time>
      </trkpt>
      <trkpt lat="44.50606" lon="2.12056">
        <ele>272.1</ele>
        <time>2022-10-30T14:35:36.000Z</time>
      </trkpt>
      <trkpt lat="44.50598" lon="2.12061">
        <ele>272.1</ele>
        <time>2022-10-30T14:35:46.000Z</time>
      </trkpt>
      <trkpt lat="44.5059" lon="2.12069">
        <ele>272.2</ele>
        <time>2022-10-30T14:35:55.000Z</time>
      </trkpt>
      <trkpt lat="44.50582" lon="2.12077">
        <ele>272.1</ele>
        <time>2022-10-30T14:36:05.000Z</time>
      </trkpt>
      <trkpt lat="44.50574" lon="2.12085">
        <ele>271.6</ele>
        <time>2022-10-30T14:36:14.000Z</time>
      </trkpt>
      <trkpt lat="44.50566" lon="2.12091">
        <ele>271.7</ele>
        <time>2022-10-30T14:36:26.000Z</time>
      </trkpt>
      <trkpt lat="44.50565" lon="2.1209">
        <ele>271.8</ele>
        <time>2022-10-30T14:36:28.000Z</time>
      </trkpt>
      <trkpt lat="44.50566" lon="2.1209">
        <ele>271.8</ele>
        <time>2022-10-30T14:36:29.000Z</time>
      </trkpt>
      <trkpt lat="44.50566" lon="2.1209">
        <ele>271.8</ele>
        <time>2022-10-30T14:36:30.000Z</time>
      </trkpt>
      <trkpt lat="44.50566" lon="2.12091">
        <ele>272</ele>
        <time>2022-10-30T14:36:33.000Z</time>
      </trkpt>
      <trkpt lat="44.50564" lon="2.12093">
        <ele>272.5</ele>
        <time>2022-10-30T14:36:45.000Z</time>
      </trkpt>
      <trkpt lat="44.50564" lon="2.12094">
        <ele>272.4</ele>
        <time>2022-10-30T14:36:46.000Z</time>
      </trkpt>
      <trkpt lat="44.50557" lon="2.12103">
        <ele>274</ele>
        <time>2022-10-30T14:36:56.000Z</time>
      </trkpt>
      <trkpt lat="44.50549" lon="2.1211">
        <ele>275.8</ele>
        <time>2022-10-30T14:37:08.000Z</time>
      </trkpt>
      <trkpt lat="44.50541" lon="2.12117">
        <ele>277.4</ele>
        <time>2022-10-30T14:37:19.000Z</time>
      </trkpt>
      <trkpt lat="44.50533" lon="2.12124">
        <ele>278.4</ele>
        <time>2022-10-30T14:37:28.000Z</time>
      </trkpt>
      <trkpt lat="44.50524" lon="2.12131">
        <ele>279.8</ele>
        <time>2022-10-30T14:37:36.000Z</time>
      </trkpt>
      <trkpt lat="44.50515" lon="2.12138">
        <ele>281.3</ele>
        <time>2022-10-30T14:37:45.000Z</time>
      </trkpt>
      <trkpt lat="44.50507" lon="2.12146">
        <ele>282.4</ele>
        <time>2022-10-30T14:37:54.000Z</time>
      </trkpt>
      <trkpt lat="44.50499" lon="2.12153">
        <ele>283.4</ele>
        <time>2022-10-30T14:38:02.000Z</time>
      </trkpt>
      <trkpt lat="44.50492" lon="2.12163">
        <ele>284</ele>
        <time>2022-10-30T14:38:12.000Z</time>
      </trkpt>
      <trkpt lat="44.50484" lon="2.12171">
        <ele>284.8</ele>
        <time>2022-10-30T14:38:22.000Z</time>
      </trkpt>
      <trkpt lat="44.50475" lon="2.12177">
        <ele>285.5</ele>
        <time>2022-10-30T14:38:32.000Z</time>
      </trkpt>
      <trkpt lat="44.50467" lon="2.12185">
        <ele>287.3</ele>
        <time>2022-10-30T14:38:42.000Z</time>
      </trkpt>
      <trkpt lat="44.50459" lon="2.12192">
        <ele>288.8</ele>
        <time>2022-10-30T14:38:50.000Z</time>
      </trkpt>
      <trkpt lat="44.5045" lon="2.12199">
        <ele>290.3</ele>
        <time>2022-10-30T14:38:57.000Z</time>
      </trkpt>
      <trkpt lat="44.50443" lon="2.12207">
        <ele>290.7</ele>
        <time>2022-10-30T14:39:04.000Z</time>
      </trkpt>
      <trkpt lat="44.50435" lon="2.12214">
        <ele>290.7</ele>
        <time>2022-10-30T14:39:11.000Z</time>
      </trkpt>
      <trkpt lat="44.50427" lon="2.12223">
        <ele>291.7</ele>
        <time>2022-10-30T14:39:21.000Z</time>
      </trkpt>
      <trkpt lat="44.50419" lon="2.12231">
        <ele>292</ele>
        <time>2022-10-30T14:39:30.000Z</time>
      </trkpt>
      <trkpt lat="44.50412" lon="2.12239">
        <ele>292.4</ele>
        <time>2022-10-30T14:39:37.000Z</time>
      </trkpt>
      <trkpt lat="44.50405" lon="2.12247">
        <ele>292.2</ele>
        <time>2022-10-30T14:39:45.000Z</time>
      </trkpt>
      <trkpt lat="44.50397" lon="2.12255">
        <ele>292.4</ele>
        <time>2022-10-30T14:39:54.000Z</time>
      </trkpt>
      <trkpt lat="44.50389" lon="2.12263">
        <ele>292.8</ele>
        <time>2022-10-30T14:40:02.000Z</time>
      </trkpt>
      <trkpt lat="44.50381" lon="2.12269">
        <ele>292.2</ele>
        <time>2022-10-30T14:40:10.000Z</time>
      </trkpt>
      <trkpt lat="44.50374" lon="2.12277">
        <ele>293.9</ele>
        <time>2022-10-30T14:40:18.000Z</time>
      </trkpt>
      <trkpt lat="44.50366" lon="2.12284">
        <ele>295.2</ele>
        <time>2022-10-30T14:40:26.000Z</time>
      </trkpt>
      <trkpt lat="44.50357" lon="2.12291">
        <ele>296</ele>
        <time>2022-10-30T14:40:34.000Z</time>
      </trkpt>
      <trkpt lat="44.50348" lon="2.12294">
        <ele>297.5</ele>
        <time>2022-10-30T14:40:43.000Z</time>
      </trkpt>
      <trkpt lat="44.50348" lon="2.12292">
        <ele>297</ele>
        <time>2022-10-30T14:40:47.000Z</time>
      </trkpt>
      <trkpt lat="44.50348" lon="2.12291">
        <ele>297.2</ele>
        <time>2022-10-30T14:40:55.000Z</time>
      </trkpt>
      <trkpt lat="44.50348" lon="2.1229">
        <ele>297.5</ele>
        <time>2022-10-30T14:40:57.000Z</time>
      </trkpt>
      <trkpt lat="44.50348" lon="2.12289">
        <ele>297.7</ele>
        <time>2022-10-30T14:40:59.000Z</time>
      </trkpt>
      <trkpt lat="44.50349" lon="2.12276">
        <ele>299.5</ele>
        <time>2022-10-30T14:41:07.000Z</time>
      </trkpt>
      <trkpt lat="44.5035" lon="2.12263">
        <ele>300.6</ele>
        <time>2022-10-30T14:41:16.000Z</time>
      </trkpt>
      <trkpt lat="44.50351" lon="2.12249">
        <ele>302.2</ele>
        <time>2022-10-30T14:41:24.000Z</time>
      </trkpt>
      <trkpt lat="44.50352" lon="2.12235">
        <ele>302.4</ele>
        <time>2022-10-30T14:41:32.000Z</time>
      </trkpt>
      <trkpt lat="44.50353" lon="2.12222">
        <ele>302.2</ele>
        <time>2022-10-30T14:41:40.000Z</time>
      </trkpt>
      <trkpt lat="44.50354" lon="2.12209">
        <ele>302</ele>
        <time>2022-10-30T14:41:49.000Z</time>
      </trkpt>
      <trkpt lat="44.50353" lon="2.12196">
        <ele>302.1</ele>
        <time>2022-10-30T14:41:57.000Z</time>
      </trkpt>
      <trkpt lat="44.5035" lon="2.12183">
        <ele>301.9</ele>
        <time>2022-10-30T14:42:05.000Z</time>
      </trkpt>
      <trkpt lat="44.50345" lon="2.12171">
        <ele>301.8</ele>
        <time>2022-10-30T14:42:13.000Z</time>
      </trkpt>
      <trkpt lat="44.50338" lon="2.12163">
        <ele>301.5</ele>
        <time>2022-10-30T14:42:21.000Z</time>
      </trkpt>
      <trkpt lat="44.5033" lon="2.12157">
        <ele>301.3</ele>
        <time>2022-10-30T14:42:29.000Z</time>
      </trkpt>
      <trkpt lat="44.50325" lon="2.12154">
        <ele>301.4</ele>
        <time>2022-10-30T14:42:34.000Z</time>
      </trkpt>
      <trkpt lat="44.50325" lon="2.12154">
        <ele>301.4</ele>
        <time>2022-10-30T14:42:36.000Z</time>
      </trkpt>
      <trkpt lat="44.50317" lon="2.12148">
        <ele>301.3</ele>
        <time>2022-10-30T14:42:44.000Z</time>
      </trkpt>
      <trkpt lat="44.50309" lon="2.12141">
        <ele>301.1</ele>
        <time>2022-10-30T14:42:52.000Z</time>
      </trkpt>
      <trkpt lat="44.503" lon="2.12136">
        <ele>301.6</ele>
        <time>2022-10-30T14:43:00.000Z</time>
      </trkpt>
      <trkpt lat="44.50293" lon="2.12129">
        <ele>301.4</ele>
        <time>2022-10-30T14:43:07.000Z</time>
      </trkpt>
      <trkpt lat="44.50287" lon="2.12119">
        <ele>300.6</ele>
        <time>2022-10-30T14:43:14.000Z</time>
      </trkpt>
      <trkpt lat="44.50284" lon="2.12107">
        <ele>300.3</ele>
        <time>2022-10-30T14:43:21.000Z</time>
      </trkpt>
      <trkpt lat="44.50282" lon="2.12094">
        <ele>300</ele>
        <time>2022-10-30T14:43:29.000Z</time>
      </trkpt>
      <trkpt lat="44.50283" lon="2.12081">
        <ele>298.4</ele>
        <time>2022-10-30T14:43:38.000Z</time>
      </trkpt>
      <trkpt lat="44.50282" lon="2.12068">
        <ele>296.4</ele>
        <time>2022-10-30T14:43:46.000Z</time>
      </trkpt>
      <trkpt lat="44.5028" lon="2.12065">
        <ele>295.6</ele>
        <time>2022-10-30T14:43:51.000Z</time>
      </trkpt>
      <trkpt lat="44.50279" lon="2.12065">
        <ele>295.3</ele>
        <time>2022-10-30T14:43:55.000Z</time>
      </trkpt>
      <trkpt lat="44.50271" lon="2.12059">
        <ele>294.8</ele>
        <time>2022-10-30T14:44:06.000Z</time>
      </trkpt>
      <trkpt lat="44.50261" lon="2.12055">
        <ele>294.2</ele>
        <time>2022-10-30T14:44:15.000Z</time>
      </trkpt>
      <trkpt lat="44.50252" lon="2.1205">
        <ele>294.3</ele>
        <time>2022-10-30T14:44:23.000Z</time>
      </trkpt>
      <trkpt lat="44.50243" lon="2.12046">
        <ele>294.8</ele>
        <time>2022-10-30T14:44:30.000Z</time>
      </trkpt>
      <trkpt lat="44.50234" lon="2.12042">
        <ele>294.6</ele>
        <time>2022-10-30T14:44:38.000Z</time>
      </trkpt>
      <trkpt lat="44.50225" lon="2.12038">
        <ele>294.9</ele>
        <time>2022-10-30T14:44:46.000Z</time>
      </trkpt>
      <trkpt lat="44.50215" lon="2.12036">
        <ele>295.5</ele>
        <time>2022-10-30T14:44:54.000Z</time>
      </trkpt>
      <trkpt lat="44.50206" lon="2.12032">
        <ele>295.7</ele>
        <time>2022-10-30T14:45:02.000Z</time>
      </trkpt>
      <trkpt lat="44.50196" lon="2.1203">
        <ele>296</ele>
        <time>2022-10-30T14:45:11.000Z</time>
      </trkpt>
      <trkpt lat="44.50186" lon="2.12027">
        <ele>295.6</ele>
        <time>2022-10-30T14:45:19.000Z</time>
      </trkpt>
      <trkpt lat="44.50176" lon="2.12026">
        <ele>294.9</ele>
        <time>2022-10-30T14:45:28.000Z</time>
      </trkpt>
      <trkpt lat="44.50167" lon="2.12022">
        <ele>295.4</ele>
        <time>2022-10-30T14:45:37.000Z</time>
      </trkpt>
      <trkpt lat="44.50158" lon="2.12019">
        <ele>294.9</ele>
        <time>2022-10-30T14:45:46.000Z</time>
      </trkpt>
      <trkpt lat="44.50149" lon="2.12015">
        <ele>295.1</ele>
        <time>2022-10-30T14:45:55.000Z</time>
      </trkpt>
      <trkpt lat="44.5014" lon="2.12011">
        <ele>294.9</ele>
        <time>2022-10-30T14:46:02.000Z</time>
      </trkpt>
      <trkpt lat="44.50131" lon="2.12006">
        <ele>295.8</ele>
        <time>2022-10-30T14:46:11.000Z</time>
      </trkpt>
      <trkpt lat="44.50123" lon="2.12002">
        <ele>296.3</ele>
        <time>2022-10-30T14:46:20.000Z</time>
      </trkpt>
      <trkpt lat="44.50114" lon="2.12001">
        <ele>296.5</ele>
        <time>2022-10-30T14:46:28.000Z</time>
      </trkpt>
      <trkpt lat="44.50104" lon="2.12002">
        <ele>296.4</ele>
        <time>2022-10-30T14:46:38.000Z</time>
      </trkpt>
      <trkpt lat="44.50095" lon="2.12003">
        <ele>296</ele>
        <time>2022-10-30T14:46:47.000Z</time>
      </trkpt>
      <trkpt lat="44.50086" lon="2.12003">
        <ele>295.8</ele>
        <time>2022-10-30T14:46:54.000Z</time>
      </trkpt>
      <trkpt lat="44.50077" lon="2.12005">
        <ele>296.3</ele>
        <time>2022-10-30T14:47:04.000Z</time>
      </trkpt>
      <trkpt lat="44.50068" lon="2.12005">
        <ele>296.1</ele>
        <time>2022-10-30T14:47:11.000Z</time>
      </trkpt>
      <trkpt lat="44.50059" lon="2.12006">
        <ele>296.5</ele>
        <time>2022-10-30T14:47:18.000Z</time>
      </trkpt>
      <trkpt lat="44.50049" lon="2.12007">
        <ele>297.4</ele>
        <time>2022-10-30T14:47:26.000Z</time>
      </trkpt>
      <trkpt lat="44.50039" lon="2.12007">
        <ele>297.2</ele>
        <time>2022-10-30T14:47:34.000Z</time>
      </trkpt>
      <trkpt lat="44.5003" lon="2.12008">
        <ele>297.9</ele>
        <time>2022-10-30T14:47:43.000Z</time>
      </trkpt>
      <trkpt lat="44.50021" lon="2.12011">
        <ele>298.4</ele>
        <time>2022-10-30T14:47:52.000Z</time>
      </trkpt>
      <trkpt lat="44.50011" lon="2.12013">
        <ele>299.2</ele>
        <time>2022-10-30T14:48:04.000Z</time>
      </trkpt>
      <trkpt lat="44.50001" lon="2.12015">
        <ele>298.7</ele>
        <time>2022-10-30T14:48:13.000Z</time>
      </trkpt>
      <trkpt lat="44.49992" lon="2.12016">
        <ele>298.7</ele>
        <time>2022-10-30T14:48:21.000Z</time>
      </trkpt>
      <trkpt lat="44.49982" lon="2.12017">
        <ele>299.9</ele>
        <time>2022-10-30T14:48:29.000Z</time>
      </trkpt>
      <trkpt lat="44.49973" lon="2.12018">
        <ele>299.9</ele>
        <time>2022-10-30T14:48:37.000Z</time>
      </trkpt>
      <trkpt lat="44.49964" lon="2.12017">
        <ele>300.1</ele>
        <time>2022-10-30T14:48:45.000Z</time>
      </trkpt>
      <trkpt lat="44.49954" lon="2.12017">
        <ele>301.1</ele>
        <time>2022-10-30T14:48:54.000Z</time>
      </trkpt>
      <trkpt lat="44.49944" lon="2.12016">
        <ele>302.1</ele>
        <time>2022-10-30T14:49:03.000Z</time>
      </trkpt>
      <trkpt lat="44.49935" lon="2.12016">
        <ele>302.8</ele>
        <time>2022-10-30T14:49:12.000Z</time>
      </trkpt>
      <trkpt lat="44.49926" lon="2.12019">
        <ele>302.6</ele>
        <time>2022-10-30T14:49:22.000Z</time>
      </trkpt>
      <trkpt lat="44.49915" lon="2.12019">
        <ele>303</ele>
        <time>2022-10-30T14:49:30.000Z</time>
      </trkpt>
      <trkpt lat="44.49906" lon="2.12021">
        <ele>303.7</ele>
        <time>2022-10-30T14:49:38.000Z</time>
      </trkpt>
      <trkpt lat="44.49896" lon="2.12022">
        <ele>304.6</ele>
        <time>2022-10-30T14:49:49.000Z</time>
      </trkpt>
      <trkpt lat="44.49887" lon="2.12024">
        <ele>305.1</ele>
        <time>2022-10-30T14:49:57.000Z</time>
      </trkpt>
      <trkpt lat="44.49878" lon="2.12025">
        <ele>306</ele>
        <time>2022-10-30T14:50:05.000Z</time>
      </trkpt>
      <trkpt lat="44.49868" lon="2.12027">
        <ele>306.6</ele>
        <time>2022-10-30T14:50:14.000Z</time>
      </trkpt>
      <trkpt lat="44.49858" lon="2.1203">
        <ele>308.4</ele>
        <time>2022-10-30T14:50:23.000Z</time>
      </trkpt>
      <trkpt lat="44.49849" lon="2.12034">
        <ele>309.1</ele>
        <time>2022-10-30T14:50:31.000Z</time>
      </trkpt>
      <trkpt lat="44.49839" lon="2.12035">
        <ele>310.1</ele>
        <time>2022-10-30T14:50:39.000Z</time>
      </trkpt>
      <trkpt lat="44.4983" lon="2.12035">
        <ele>310</ele>
        <time>2022-10-30T14:50:47.000Z</time>
      </trkpt>
      <trkpt lat="44.49821" lon="2.12031">
        <ele>310.1</ele>
        <time>2022-10-30T14:50:55.000Z</time>
      </trkpt>
      <trkpt lat="44.49813" lon="2.12025">
        <ele>311</ele>
        <time>2022-10-30T14:51:04.000Z</time>
      </trkpt>
      <trkpt lat="44.49806" lon="2.12014">
        <ele>312.1</ele>
        <time>2022-10-30T14:51:14.000Z</time>
      </trkpt>
      <trkpt lat="44.49804" lon="2.12008">
        <ele>312.8</ele>
        <time>2022-10-30T14:51:20.000Z</time>
      </trkpt>
      <trkpt lat="44.49804" lon="2.12007">
        <ele>312.9</ele>
        <time>2022-10-30T14:51:25.000Z</time>
      </trkpt>
      <trkpt lat="44.49799" lon="2.11996">
        <ele>312.6</ele>
        <time>2022-10-30T14:51:33.000Z</time>
      </trkpt>
      <trkpt lat="44.49794" lon="2.11984">
        <ele>312.7</ele>
        <time>2022-10-30T14:51:41.000Z</time>
      </trkpt>
      <trkpt lat="44.49789" lon="2.11973">
        <ele>313.1</ele>
        <time>2022-10-30T14:51:49.000Z</time>
      </trkpt>
      <trkpt lat="44.49784" lon="2.11963">
        <ele>314.1</ele>
        <time>2022-10-30T14:51:57.000Z</time>
      </trkpt>
      <trkpt lat="44.49777" lon="2.11953">
        <ele>314.3</ele>
        <time>2022-10-30T14:52:06.000Z</time>
      </trkpt>
      <trkpt lat="44.49771" lon="2.11943">
        <ele>315.5</ele>
        <time>2022-10-30T14:52:16.000Z</time>
      </trkpt>
      <trkpt lat="44.49765" lon="2.11933">
        <ele>316.6</ele>
        <time>2022-10-30T14:52:25.000Z</time>
      </trkpt>
      <trkpt lat="44.49759" lon="2.11924">
        <ele>317</ele>
        <time>2022-10-30T14:52:34.000Z</time>
      </trkpt>
      <trkpt lat="44.49753" lon="2.11912">
        <ele>318.3</ele>
        <time>2022-10-30T14:52:43.000Z</time>
      </trkpt>
      <trkpt lat="44.49747" lon="2.11902">
        <ele>320</ele>
        <time>2022-10-30T14:52:54.000Z</time>
      </trkpt>
      <trkpt lat="44.49745" lon="2.11905">
        <ele>320.4</ele>
        <time>2022-10-30T14:53:01.000Z</time>
      </trkpt>
      <trkpt lat="44.49745" lon="2.11905">
        <ele>320.5</ele>
        <time>2022-10-30T14:53:09.000Z</time>
      </trkpt>
      <trkpt lat="44.49745" lon="2.11905">
        <ele>320.5</ele>
        <time>2022-10-30T14:53:10.000Z</time>
      </trkpt>
      <trkpt lat="44.49745" lon="2.11906">
        <ele>320.4</ele>
        <time>2022-10-30T14:53:11.000Z</time>
      </trkpt>
      <trkpt lat="44.4974" lon="2.11917">
        <ele>320.8</ele>
        <time>2022-10-30T14:53:25.000Z</time>
      </trkpt>
      <trkpt lat="44.49735" lon="2.11929">
        <ele>321.1</ele>
        <time>2022-10-30T14:53:37.000Z</time>
      </trkpt>
      <trkpt lat="44.49728" lon="2.11939">
        <ele>321.4</ele>
        <time>2022-10-30T14:53:45.000Z</time>
      </trkpt>
      <trkpt lat="44.4972" lon="2.11948">
        <ele>322.2</ele>
        <time>2022-10-30T14:53:54.000Z</time>
      </trkpt>
      <trkpt lat="44.49719" lon="2.11949">
        <ele>323.6</ele>
        <time>2022-10-30T14:53:59.000Z</time>
      </trkpt>
      <trkpt lat="44.49719" lon="2.1195">
        <ele>323.6</ele>
        <time>2022-10-30T14:54:17.000Z</time>
      </trkpt>
      <trkpt lat="44.49719" lon="2.11955">
        <ele>323.1</ele>
        <time>2022-10-30T14:54:23.000Z</time>
      </trkpt>
      <trkpt lat="44.49719" lon="2.11955">
        <ele>323.3</ele>
        <time>2022-10-30T14:54:32.000Z</time>
      </trkpt>
      <trkpt lat="44.49719" lon="2.11955">
        <ele>323.3</ele>
        <time>2022-10-30T14:54:33.000Z</time>
      </trkpt>
      <trkpt lat="44.49719" lon="2.11955">
        <ele>323.5</ele>
        <time>2022-10-30T14:54:45.000Z</time>
      </trkpt>
      <trkpt lat="44.49719" lon="2.11953">
        <ele>323.3</ele>
        <time>2022-10-30T14:54:50.000Z</time>
      </trkpt>
      <trkpt lat="44.4972" lon="2.11953">
        <ele>323.2</ele>
        <time>2022-10-30T14:55:05.000Z</time>
      </trkpt>
      <trkpt lat="44.4972" lon="2.11953">
        <ele>323.1</ele>
        <time>2022-10-30T14:55:07.000Z</time>
      </trkpt>
      <trkpt lat="44.49719" lon="2.11952">
        <ele>323</ele>
        <time>2022-10-30T14:55:09.000Z</time>
      </trkpt>
      <trkpt lat="44.49719" lon="2.11952">
        <ele>323</ele>
        <time>2022-10-30T14:55:10.000Z</time>
      </trkpt>
      <trkpt lat="44.49719" lon="2.11952">
        <ele>323</ele>
        <time>2022-10-30T14:55:11.000Z</time>
      </trkpt>
      <trkpt lat="44.49719" lon="2.11952">
        <ele>323.1</ele>
        <time>2022-10-30T14:55:12.000Z</time>
      </trkpt>
      <trkpt lat="44.49719" lon="2.11951">
        <ele>323.2</ele>
        <time>2022-10-30T14:55:13.000Z</time>
      </trkpt>
      <trkpt lat="44.49719" lon="2.11951">
        <ele>323.2</ele>
        <time>2022-10-30T14:55:15.000Z</time>
      </trkpt>
      <trkpt lat="44.49719" lon="2.11951">
        <ele>323.7</ele>
        <time>2022-10-30T14:55:19.000Z</time>
      </trkpt>
      <trkpt lat="44.49718" lon="2.11951">
        <ele>323.1</ele>
        <time>2022-10-30T14:55:23.000Z</time>
      </trkpt>
      <trkpt lat="44.49718" lon="2.11951">
        <ele>323.2</ele>
        <time>2022-10-30T14:55:26.000Z</time>
      </trkpt>
      <trkpt lat="44.49719" lon="2.11953">
        <ele>323.6</ele>
        <time>2022-10-30T14:55:31.000Z</time>
      </trkpt>
      <trkpt lat="44.49719" lon="2.11953">
        <ele>323.7</ele>
        <time>2022-10-30T14:55:36.000Z</time>
      </trkpt>
      <trkpt lat="44.49711" lon="2.1196">
        <ele>322.5</ele>
        <time>2022-10-30T14:55:45.000Z</time>
      </trkpt>
      <trkpt lat="44.49703" lon="2.11965">
        <ele>323.3</ele>
        <time>2022-10-30T14:55:54.000Z</time>
      </trkpt>
      <trkpt lat="44.49696" lon="2.11973">
        <ele>324.5</ele>
        <time>2022-10-30T14:56:02.000Z</time>
      </trkpt>
      <trkpt lat="44.49689" lon="2.11982">
        <ele>325.4</ele>
        <time>2022-10-30T14:56:10.000Z</time>
      </trkpt>
      <trkpt lat="44.49682" lon="2.1199">
        <ele>326.6</ele>
        <time>2022-10-30T14:56:18.000Z</time>
      </trkpt>
      <trkpt lat="44.49674" lon="2.11997">
        <ele>327.8</ele>
        <time>2022-10-30T14:56:26.000Z</time>
      </trkpt>
      <trkpt lat="44.49665" lon="2.12001">
        <ele>327.6</ele>
        <time>2022-10-30T14:56:34.000Z</time>
      </trkpt>
      <trkpt lat="44.49656" lon="2.12003">
        <ele>327.7</ele>
        <time>2022-10-30T14:56:42.000Z</time>
      </trkpt>
      <trkpt lat="44.49647" lon="2.12006">
        <ele>327.9</ele>
        <time>2022-10-30T14:56:49.000Z</time>
      </trkpt>
      <trkpt lat="44.49637" lon="2.12008">
        <ele>329.3</ele>
        <time>2022-10-30T14:56:57.000Z</time>
      </trkpt>
      <trkpt lat="44.49627" lon="2.1201">
        <ele>329.7</ele>
        <time>2022-10-30T14:57:05.000Z</time>
      </trkpt>
      <trkpt lat="44.49618" lon="2.12011">
        <ele>330.5</ele>
        <time>2022-10-30T14:57:12.000Z</time>
      </trkpt>
      <trkpt lat="44.49608" lon="2.12013">
        <ele>331.9</ele>
        <time>2022-10-30T14:57:20.000Z</time>
      </trkpt>
      <trkpt lat="44.49598" lon="2.12013">
        <ele>331.5</ele>
        <time>2022-10-30T14:57:28.000Z</time>
      </trkpt>
      <trkpt lat="44.49589" lon="2.12013">
        <ele>332.4</ele>
        <time>2022-10-30T14:57:37.000Z</time>
      </trkpt>
      <trkpt lat="44.4958" lon="2.1201">
        <ele>333.6</ele>
        <time>2022-10-30T14:57:46.000Z</time>
      </trkpt>
      <trkpt lat="44.49571" lon="2.12006">
        <ele>335.5</ele>
        <time>2022-10-30T14:57:54.000Z</time>
      </trkpt>
      <trkpt lat="44.49561" lon="2.12004">
        <ele>336.7</ele>
        <time>2022-10-30T14:58:03.000Z</time>
      </trkpt>
      <trkpt lat="44.49552" lon="2.12005">
        <ele>337.7</ele>
        <time>2022-10-30T14:58:12.000Z</time>
      </trkpt>
      <trkpt lat="44.49543" lon="2.12009">
        <ele>338.5</ele>
        <time>2022-10-30T14:58:20.000Z</time>
      </trkpt>
      <trkpt lat="44.49533" lon="2.12008">
        <ele>339.5</ele>
        <time>2022-10-30T14:58:29.000Z</time>
      </trkpt>
      <trkpt lat="44.49524" lon="2.12008">
        <ele>340.4</ele>
        <time>2022-10-30T14:58:40.000Z</time>
      </trkpt>
      <trkpt lat="44.49514" lon="2.12011">
        <ele>341.8</ele>
        <time>2022-10-30T14:58:51.000Z</time>
      </trkpt>
      <trkpt lat="44.49505" lon="2.12015">
        <ele>343.1</ele>
        <time>2022-10-30T14:59:02.000Z</time>
      </trkpt>
      <trkpt lat="44.49498" lon="2.12021">
        <ele>344</ele>
        <time>2022-10-30T14:59:11.000Z</time>
      </trkpt>
      <trkpt lat="44.49489" lon="2.12026">
        <ele>345.1</ele>
        <time>2022-10-30T14:59:22.000Z</time>
      </trkpt>
      <trkpt lat="44.4948" lon="2.12032">
        <ele>345.7</ele>
        <time>2022-10-30T14:59:34.000Z</time>
      </trkpt>
      <trkpt lat="44.49471" lon="2.12031">
        <ele>348.1</ele>
        <time>2022-10-30T14:59:45.000Z</time>
      </trkpt>
      <trkpt lat="44.49462" lon="2.12038">
        <ele>350.5</ele>
        <time>2022-10-30T14:59:54.000Z</time>
      </trkpt>
      <trkpt lat="44.49456" lon="2.12048">
        <ele>352.6</ele>
        <time>2022-10-30T15:00:05.000Z</time>
      </trkpt>
      <trkpt lat="44.49446" lon="2.12049">
        <ele>354.1</ele>
        <time>2022-10-30T15:00:15.000Z</time>
      </trkpt>
      <trkpt lat="44.49436" lon="2.1205">
        <ele>356.7</ele>
        <time>2022-10-30T15:00:24.000Z</time>
      </trkpt>
      <trkpt lat="44.49426" lon="2.1205">
        <ele>358.5</ele>
        <time>2022-10-30T15:00:32.000Z</time>
      </trkpt>
      <trkpt lat="44.49417" lon="2.1205">
        <ele>359.2</ele>
        <time>2022-10-30T15:00:41.000Z</time>
      </trkpt>
      <trkpt lat="44.49407" lon="2.1205">
        <ele>360.7</ele>
        <time>2022-10-30T15:00:50.000Z</time>
      </trkpt>
      <trkpt lat="44.49398" lon="2.12052">
        <ele>361.5</ele>
        <time>2022-10-30T15:00:59.000Z</time>
      </trkpt>
      <trkpt lat="44.49388" lon="2.12048">
        <ele>363.1</ele>
        <time>2022-10-30T15:01:08.000Z</time>
      </trkpt>
      <trkpt lat="44.49379" lon="2.12048">
        <ele>364.5</ele>
        <time>2022-10-30T15:01:18.000Z</time>
      </trkpt>
      <trkpt lat="44.4937" lon="2.12049">
        <ele>366.1</ele>
        <time>2022-10-30T15:01:29.000Z</time>
      </trkpt>
      <trkpt lat="44.4936" lon="2.1205">
        <ele>366.4</ele>
        <time>2022-10-30T15:01:37.000Z</time>
      </trkpt>
      <trkpt lat="44.4935" lon="2.12047">
        <ele>367.3</ele>
        <time>2022-10-30T15:01:46.000Z</time>
      </trkpt>
      <trkpt lat="44.49341" lon="2.12046">
        <ele>368.7</ele>
        <time>2022-10-30T15:01:54.000Z</time>
      </trkpt>
      <trkpt lat="44.49331" lon="2.12046">
        <ele>370.5</ele>
        <time>2022-10-30T15:02:03.000Z</time>
      </trkpt>
      <trkpt lat="44.49322" lon="2.12047">
        <ele>371.9</ele>
        <time>2022-10-30T15:02:10.000Z</time>
      </trkpt>
      <trkpt lat="44.49313" lon="2.12049">
        <ele>373.5</ele>
        <time>2022-10-30T15:02:18.000Z</time>
      </trkpt>
      <trkpt lat="44.49304" lon="2.1205">
        <ele>376</ele>
        <time>2022-10-30T15:02:27.000Z</time>
      </trkpt>
      <trkpt lat="44.49295" lon="2.12051">
        <ele>377.6</ele>
        <time>2022-10-30T15:02:35.000Z</time>
      </trkpt>
      <trkpt lat="44.49286" lon="2.12055">
        <ele>377</ele>
        <time>2022-10-30T15:02:42.000Z</time>
      </trkpt>
      <trkpt lat="44.49277" lon="2.12059">
        <ele>376.8</ele>
        <time>2022-10-30T15:02:51.000Z</time>
      </trkpt>
      <trkpt lat="44.49268" lon="2.12063">
        <ele>378.9</ele>
        <time>2022-10-30T15:03:00.000Z</time>
      </trkpt>
      <trkpt lat="44.49258" lon="2.12063">
        <ele>380.5</ele>
        <time>2022-10-30T15:03:11.000Z</time>
      </trkpt>
      <trkpt lat="44.49249" lon="2.12068">
        <ele>381.2</ele>
        <time>2022-10-30T15:03:21.000Z</time>
      </trkpt>
      <trkpt lat="44.4924" lon="2.12073">
        <ele>380.6</ele>
        <time>2022-10-30T15:03:29.000Z</time>
      </trkpt>
      <trkpt lat="44.49232" lon="2.12078">
        <ele>381.3</ele>
        <time>2022-10-30T15:03:37.000Z</time>
      </trkpt>
      <trkpt lat="44.49224" lon="2.12084">
        <ele>381.8</ele>
        <time>2022-10-30T15:03:46.000Z</time>
      </trkpt>
      <trkpt lat="44.49217" lon="2.12094">
        <ele>382.3</ele>
        <time>2022-10-30T15:03:57.000Z</time>
      </trkpt>
      <trkpt lat="44.4921" lon="2.12103">
        <ele>384</ele>
        <time>2022-10-30T15:04:09.000Z</time>
      </trkpt>
      <trkpt lat="44.49206" lon="2.12115">
        <ele>385.5</ele>
        <time>2022-10-30T15:04:19.000Z</time>
      </trkpt>
      <trkpt lat="44.49201" lon="2.12127">
        <ele>388.5</ele>
        <time>2022-10-30T15:04:28.000Z</time>
      </trkpt>
      <trkpt lat="44.49199" lon="2.12139">
        <ele>390</ele>
        <time>2022-10-30T15:04:37.000Z</time>
      </trkpt>
      <trkpt lat="44.49196" lon="2.12151">
        <ele>390.4</ele>
        <time>2022-10-30T15:04:46.000Z</time>
      </trkpt>
      <trkpt lat="44.49194" lon="2.12164">
        <ele>390.7</ele>
        <time>2022-10-30T15:04:55.000Z</time>
      </trkpt>
      <trkpt lat="44.49191" lon="2.12176">
        <ele>391.2</ele>
        <time>2022-10-30T15:05:03.000Z</time>
      </trkpt>
      <trkpt lat="44.49188" lon="2.12188">
        <ele>392.3</ele>
        <time>2022-10-30T15:05:11.000Z</time>
      </trkpt>
      <trkpt lat="44.49184" lon="2.12201">
        <ele>392.8</ele>
        <time>2022-10-30T15:05:20.000Z</time>
      </trkpt>
      <trkpt lat="44.49181" lon="2.12212">
        <ele>393.1</ele>
        <time>2022-10-30T15:05:30.000Z</time>
      </trkpt>
      <trkpt lat="44.49176" lon="2.12223">
        <ele>394.1</ele>
        <time>2022-10-30T15:05:38.000Z</time>
      </trkpt>
      <trkpt lat="44.49172" lon="2.12235">
        <ele>396</ele>
        <time>2022-10-30T15:05:45.000Z</time>
      </trkpt>
      <trkpt lat="44.4917" lon="2.12248">
        <ele>397.2</ele>
        <time>2022-10-30T15:05:57.000Z</time>
      </trkpt>
      <trkpt lat="44.49167" lon="2.12261">
        <ele>398.3</ele>
        <time>2022-10-30T15:06:07.000Z</time>
      </trkpt>
      <trkpt lat="44.49165" lon="2.12273">
        <ele>398.8</ele>
        <time>2022-10-30T15:06:15.000Z</time>
      </trkpt>
      <trkpt lat="44.49161" lon="2.12286">
        <ele>400.3</ele>
        <time>2022-10-30T15:06:22.000Z</time>
      </trkpt>
      <trkpt lat="44.49157" lon="2.12298">
        <ele>401.2</ele>
        <time>2022-10-30T15:06:32.000Z</time>
      </trkpt>
      <trkpt lat="44.49155" lon="2.12311">
        <ele>402.6</ele>
        <time>2022-10-30T15:06:41.000Z</time>
      </trkpt>
      <trkpt lat="44.49154" lon="2.12324">
        <ele>403.9</ele>
        <time>2022-10-30T15:06:51.000Z</time>
      </trkpt>
      <trkpt lat="44.49154" lon="2.12337">
        <ele>406.8</ele>
        <time>2022-10-30T15:07:01.000Z</time>
      </trkpt>
      <trkpt lat="44.49156" lon="2.1235">
        <ele>408.9</ele>
        <time>2022-10-30T15:07:10.000Z</time>
      </trkpt>
      <trkpt lat="44.49156" lon="2.12363">
        <ele>410</ele>
        <time>2022-10-30T15:07:19.000Z</time>
      </trkpt>
      <trkpt lat="44.49155" lon="2.12377">
        <ele>411.8</ele>
        <time>2022-10-30T15:07:27.000Z</time>
      </trkpt>
      <trkpt lat="44.49155" lon="2.1239">
        <ele>412.4</ele>
        <time>2022-10-30T15:07:37.000Z</time>
      </trkpt>
      <trkpt lat="44.49155" lon="2.12391">
        <ele>412.6</ele>
        <time>2022-10-30T15:07:40.000Z</time>
      </trkpt>
      <trkpt lat="44.49155" lon="2.12391">
        <ele>412.6</ele>
        <time>2022-10-30T15:07:41.000Z</time>
      </trkpt>
      <trkpt lat="44.49155" lon="2.12391">
        <ele>412.6</ele>
        <time>2022-10-30T15:07:42.000Z</time>
      </trkpt>
      <trkpt lat="44.49155" lon="2.1239">
        <ele>412.8</ele>
        <time>2022-10-30T15:07:44.000Z</time>
      </trkpt>
      <trkpt lat="44.49156" lon="2.1239">
        <ele>414.5</ele>
        <time>2022-10-30T15:07:48.000Z</time>
      </trkpt>
      <trkpt lat="44.49156" lon="2.1239">
        <ele>414.7</ele>
        <time>2022-10-30T15:07:49.000Z</time>
      </trkpt>
      <trkpt lat="44.49156" lon="2.12389">
        <ele>414.7</ele>
        <time>2022-10-30T15:07:52.000Z</time>
      </trkpt>
      <trkpt lat="44.49156" lon="2.12389">
        <ele>414.8</ele>
        <time>2022-10-30T15:07:54.000Z</time>
      </trkpt>
      <trkpt lat="44.49156" lon="2.12389">
        <ele>414.8</ele>
        <time>2022-10-30T15:07:55.000Z</time>
      </trkpt>
      <trkpt lat="44.49156" lon="2.12389">
        <ele>414.9</ele>
        <time>2022-10-30T15:07:59.000Z</time>
      </trkpt>
      <trkpt lat="44.49156" lon="2.12389">
        <ele>415.2</ele>
        <time>2022-10-30T15:08:01.000Z</time>
      </trkpt>
      <trkpt lat="44.49156" lon="2.12389">
        <ele>415.2</ele>
        <time>2022-10-30T15:08:02.000Z</time>
      </trkpt>
      <trkpt lat="44.49156" lon="2.12389">
        <ele>415.2</ele>
        <time>2022-10-30T15:08:03.000Z</time>
      </trkpt>
      <trkpt lat="44.49156" lon="2.12389">
        <ele>415.3</ele>
        <time>2022-10-30T15:08:07.000Z</time>
      </trkpt>
      <trkpt lat="44.49156" lon="2.12389">
        <ele>415.7</ele>
        <time>2022-10-30T15:08:09.000Z</time>
      </trkpt>
      <trkpt lat="44.49156" lon="2.12389">
        <ele>415.8</ele>
        <time>2022-10-30T15:08:10.000Z</time>
      </trkpt>
      <trkpt lat="44.49156" lon="2.12389">
        <ele>415.9</ele>
        <time>2022-10-30T15:08:11.000Z</time>
      </trkpt>
      <trkpt lat="44.49155" lon="2.12389">
        <ele>416</ele>
        <time>2022-10-30T15:08:13.000Z</time>
      </trkpt>
      <trkpt lat="44.49155" lon="2.12389">
        <ele>417</ele>
        <time>2022-10-30T15:08:16.000Z</time>
      </trkpt>
      <trkpt lat="44.49155" lon="2.12389">
        <ele>417</ele>
        <time>2022-10-30T15:08:19.000Z</time>
      </trkpt>
      <trkpt lat="44.49155" lon="2.12389">
        <ele>417</ele>
        <time>2022-10-30T15:08:20.000Z</time>
      </trkpt>
      <trkpt lat="44.49155" lon="2.12389">
        <ele>417.1</ele>
        <time>2022-10-30T15:08:25.000Z</time>
      </trkpt>
      <trkpt lat="44.49154" lon="2.12389">
        <ele>417.1</ele>
        <time>2022-10-30T15:08:27.000Z</time>
      </trkpt>
      <trkpt lat="44.49154" lon="2.12389">
        <ele>417.1</ele>
        <time>2022-10-30T15:08:28.000Z</time>
      </trkpt>
      <trkpt lat="44.49154" lon="2.12389">
        <ele>417.2</ele>
        <time>2022-10-30T15:08:29.000Z</time>
      </trkpt>
      <trkpt lat="44.49154" lon="2.12389">
        <ele>417.3</ele>
        <time>2022-10-30T15:08:36.000Z</time>
      </trkpt>
      <trkpt lat="44.49153" lon="2.12391">
        <ele>417.7</ele>
        <time>2022-10-30T15:08:41.000Z</time>
      </trkpt>
      <trkpt lat="44.49153" lon="2.12391">
        <ele>417.9</ele>
        <time>2022-10-30T15:08:47.000Z</time>
      </trkpt>
      <trkpt lat="44.49154" lon="2.12391">
        <ele>418</ele>
        <time>2022-10-30T15:08:49.000Z</time>
      </trkpt>
      <trkpt lat="44.49154" lon="2.12392">
        <ele>418.1</ele>
        <time>2022-10-30T15:08:51.000Z</time>
      </trkpt>
      <trkpt lat="44.49154" lon="2.12392">
        <ele>418.2</ele>
        <time>2022-10-30T15:08:52.000Z</time>
      </trkpt>
      <trkpt lat="44.49153" lon="2.12393">
        <ele>418.3</ele>
        <time>2022-10-30T15:08:53.000Z</time>
      </trkpt>
      <trkpt lat="44.49154" lon="2.124">
        <ele>418</ele>
        <time>2022-10-30T15:09:06.000Z</time>
      </trkpt>
      <trkpt lat="44.49154" lon="2.124">
        <ele>418</ele>
        <time>2022-10-30T15:09:10.000Z</time>
      </trkpt>
      <trkpt lat="44.49154" lon="2.124">
        <ele>418</ele>
        <time>2022-10-30T15:09:11.000Z</time>
      </trkpt>
      <trkpt lat="44.49154" lon="2.124">
        <ele>418.1</ele>
        <time>2022-10-30T15:09:34.000Z</time>
      </trkpt>
      <trkpt lat="44.49154" lon="2.124">
        <ele>418.1</ele>
        <time>2022-10-30T15:09:35.000Z</time>
      </trkpt>
      <trkpt lat="44.49154" lon="2.12399">
        <ele>418</ele>
        <time>2022-10-30T15:09:36.000Z</time>
      </trkpt>
      <trkpt lat="44.49154" lon="2.12399">
        <ele>418</ele>
        <time>2022-10-30T15:09:38.000Z</time>
      </trkpt>
      <trkpt lat="44.49154" lon="2.12398">
        <ele>418</ele>
        <time>2022-10-30T15:09:53.000Z</time>
      </trkpt>
      <trkpt lat="44.49153" lon="2.12399">
        <ele>418</ele>
        <time>2022-10-30T15:09:57.000Z</time>
      </trkpt>
      <trkpt lat="44.49152" lon="2.12399">
        <ele>418</ele>
        <time>2022-10-30T15:10:01.000Z</time>
      </trkpt>
      <trkpt lat="44.49152" lon="2.12399">
        <ele>418.1</ele>
        <time>2022-10-30T15:10:02.000Z</time>
      </trkpt>
      <trkpt lat="44.49152" lon="2.12399">
        <ele>417.9</ele>
        <time>2022-10-30T15:10:05.000Z</time>
      </trkpt>
      <trkpt lat="44.49145" lon="2.12407">
        <ele>417.1</ele>
        <time>2022-10-30T15:10:15.000Z</time>
      </trkpt>
      <trkpt lat="44.49138" lon="2.12416">
        <ele>417.3</ele>
        <time>2022-10-30T15:10:26.000Z</time>
      </trkpt>
      <trkpt lat="44.49138" lon="2.12417">
        <ele>417.5</ele>
        <time>2022-10-30T15:10:28.000Z</time>
      </trkpt>
      <trkpt lat="44.49138" lon="2.12417">
        <ele>417.5</ele>
        <time>2022-10-30T15:10:32.000Z</time>
      </trkpt>
      <trkpt lat="44.49137" lon="2.12416">
        <ele>417.6</ele>
        <time>2022-10-30T15:10:35.000Z</time>
      </trkpt>
      <trkpt lat="44.49137" lon="2.12415">
        <ele>417.7</ele>
        <time>2022-10-30T15:10:47.000Z</time>
      </trkpt>
      <trkpt lat="44.49128" lon="2.12422">
        <ele>418.1</ele>
        <time>2022-10-30T15:10:59.000Z</time>
      </trkpt>
      <trkpt lat="44.4912" lon="2.1243">
        <ele>419.9</ele>
        <time>2022-10-30T15:11:07.000Z</time>
      </trkpt>
      <trkpt lat="44.49112" lon="2.12439">
        <ele>421.2</ele>
        <time>2022-10-30T15:11:16.000Z</time>
      </trkpt>
      <trkpt lat="44.49104" lon="2.12446">
        <ele>422.1</ele>
        <time>2022-10-30T15:11:26.000Z</time>
      </trkpt>
      <trkpt lat="44.49103" lon="2.12446">
        <ele>422.3</ele>
        <time>2022-10-30T15:11:29.000Z</time>
      </trkpt>
      <trkpt lat="44.49103" lon="2.12447">
        <ele>422.4</ele>
        <time>2022-10-30T15:11:32.000Z</time>
      </trkpt>
      <trkpt lat="44.49094" lon="2.12446">
        <ele>424.1</ele>
        <time>2022-10-30T15:11:42.000Z</time>
      </trkpt>
      <trkpt lat="44.49087" lon="2.12437">
        <ele>425.1</ele>
        <time>2022-10-30T15:11:52.000Z</time>
      </trkpt>
      <trkpt lat="44.49081" lon="2.12425">
        <ele>426.1</ele>
        <time>2022-10-30T15:12:02.000Z</time>
      </trkpt>
      <trkpt lat="44.49076" lon="2.12414">
        <ele>427.4</ele>
        <time>2022-10-30T15:12:11.000Z</time>
      </trkpt>
      <trkpt lat="44.4907" lon="2.12404">
        <ele>427.4</ele>
        <time>2022-10-30T15:12:19.000Z</time>
      </trkpt>
      <trkpt lat="44.49063" lon="2.12394">
        <ele>428.8</ele>
        <time>2022-10-30T15:12:28.000Z</time>
      </trkpt>
      <trkpt lat="44.49058" lon="2.12383">
        <ele>428.7</ele>
        <time>2022-10-30T15:12:37.000Z</time>
      </trkpt>
      <trkpt lat="44.49053" lon="2.12371">
        <ele>429.5</ele>
        <time>2022-10-30T15:12:46.000Z</time>
      </trkpt>
      <trkpt lat="44.49049" lon="2.12359">
        <ele>429.9</ele>
        <time>2022-10-30T15:12:55.000Z</time>
      </trkpt>
      <trkpt lat="44.49043" lon="2.12349">
        <ele>431.3</ele>
        <time>2022-10-30T15:13:03.000Z</time>
      </trkpt>
      <trkpt lat="44.49033" lon="2.12346">
        <ele>432.6</ele>
        <time>2022-10-30T15:13:13.000Z</time>
      </trkpt>
      <trkpt lat="44.49025" lon="2.1235">
        <ele>433.3</ele>
        <time>2022-10-30T15:13:23.000Z</time>
      </trkpt>
      <trkpt lat="44.49015" lon="2.12353">
        <ele>434</ele>
        <time>2022-10-30T15:13:37.000Z</time>
      </trkpt>
      <trkpt lat="44.49011" lon="2.12354">
        <ele>435.5</ele>
        <time>2022-10-30T15:13:43.000Z</time>
      </trkpt>
      <trkpt lat="44.49011" lon="2.12354">
        <ele>435.7</ele>
        <time>2022-10-30T15:13:44.000Z</time>
      </trkpt>
      <trkpt lat="44.49011" lon="2.12354">
        <ele>435.6</ele>
        <time>2022-10-30T15:13:45.000Z</time>
      </trkpt>
      <trkpt lat="44.49012" lon="2.12354">
        <ele>435.6</ele>
        <time>2022-10-30T15:13:46.000Z</time>
      </trkpt>
      <trkpt lat="44.49012" lon="2.12354">
        <ele>435.8</ele>
        <time>2022-10-30T15:13:47.000Z</time>
      </trkpt>
      <trkpt lat="44.49011" lon="2.12354">
        <ele>435.8</ele>
        <time>2022-10-30T15:13:48.000Z</time>
      </trkpt>
      <trkpt lat="44.49001" lon="2.12356">
        <ele>436.5</ele>
        <time>2022-10-30T15:13:59.000Z</time>
      </trkpt>
      <trkpt lat="44.48999" lon="2.12356">
        <ele>438.4</ele>
        <time>2022-10-30T15:14:06.000Z</time>
      </trkpt>
      <trkpt lat="44.49" lon="2.12356">
        <ele>438.6</ele>
        <time>2022-10-30T15:14:10.000Z</time>
      </trkpt>
      <trkpt lat="44.49" lon="2.12356">
        <ele>438.7</ele>
        <time>2022-10-30T15:14:11.000Z</time>
      </trkpt>
      <trkpt lat="44.48999" lon="2.12356">
        <ele>439.2</ele>
        <time>2022-10-30T15:14:18.000Z</time>
      </trkpt>
      <trkpt lat="44.4899" lon="2.12357">
        <ele>439.2</ele>
        <time>2022-10-30T15:14:30.000Z</time>
      </trkpt>
      <trkpt lat="44.48981" lon="2.12359">
        <ele>440</ele>
        <time>2022-10-30T15:14:39.000Z</time>
      </trkpt>
      <trkpt lat="44.48971" lon="2.12362">
        <ele>440.6</ele>
        <time>2022-10-30T15:14:50.000Z</time>
      </trkpt>
      <trkpt lat="44.48962" lon="2.12364">
        <ele>442.5</ele>
        <time>2022-10-30T15:15:03.000Z</time>
      </trkpt>
      <trkpt lat="44.48953" lon="2.1236">
        <ele>443</ele>
        <time>2022-10-30T15:15:13.000Z</time>
      </trkpt>
      <trkpt lat="44.48944" lon="2.12357">
        <ele>443.8</ele>
        <time>2022-10-30T15:15:24.000Z</time>
      </trkpt>
      <trkpt lat="44.48942" lon="2.12358">
        <ele>443.6</ele>
        <time>2022-10-30T15:15:30.000Z</time>
      </trkpt>
      <trkpt lat="44.48942" lon="2.12358">
        <ele>443.8</ele>
        <time>2022-10-30T15:15:40.000Z</time>
      </trkpt>
      <trkpt lat="44.48933" lon="2.12364">
        <ele>444.2</ele>
        <time>2022-10-30T15:15:51.000Z</time>
      </trkpt>
      <trkpt lat="44.48926" lon="2.12372">
        <ele>445.1</ele>
        <time>2022-10-30T15:16:00.000Z</time>
      </trkpt>
      <trkpt lat="44.48919" lon="2.12381">
        <ele>445.4</ele>
        <time>2022-10-30T15:16:10.000Z</time>
      </trkpt>
      <trkpt lat="44.48912" lon="2.12389">
        <ele>447</ele>
        <time>2022-10-30T15:16:19.000Z</time>
      </trkpt>
      <trkpt lat="44.48905" lon="2.12398">
        <ele>448.3</ele>
        <time>2022-10-30T15:16:28.000Z</time>
      </trkpt>
      <trkpt lat="44.48898" lon="2.12407">
        <ele>449.2</ele>
        <time>2022-10-30T15:16:36.000Z</time>
      </trkpt>
      <trkpt lat="44.48891" lon="2.12415">
        <ele>450.2</ele>
        <time>2022-10-30T15:16:46.000Z</time>
      </trkpt>
      <trkpt lat="44.48884" lon="2.12423">
        <ele>451.3</ele>
        <time>2022-10-30T15:16:56.000Z</time>
      </trkpt>
      <trkpt lat="44.48877" lon="2.12432">
        <ele>453.8</ele>
        <time>2022-10-30T15:17:06.000Z</time>
      </trkpt>
      <trkpt lat="44.4887" lon="2.12441">
        <ele>455.2</ele>
        <time>2022-10-30T15:17:16.000Z</time>
      </trkpt>
      <trkpt lat="44.48864" lon="2.1245">
        <ele>456.5</ele>
        <time>2022-10-30T15:17:26.000Z</time>
      </trkpt>
      <trkpt lat="44.48857" lon="2.12459">
        <ele>457.7</ele>
        <time>2022-10-30T15:17:37.000Z</time>
      </trkpt>
      <trkpt lat="44.48851" lon="2.12469">
        <ele>457.5</ele>
        <time>2022-10-30T15:17:47.000Z</time>
      </trkpt>
      <trkpt lat="44.48845" lon="2.12479">
        <ele>458.7</ele>
        <time>2022-10-30T15:17:56.000Z</time>
      </trkpt>
      <trkpt lat="44.48839" lon="2.1249">
        <ele>460</ele>
        <time>2022-10-30T15:18:05.000Z</time>
      </trkpt>
      <trkpt lat="44.48834" lon="2.12501">
        <ele>461.4</ele>
        <time>2022-10-30T15:18:15.000Z</time>
      </trkpt>
      <trkpt lat="44.48828" lon="2.12512">
        <ele>463.3</ele>
        <time>2022-10-30T15:18:25.000Z</time>
      </trkpt>
      <trkpt lat="44.48822" lon="2.12523">
        <ele>464.1</ele>
        <time>2022-10-30T15:18:35.000Z</time>
      </trkpt>
      <trkpt lat="44.48816" lon="2.12533">
        <ele>464.6</ele>
        <time>2022-10-30T15:18:45.000Z</time>
      </trkpt>
      <trkpt lat="44.48809" lon="2.12542">
        <ele>466.1</ele>
        <time>2022-10-30T15:18:54.000Z</time>
      </trkpt>
      <trkpt lat="44.48802" lon="2.12552">
        <ele>466.8</ele>
        <time>2022-10-30T15:19:03.000Z</time>
      </trkpt>
      <trkpt lat="44.48794" lon="2.12561">
        <ele>468.1</ele>
        <time>2022-10-30T15:19:11.000Z</time>
      </trkpt>
      <trkpt lat="44.48789" lon="2.12572">
        <ele>468.8</ele>
        <time>2022-10-30T15:19:20.000Z</time>
      </trkpt>
      <trkpt lat="44.48786" lon="2.12577">
        <ele>469.7</ele>
        <time>2022-10-30T15:19:27.000Z</time>
      </trkpt>
      <trkpt lat="44.48785" lon="2.12578">
        <ele>469.6</ele>
        <time>2022-10-30T15:19:32.000Z</time>
      </trkpt>
      <trkpt lat="44.48785" lon="2.12578">
        <ele>469.5</ele>
        <time>2022-10-30T15:19:34.000Z</time>
      </trkpt>
      <trkpt lat="44.48785" lon="2.12578">
        <ele>469.5</ele>
        <time>2022-10-30T15:19:40.000Z</time>
      </trkpt>
      <trkpt lat="44.48784" lon="2.12579">
        <ele>469.5</ele>
        <time>2022-10-30T15:19:45.000Z</time>
      </trkpt>
      <trkpt lat="44.48784" lon="2.12579">
        <ele>469.5</ele>
        <time>2022-10-30T15:19:47.000Z</time>
      </trkpt>
      <trkpt lat="44.48779" lon="2.12591">
        <ele>470.2</ele>
        <time>2022-10-30T15:19:59.000Z</time>
      </trkpt>
      <trkpt lat="44.48773" lon="2.12601">
        <ele>470.3</ele>
        <time>2022-10-30T15:20:08.000Z</time>
      </trkpt>
      <trkpt lat="44.48767" lon="2.12611">
        <ele>469.8</ele>
        <time>2022-10-30T15:20:17.000Z</time>
      </trkpt>
      <trkpt lat="44.48761" lon="2.12621">
        <ele>468.1</ele>
        <time>2022-10-30T15:20:26.000Z</time>
      </trkpt>
      <trkpt lat="44.48755" lon="2.12631">
        <ele>468</ele>
        <time>2022-10-30T15:20:35.000Z</time>
      </trkpt>
      <trkpt lat="44.48749" lon="2.12641">
        <ele>466.9</ele>
        <time>2022-10-30T15:20:44.000Z</time>
      </trkpt>
      <trkpt lat="44.48743" lon="2.12651">
        <ele>466.3</ele>
        <time>2022-10-30T15:20:53.000Z</time>
      </trkpt>
      <trkpt lat="44.48737" lon="2.12661">
        <ele>466.3</ele>
        <time>2022-10-30T15:21:01.000Z</time>
      </trkpt>
      <trkpt lat="44.48731" lon="2.12671">
        <ele>466.2</ele>
        <time>2022-10-30T15:21:10.000Z</time>
      </trkpt>
      <trkpt lat="44.48725" lon="2.12683">
        <ele>467.3</ele>
        <time>2022-10-30T15:21:19.000Z</time>
      </trkpt>
      <trkpt lat="44.48721" lon="2.12691">
        <ele>467.9</ele>
        <time>2022-10-30T15:21:26.000Z</time>
      </trkpt>
      <trkpt lat="44.48721" lon="2.1269">
        <ele>468.8</ele>
        <time>2022-10-30T15:21:31.000Z</time>
      </trkpt>
      <trkpt lat="44.48724" lon="2.12685">
        <ele>469.6</ele>
        <time>2022-10-30T15:21:38.000Z</time>
      </trkpt>
      <trkpt lat="44.48725" lon="2.12684">
        <ele>469.6</ele>
        <time>2022-10-30T15:21:41.000Z</time>
      </trkpt>
      <trkpt lat="44.48725" lon="2.12684">
        <ele>469.6</ele>
        <time>2022-10-30T15:21:44.000Z</time>
      </trkpt>
      <trkpt lat="44.48725" lon="2.12683">
        <ele>469.6</ele>
        <time>2022-10-30T15:21:47.000Z</time>
      </trkpt>
      <trkpt lat="44.48725" lon="2.12682">
        <ele>469.7</ele>
        <time>2022-10-30T15:21:49.000Z</time>
      </trkpt>
      <trkpt lat="44.48725" lon="2.12682">
        <ele>469.8</ele>
        <time>2022-10-30T15:21:54.000Z</time>
      </trkpt>
      <trkpt lat="44.48719" lon="2.12692">
        <ele>469.9</ele>
        <time>2022-10-30T15:22:06.000Z</time>
      </trkpt>
      <trkpt lat="44.48718" lon="2.12694">
        <ele>470.4</ele>
        <time>2022-10-30T15:22:10.000Z</time>
      </trkpt>
      <trkpt lat="44.48718" lon="2.12695">
        <ele>470.4</ele>
        <time>2022-10-30T15:22:22.000Z</time>
      </trkpt>
      <trkpt lat="44.48714" lon="2.12708">
        <ele>471</ele>
        <time>2022-10-30T15:22:31.000Z</time>
      </trkpt>
      <trkpt lat="44.48714" lon="2.12712">
        <ele>470.5</ele>
        <time>2022-10-30T15:22:38.000Z</time>
      </trkpt>
      <trkpt lat="44.48714" lon="2.12712">
        <ele>470.4</ele>
        <time>2022-10-30T15:22:41.000Z</time>
      </trkpt>
      <trkpt lat="44.48714" lon="2.12712">
        <ele>470.4</ele>
        <time>2022-10-30T15:22:42.000Z</time>
      </trkpt>
      <trkpt lat="44.48714" lon="2.12713">
        <ele>470.3</ele>
        <time>2022-10-30T15:22:55.000Z</time>
      </trkpt>
      <trkpt lat="44.48715" lon="2.12718">
        <ele>470</ele>
        <time>2022-10-30T15:23:01.000Z</time>
      </trkpt>
      <trkpt lat="44.48715" lon="2.12718">
        <ele>470</ele>
        <time>2022-10-30T15:23:03.000Z</time>
      </trkpt>
      <trkpt lat="44.48715" lon="2.12731">
        <ele>470.1</ele>
        <time>2022-10-30T15:23:12.000Z</time>
      </trkpt>
      <trkpt lat="44.48712" lon="2.12743">
        <ele>470.2</ele>
        <time>2022-10-30T15:23:21.000Z</time>
      </trkpt>
      <trkpt lat="44.48708" lon="2.12754">
        <ele>470.2</ele>
        <time>2022-10-30T15:23:30.000Z</time>
      </trkpt>
      <trkpt lat="44.48704" lon="2.12767">
        <ele>470</ele>
        <time>2022-10-30T15:23:40.000Z</time>
      </trkpt>
      <trkpt lat="44.487" lon="2.1278">
        <ele>470.3</ele>
        <time>2022-10-30T15:23:49.000Z</time>
      </trkpt>
      <trkpt lat="44.48695" lon="2.12792">
        <ele>470.4</ele>
        <time>2022-10-30T15:24:01.000Z</time>
      </trkpt>
      <trkpt lat="44.48688" lon="2.12801">
        <ele>471</ele>
        <time>2022-10-30T15:24:09.000Z</time>
      </trkpt>
      <trkpt lat="44.48681" lon="2.12809">
        <ele>471.8</ele>
        <time>2022-10-30T15:24:17.000Z</time>
      </trkpt>
      <trkpt lat="44.48672" lon="2.12816">
        <ele>471.4</ele>
        <time>2022-10-30T15:24:27.000Z</time>
      </trkpt>
      <trkpt lat="44.48664" lon="2.12823">
        <ele>472.9</ele>
        <time>2022-10-30T15:24:34.000Z</time>
      </trkpt>
      <trkpt lat="44.48656" lon="2.12829">
        <ele>473.3</ele>
        <time>2022-10-30T15:24:42.000Z</time>
      </trkpt>
      <trkpt lat="44.48649" lon="2.12836">
        <ele>474.4</ele>
        <time>2022-10-30T15:24:50.000Z</time>
      </trkpt>
      <trkpt lat="44.48641" lon="2.12844">
        <ele>475.4</ele>
        <time>2022-10-30T15:24:58.000Z</time>
      </trkpt>
      <trkpt lat="44.48634" lon="2.12853">
        <ele>475.7</ele>
        <time>2022-10-30T15:25:06.000Z</time>
      </trkpt>
      <trkpt lat="44.48627" lon="2.12862">
        <ele>476.5</ele>
        <time>2022-10-30T15:25:14.000Z</time>
      </trkpt>
      <trkpt lat="44.4862" lon="2.12872">
        <ele>476.4</ele>
        <time>2022-10-30T15:25:23.000Z</time>
      </trkpt>
      <trkpt lat="44.48614" lon="2.12882">
        <ele>475.4</ele>
        <time>2022-10-30T15:25:32.000Z</time>
      </trkpt>
      <trkpt lat="44.48607" lon="2.12893">
        <ele>475.8</ele>
        <time>2022-10-30T15:25:40.000Z</time>
      </trkpt>
      <trkpt lat="44.48602" lon="2.12903">
        <ele>476.1</ele>
        <time>2022-10-30T15:25:49.000Z</time>
      </trkpt>
      <trkpt lat="44.48596" lon="2.12913">
        <ele>476.3</ele>
        <time>2022-10-30T15:25:57.000Z</time>
      </trkpt>
      <trkpt lat="44.4859" lon="2.12923">
        <ele>476.8</ele>
        <time>2022-10-30T15:26:06.000Z</time>
      </trkpt>
      <trkpt lat="44.48584" lon="2.12931">
        <ele>477.4</ele>
        <time>2022-10-30T15:26:14.000Z</time>
      </trkpt>
      <trkpt lat="44.48576" lon="2.12939">
        <ele>477.4</ele>
        <time>2022-10-30T15:26:22.000Z</time>
      </trkpt>
      <trkpt lat="44.48567" lon="2.12948">
        <ele>478.2</ele>
        <time>2022-10-30T15:26:30.000Z</time>
      </trkpt>
      <trkpt lat="44.4856" lon="2.12955">
        <ele>479.5</ele>
        <time>2022-10-30T15:26:38.000Z</time>
      </trkpt>
      <trkpt lat="44.48552" lon="2.12963">
        <ele>481.1</ele>
        <time>2022-10-30T15:26:46.000Z</time>
      </trkpt>
      <trkpt lat="44.48545" lon="2.1297">
        <ele>482.2</ele>
        <time>2022-10-30T15:26:54.000Z</time>
      </trkpt>
      <trkpt lat="44.48538" lon="2.12979">
        <ele>482.2</ele>
        <time>2022-10-30T15:27:02.000Z</time>
      </trkpt>
      <trkpt lat="44.48531" lon="2.12989">
        <ele>482.8</ele>
        <time>2022-10-30T15:27:10.000Z</time>
      </trkpt>
      <trkpt lat="44.48526" lon="2.13">
        <ele>483.7</ele>
        <time>2022-10-30T15:27:18.000Z</time>
      </trkpt>
      <trkpt lat="44.48521" lon="2.13012">
        <ele>484.6</ele>
        <time>2022-10-30T15:27:26.000Z</time>
      </trkpt>
      <trkpt lat="44.48516" lon="2.13024">
        <ele>485</ele>
        <time>2022-10-30T15:27:36.000Z</time>
      </trkpt>
      <trkpt lat="44.48512" lon="2.13036">
        <ele>484.6</ele>
        <time>2022-10-30T15:27:46.000Z</time>
      </trkpt>
      <trkpt lat="44.48508" lon="2.13047">
        <ele>484.3</ele>
        <time>2022-10-30T15:27:54.000Z</time>
      </trkpt>
      <trkpt lat="44.48502" lon="2.13058">
        <ele>484.7</ele>
        <time>2022-10-30T15:28:02.000Z</time>
      </trkpt>
      <trkpt lat="44.48496" lon="2.13068">
        <ele>485.6</ele>
        <time>2022-10-30T15:28:11.000Z</time>
      </trkpt>
      <trkpt lat="44.4849" lon="2.13078">
        <ele>485.9</ele>
        <time>2022-10-30T15:28:20.000Z</time>
      </trkpt>
      <trkpt lat="44.48484" lon="2.13089">
        <ele>486.3</ele>
        <time>2022-10-30T15:28:28.000Z</time>
      </trkpt>
      <trkpt lat="44.48477" lon="2.13099">
        <ele>486.5</ele>
        <time>2022-10-30T15:28:36.000Z</time>
      </trkpt>
      <trkpt lat="44.48471" lon="2.13111">
        <ele>486.4</ele>
        <time>2022-10-30T15:28:44.000Z</time>
      </trkpt>
      <trkpt lat="44.48467" lon="2.13122">
        <ele>486.5</ele>
        <time>2022-10-30T15:28:52.000Z</time>
      </trkpt>
      <trkpt lat="44.48466" lon="2.13135">
        <ele>486.3</ele>
        <time>2022-10-30T15:29:01.000Z</time>
      </trkpt>
      <trkpt lat="44.4847" lon="2.13147">
        <ele>486.6</ele>
        <time>2022-10-30T15:29:10.000Z</time>
      </trkpt>
      <trkpt lat="44.48473" lon="2.1316">
        <ele>487.3</ele>
        <time>2022-10-30T15:29:18.000Z</time>
      </trkpt>
      <trkpt lat="44.48475" lon="2.13172">
        <ele>487.9</ele>
        <time>2022-10-30T15:29:26.000Z</time>
      </trkpt>
      <trkpt lat="44.48479" lon="2.13185">
        <ele>487.8</ele>
        <time>2022-10-30T15:29:35.000Z</time>
      </trkpt>
      <trkpt lat="44.48482" lon="2.13198">
        <ele>488.5</ele>
        <time>2022-10-30T15:29:43.000Z</time>
      </trkpt>
      <trkpt lat="44.48486" lon="2.13211">
        <ele>488.5</ele>
        <time>2022-10-30T15:29:51.000Z</time>
      </trkpt>
      <trkpt lat="44.48489" lon="2.13224">
        <ele>489</ele>
        <time>2022-10-30T15:29:59.000Z</time>
      </trkpt>
      <trkpt lat="44.48491" lon="2.13237">
        <ele>489.1</ele>
        <time>2022-10-30T15:30:08.000Z</time>
      </trkpt>
      <trkpt lat="44.48493" lon="2.13251">
        <ele>488</ele>
        <time>2022-10-30T15:30:17.000Z</time>
      </trkpt>
      <trkpt lat="44.48494" lon="2.13265">
        <ele>488.2</ele>
        <time>2022-10-30T15:30:25.000Z</time>
      </trkpt>
      <trkpt lat="44.48494" lon="2.13279">
        <ele>488.9</ele>
        <time>2022-10-30T15:30:34.000Z</time>
      </trkpt>
      <trkpt lat="44.48496" lon="2.13293">
        <ele>489.8</ele>
        <time>2022-10-30T15:30:43.000Z</time>
      </trkpt>
      <trkpt lat="44.48497" lon="2.13307">
        <ele>491.2</ele>
        <time>2022-10-30T15:30:52.000Z</time>
      </trkpt>
      <trkpt lat="44.48497" lon="2.1332">
        <ele>491.2</ele>
        <time>2022-10-30T15:31:01.000Z</time>
      </trkpt>
      <trkpt lat="44.48499" lon="2.13332">
        <ele>491.1</ele>
        <time>2022-10-30T15:31:09.000Z</time>
      </trkpt>
      <trkpt lat="44.48501" lon="2.13346">
        <ele>491.5</ele>
        <time>2022-10-30T15:31:18.000Z</time>
      </trkpt>
      <trkpt lat="44.48503" lon="2.13358">
        <ele>492.3</ele>
        <time>2022-10-30T15:31:26.000Z</time>
      </trkpt>
      <trkpt lat="44.48507" lon="2.1337">
        <ele>492.2</ele>
        <time>2022-10-30T15:31:35.000Z</time>
      </trkpt>
      <trkpt lat="44.4851" lon="2.13383">
        <ele>493</ele>
        <time>2022-10-30T15:31:44.000Z</time>
      </trkpt>
      <trkpt lat="44.48513" lon="2.13396">
        <ele>493.1</ele>
        <time>2022-10-30T15:31:53.000Z</time>
      </trkpt>
      <trkpt lat="44.48517" lon="2.13409">
        <ele>493.7</ele>
        <time>2022-10-30T15:32:04.000Z</time>
      </trkpt>
      <trkpt lat="44.48521" lon="2.1342">
        <ele>493.3</ele>
        <time>2022-10-30T15:32:13.000Z</time>
      </trkpt>
      <trkpt lat="44.48525" lon="2.13433">
        <ele>493</ele>
        <time>2022-10-30T15:32:23.000Z</time>
      </trkpt>
      <trkpt lat="44.48529" lon="2.13446">
        <ele>493.2</ele>
        <time>2022-10-30T15:32:31.000Z</time>
      </trkpt>
      <trkpt lat="44.48532" lon="2.13458">
        <ele>493.8</ele>
        <time>2022-10-30T15:32:39.000Z</time>
      </trkpt>
      <trkpt lat="44.48535" lon="2.1347">
        <ele>494.3</ele>
        <time>2022-10-30T15:32:47.000Z</time>
      </trkpt>
      <trkpt lat="44.48539" lon="2.13481">
        <ele>494.2</ele>
        <time>2022-10-30T15:32:55.000Z</time>
      </trkpt>
      <trkpt lat="44.48543" lon="2.13493">
        <ele>494.2</ele>
        <time>2022-10-30T15:33:04.000Z</time>
      </trkpt>
      <trkpt lat="44.48547" lon="2.13504">
        <ele>495</ele>
        <time>2022-10-30T15:33:12.000Z</time>
      </trkpt>
      <trkpt lat="44.48551" lon="2.13517">
        <ele>495.6</ele>
        <time>2022-10-30T15:33:21.000Z</time>
      </trkpt>
      <trkpt lat="44.48555" lon="2.13529">
        <ele>495.8</ele>
        <time>2022-10-30T15:33:30.000Z</time>
      </trkpt>
      <trkpt lat="44.48558" lon="2.13541">
        <ele>496</ele>
        <time>2022-10-30T15:33:38.000Z</time>
      </trkpt>
      <trkpt lat="44.4856" lon="2.13555">
        <ele>496.5</ele>
        <time>2022-10-30T15:33:47.000Z</time>
      </trkpt>
      <trkpt lat="44.48563" lon="2.13567">
        <ele>496.7</ele>
        <time>2022-10-30T15:33:56.000Z</time>
      </trkpt>
      <trkpt lat="44.48565" lon="2.13577">
        <ele>496.9</ele>
        <time>2022-10-30T15:34:04.000Z</time>
      </trkpt>
      <trkpt lat="44.48565" lon="2.13577">
        <ele>496.9</ele>
        <time>2022-10-30T15:34:16.000Z</time>
      </trkpt>
      <trkpt lat="44.48566" lon="2.13579">
        <ele>496.9</ele>
        <time>2022-10-30T15:34:19.000Z</time>
      </trkpt>
      <trkpt lat="44.48565" lon="2.13579">
        <ele>497</ele>
        <time>2022-10-30T15:34:22.000Z</time>
      </trkpt>
      <trkpt lat="44.48567" lon="2.13592">
        <ele>497.6</ele>
        <time>2022-10-30T15:34:33.000Z</time>
      </trkpt>
      <trkpt lat="44.4857" lon="2.13605">
        <ele>497.6</ele>
        <time>2022-10-30T15:34:43.000Z</time>
      </trkpt>
      <trkpt lat="44.48572" lon="2.13618">
        <ele>497.2</ele>
        <time>2022-10-30T15:34:52.000Z</time>
      </trkpt>
      <trkpt lat="44.48574" lon="2.13631">
        <ele>497.3</ele>
        <time>2022-10-30T15:35:02.000Z</time>
      </trkpt>
      <trkpt lat="44.48577" lon="2.13644">
        <ele>497.4</ele>
        <time>2022-10-30T15:35:10.000Z</time>
      </trkpt>
      <trkpt lat="44.48579" lon="2.13656">
        <ele>498.1</ele>
        <time>2022-10-30T15:35:18.000Z</time>
      </trkpt>
      <trkpt lat="44.48582" lon="2.13668">
        <ele>498.6</ele>
        <time>2022-10-30T15:35:26.000Z</time>
      </trkpt>
      <trkpt lat="44.48587" lon="2.1368">
        <ele>498.8</ele>
        <time>2022-10-30T15:35:35.000Z</time>
      </trkpt>
      <trkpt lat="44.48592" lon="2.13685">
        <ele>498.7</ele>
        <time>2022-10-30T15:35:42.000Z</time>
      </trkpt>
      <trkpt lat="44.48592" lon="2.13686">
        <ele>498.9</ele>
        <time>2022-10-30T15:35:49.000Z</time>
      </trkpt>
      <trkpt lat="44.48601" lon="2.1369">
        <ele>500</ele>
        <time>2022-10-30T15:36:02.000Z</time>
      </trkpt>
      <trkpt lat="44.4861" lon="2.13696">
        <ele>500</ele>
        <time>2022-10-30T15:36:12.000Z</time>
      </trkpt>
      <trkpt lat="44.48619" lon="2.137">
        <ele>500.4</ele>
        <time>2022-10-30T15:36:21.000Z</time>
      </trkpt>
      <trkpt lat="44.48627" lon="2.13703">
        <ele>500.8</ele>
        <time>2022-10-30T15:36:30.000Z</time>
      </trkpt>
      <trkpt lat="44.48631" lon="2.13699">
        <ele>500.5</ele>
        <time>2022-10-30T15:36:38.000Z</time>
      </trkpt>
      <trkpt lat="44.4863" lon="2.13699">
        <ele>500.5</ele>
        <time>2022-10-30T15:36:47.000Z</time>
      </trkpt>
      <trkpt lat="44.48629" lon="2.13697">
        <ele>500.2</ele>
        <time>2022-10-30T15:36:52.000Z</time>
      </trkpt>
      <trkpt lat="44.48629" lon="2.13697">
        <ele>500.3</ele>
        <time>2022-10-30T15:36:57.000Z</time>
      </trkpt>
      <trkpt lat="44.48629" lon="2.13697">
        <ele>500.3</ele>
        <time>2022-10-30T15:36:58.000Z</time>
      </trkpt>
      <trkpt lat="44.48629" lon="2.13697">
        <ele>500.3</ele>
        <time>2022-10-30T15:36:59.000Z</time>
      </trkpt>
      <trkpt lat="44.48629" lon="2.13697">
        <ele>500.3</ele>
        <time>2022-10-30T15:37:00.000Z</time>
      </trkpt>
      <trkpt lat="44.48629" lon="2.13698">
        <ele>500.3</ele>
        <time>2022-10-30T15:37:03.000Z</time>
      </trkpt>
      <trkpt lat="44.48631" lon="2.13704">
        <ele>500.7</ele>
        <time>2022-10-30T15:37:11.000Z</time>
      </trkpt>
      <trkpt lat="44.48631" lon="2.13704">
        <ele>500.8</ele>
        <time>2022-10-30T15:37:13.000Z</time>
      </trkpt>
      <trkpt lat="44.48631" lon="2.13704">
        <ele>500.7</ele>
        <time>2022-10-30T15:37:15.000Z</time>
      </trkpt>
      <trkpt lat="44.48631" lon="2.13704">
        <ele>500.7</ele>
        <time>2022-10-30T15:37:16.000Z</time>
      </trkpt>
      <trkpt lat="44.48633" lon="2.13705">
        <ele>500.7</ele>
        <time>2022-10-30T15:37:24.000Z</time>
      </trkpt>
      <trkpt lat="44.48633" lon="2.13705">
        <ele>500.9</ele>
        <time>2022-10-30T15:37:36.000Z</time>
      </trkpt>
      <trkpt lat="44.48635" lon="2.13706">
        <ele>500.9</ele>
        <time>2022-10-30T15:37:40.000Z</time>
      </trkpt>
      <trkpt lat="44.48635" lon="2.13707">
        <ele>501</ele>
        <time>2022-10-30T15:37:42.000Z</time>
      </trkpt>
      <trkpt lat="44.48644" lon="2.13712">
        <ele>501.3</ele>
        <time>2022-10-30T15:37:50.000Z</time>
      </trkpt>
      <trkpt lat="44.48653" lon="2.13716">
        <ele>501.1</ele>
        <time>2022-10-30T15:38:00.000Z</time>
      </trkpt>
      <trkpt lat="44.48653" lon="2.13716">
        <ele>501.1</ele>
        <time>2022-10-30T15:38:01.000Z</time>
      </trkpt>
      <trkpt lat="44.48663" lon="2.13718">
        <ele>499.7</ele>
        <time>2022-10-30T15:38:13.000Z</time>
      </trkpt>
      <trkpt lat="44.48672" lon="2.13721">
        <ele>499.8</ele>
        <time>2022-10-30T15:38:20.000Z</time>
      </trkpt>
      <trkpt lat="44.48682" lon="2.13724">
        <ele>499.9</ele>
        <time>2022-10-30T15:38:27.000Z</time>
      </trkpt>
      <trkpt lat="44.48691" lon="2.13728">
        <ele>499.7</ele>
        <time>2022-10-30T15:38:34.000Z</time>
      </trkpt>
      <trkpt lat="44.487" lon="2.13731">
        <ele>499.5</ele>
        <time>2022-10-30T15:38:41.000Z</time>
      </trkpt>
      <trkpt lat="44.48709" lon="2.13736">
        <ele>498.9</ele>
        <time>2022-10-30T15:38:48.000Z</time>
      </trkpt>
      <trkpt lat="44.48718" lon="2.1374">
        <ele>498.1</ele>
        <time>2022-10-30T15:38:55.000Z</time>
      </trkpt>
      <trkpt lat="44.48728" lon="2.13742">
        <ele>497.7</ele>
        <time>2022-10-30T15:39:02.000Z</time>
      </trkpt>
      <trkpt lat="44.48737" lon="2.13746">
        <ele>496.5</ele>
        <time>2022-10-30T15:39:09.000Z</time>
      </trkpt>
      <trkpt lat="44.48747" lon="2.13751">
        <ele>495.8</ele>
        <time>2022-10-30T15:39:17.000Z</time>
      </trkpt>
      <trkpt lat="44.48756" lon="2.13754">
        <ele>494.9</ele>
        <time>2022-10-30T15:39:24.000Z</time>
      </trkpt>
      <trkpt lat="44.48765" lon="2.13758">
        <ele>494.6</ele>
        <time>2022-10-30T15:39:31.000Z</time>
      </trkpt>
      <trkpt lat="44.48774" lon="2.13761">
        <ele>494.4</ele>
        <time>2022-10-30T15:39:38.000Z</time>
      </trkpt>
      <trkpt lat="44.48783" lon="2.13765">
        <ele>493.9</ele>
        <time>2022-10-30T15:39:44.000Z</time>
      </trkpt>
      <trkpt lat="44.48792" lon="2.13768">
        <ele>490.5</ele>
        <time>2022-10-30T15:39:52.000Z</time>
      </trkpt>
      <trkpt lat="44.48796" lon="2.13769">
        <ele>490.1</ele>
        <time>2022-10-30T15:39:57.000Z</time>
      </trkpt>
      <trkpt lat="44.48796" lon="2.13769">
        <ele>490</ele>
        <time>2022-10-30T15:39:58.000Z</time>
      </trkpt>
      <trkpt lat="44.48805" lon="2.13771">
        <ele>489.3</ele>
        <time>2022-10-30T15:40:04.000Z</time>
      </trkpt>
      <trkpt lat="44.48814" lon="2.13772">
        <ele>488.8</ele>
        <time>2022-10-30T15:40:10.000Z</time>
      </trkpt>
      <trkpt lat="44.48824" lon="2.13773">
        <ele>488.6</ele>
        <time>2022-10-30T15:40:17.000Z</time>
      </trkpt>
      <trkpt lat="44.48833" lon="2.1377">
        <ele>488.7</ele>
        <time>2022-10-30T15:40:28.000Z</time>
      </trkpt>
      <trkpt lat="44.48844" lon="2.13769">
        <ele>487.7</ele>
        <time>2022-10-30T15:40:38.000Z</time>
      </trkpt>
      <trkpt lat="44.48853" lon="2.13767">
        <ele>487.6</ele>
        <time>2022-10-30T15:40:44.000Z</time>
      </trkpt>
      <trkpt lat="44.48861" lon="2.13761">
        <ele>486.8</ele>
        <time>2022-10-30T15:40:51.000Z</time>
      </trkpt>
      <trkpt lat="44.4887" lon="2.13757">
        <ele>486.6</ele>
        <time>2022-10-30T15:40:58.000Z</time>
      </trkpt>
      <trkpt lat="44.4888" lon="2.13755">
        <ele>487</ele>
        <time>2022-10-30T15:41:06.000Z</time>
      </trkpt>
      <trkpt lat="44.48889" lon="2.13754">
        <ele>487.5</ele>
        <time>2022-10-30T15:41:15.000Z</time>
      </trkpt>
      <trkpt lat="44.48899" lon="2.13752">
        <ele>487.9</ele>
        <time>2022-10-30T15:41:22.000Z</time>
      </trkpt>
      <trkpt lat="44.48908" lon="2.13751">
        <ele>488.3</ele>
        <time>2022-10-30T15:41:30.000Z</time>
      </trkpt>
      <trkpt lat="44.48918" lon="2.13748">
        <ele>488</ele>
        <time>2022-10-30T15:41:39.000Z</time>
      </trkpt>
      <trkpt lat="44.48927" lon="2.13747">
        <ele>487.8</ele>
        <time>2022-10-30T15:41:45.000Z</time>
      </trkpt>
      <trkpt lat="44.48936" lon="2.13744">
        <ele>488.1</ele>
        <time>2022-10-30T15:41:52.000Z</time>
      </trkpt>
      <trkpt lat="44.48945" lon="2.13742">
        <ele>488.5</ele>
        <time>2022-10-30T15:41:59.000Z</time>
      </trkpt>
      <trkpt lat="44.48955" lon="2.13738">
        <ele>488.4</ele>
        <time>2022-10-30T15:42:07.000Z</time>
      </trkpt>
      <trkpt lat="44.48963" lon="2.13734">
        <ele>488.1</ele>
        <time>2022-10-30T15:42:14.000Z</time>
      </trkpt>
      <trkpt lat="44.48973" lon="2.13731">
        <ele>487.9</ele>
        <time>2022-10-30T15:42:22.000Z</time>
      </trkpt>
      <trkpt lat="44.48982" lon="2.13726">
        <ele>487.7</ele>
        <time>2022-10-30T15:42:29.000Z</time>
      </trkpt>
      <trkpt lat="44.48986" lon="2.13723">
        <ele>487.6</ele>
        <time>2022-10-30T15:42:36.000Z</time>
      </trkpt>
      <trkpt lat="44.48987" lon="2.13722">
        <ele>487.6</ele>
        <time>2022-10-30T15:42:37.000Z</time>
      </trkpt>
      <trkpt lat="44.48996" lon="2.13718">
        <ele>488.2</ele>
        <time>2022-10-30T15:42:43.000Z</time>
      </trkpt>
      <trkpt lat="44.49005" lon="2.13714">
        <ele>488.3</ele>
        <time>2022-10-30T15:42:50.000Z</time>
      </trkpt>
      <trkpt lat="44.49015" lon="2.13708">
        <ele>488</ele>
        <time>2022-10-30T15:42:57.000Z</time>
      </trkpt>
      <trkpt lat="44.49023" lon="2.13704">
        <ele>487</ele>
        <time>2022-10-30T15:43:04.000Z</time>
      </trkpt>
      <trkpt lat="44.49032" lon="2.13699">
        <ele>485.7</ele>
        <time>2022-10-30T15:43:11.000Z</time>
      </trkpt>
      <trkpt lat="44.49041" lon="2.13691">
        <ele>485</ele>
        <time>2022-10-30T15:43:18.000Z</time>
      </trkpt>
      <trkpt lat="44.49049" lon="2.13685">
        <ele>484.6</ele>
        <time>2022-10-30T15:43:24.000Z</time>
      </trkpt>
      <trkpt lat="44.49057" lon="2.13677">
        <ele>484.2</ele>
        <time>2022-10-30T15:43:31.000Z</time>
      </trkpt>
      <trkpt lat="44.49064" lon="2.13669">
        <ele>483.6</ele>
        <time>2022-10-30T15:43:38.000Z</time>
      </trkpt>
      <trkpt lat="44.49072" lon="2.13662">
        <ele>483.3</ele>
        <time>2022-10-30T15:43:45.000Z</time>
      </trkpt>
      <trkpt lat="44.4908" lon="2.13656">
        <ele>483.1</ele>
        <time>2022-10-30T15:43:53.000Z</time>
      </trkpt>
      <trkpt lat="44.49089" lon="2.13648">
        <ele>482.6</ele>
        <time>2022-10-30T15:44:07.000Z</time>
      </trkpt>
      <trkpt lat="44.49098" lon="2.13645">
        <ele>481.6</ele>
        <time>2022-10-30T15:44:13.000Z</time>
      </trkpt>
      <trkpt lat="44.49107" lon="2.1364">
        <ele>481.5</ele>
        <time>2022-10-30T15:44:20.000Z</time>
      </trkpt>
      <trkpt lat="44.49116" lon="2.13638">
        <ele>479.6</ele>
        <time>2022-10-30T15:44:28.000Z</time>
      </trkpt>
      <trkpt lat="44.49125" lon="2.13637">
        <ele>479.1</ele>
        <time>2022-10-30T15:44:36.000Z</time>
      </trkpt>
      <trkpt lat="44.49134" lon="2.13637">
        <ele>477.9</ele>
        <time>2022-10-30T15:44:43.000Z</time>
      </trkpt>
      <trkpt lat="44.49144" lon="2.13636">
        <ele>478.1</ele>
        <time>2022-10-30T15:44:49.000Z</time>
      </trkpt>
      <trkpt lat="44.49153" lon="2.13635">
        <ele>478</ele>
        <time>2022-10-30T15:44:55.000Z</time>
      </trkpt>
      <trkpt lat="44.49162" lon="2.13634">
        <ele>477.4</ele>
        <time>2022-10-30T15:45:01.000Z</time>
      </trkpt>
      <trkpt lat="44.49172" lon="2.13634">
        <ele>477.5</ele>
        <time>2022-10-30T15:45:08.000Z</time>
      </trkpt>
      <trkpt lat="44.49182" lon="2.13632">
        <ele>477.6</ele>
        <time>2022-10-30T15:45:15.000Z</time>
      </trkpt>
      <trkpt lat="44.49191" lon="2.1363">
        <ele>477.1</ele>
        <time>2022-10-30T15:45:22.000Z</time>
      </trkpt>
      <trkpt lat="44.49201" lon="2.13626">
        <ele>477.1</ele>
        <time>2022-10-30T15:45:29.000Z</time>
      </trkpt>
      <trkpt lat="44.49211" lon="2.13623">
        <ele>477.2</ele>
        <time>2022-10-30T15:45:36.000Z</time>
      </trkpt>
      <trkpt lat="44.49221" lon="2.13624">
        <ele>477.5</ele>
        <time>2022-10-30T15:45:43.000Z</time>
      </trkpt>
      <trkpt lat="44.49227" lon="2.13634">
        <ele>476.4</ele>
        <time>2022-10-30T15:45:50.000Z</time>
      </trkpt>
      <trkpt lat="44.49232" lon="2.13646">
        <ele>476.2</ele>
        <time>2022-10-30T15:45:56.000Z</time>
      </trkpt>
      <trkpt lat="44.49238" lon="2.13655">
        <ele>476.3</ele>
        <time>2022-10-30T15:46:01.000Z</time>
      </trkpt>
      <trkpt lat="44.49242" lon="2.13667">
        <ele>477</ele>
        <time>2022-10-30T15:46:07.000Z</time>
      </trkpt>
      <trkpt lat="44.49246" lon="2.13679">
        <ele>476.7</ele>
        <time>2022-10-30T15:46:14.000Z</time>
      </trkpt>
      <trkpt lat="44.49251" lon="2.13691">
        <ele>476.3</ele>
        <time>2022-10-30T15:46:21.000Z</time>
      </trkpt>
      <trkpt lat="44.49252" lon="2.13704">
        <ele>474.5</ele>
        <time>2022-10-30T15:46:28.000Z</time>
      </trkpt>
      <trkpt lat="44.49255" lon="2.13716">
        <ele>473.3</ele>
        <time>2022-10-30T15:46:35.000Z</time>
      </trkpt>
      <trkpt lat="44.49258" lon="2.13729">
        <ele>471.2</ele>
        <time>2022-10-30T15:46:41.000Z</time>
      </trkpt>
      <trkpt lat="44.4926" lon="2.13741">
        <ele>469.2</ele>
        <time>2022-10-30T15:46:48.000Z</time>
      </trkpt>
      <trkpt lat="44.49263" lon="2.13753">
        <ele>467.7</ele>
        <time>2022-10-30T15:46:54.000Z</time>
      </trkpt>
      <trkpt lat="44.49266" lon="2.13768">
        <ele>466.1</ele>
        <time>2022-10-30T15:47:01.000Z</time>
      </trkpt>
      <trkpt lat="44.49267" lon="2.1378">
        <ele>465.3</ele>
        <time>2022-10-30T15:47:07.000Z</time>
      </trkpt>
      <trkpt lat="44.49268" lon="2.13795">
        <ele>463.7</ele>
        <time>2022-10-30T15:47:14.000Z</time>
      </trkpt>
      <trkpt lat="44.49269" lon="2.13809">
        <ele>462.3</ele>
        <time>2022-10-30T15:47:21.000Z</time>
      </trkpt>
      <trkpt lat="44.49273" lon="2.1382">
        <ele>461.5</ele>
        <time>2022-10-30T15:47:27.000Z</time>
      </trkpt>
      <trkpt lat="44.49281" lon="2.1383">
        <ele>461</ele>
        <time>2022-10-30T15:47:33.000Z</time>
      </trkpt>
      <trkpt lat="44.49291" lon="2.13833">
        <ele>459</ele>
        <time>2022-10-30T15:47:40.000Z</time>
      </trkpt>
      <trkpt lat="44.493" lon="2.13835">
        <ele>457.4</ele>
        <time>2022-10-30T15:47:47.000Z</time>
      </trkpt>
      <trkpt lat="44.4931" lon="2.13841">
        <ele>455.9</ele>
        <time>2022-10-30T15:47:54.000Z</time>
      </trkpt>
      <trkpt lat="44.49318" lon="2.13847">
        <ele>455.2</ele>
        <time>2022-10-30T15:48:01.000Z</time>
      </trkpt>
      <trkpt lat="44.49327" lon="2.13854">
        <ele>454.4</ele>
        <time>2022-10-30T15:48:08.000Z</time>
      </trkpt>
      <trkpt lat="44.49335" lon="2.13862">
        <ele>454.6</ele>
        <time>2022-10-30T15:48:17.000Z</time>
      </trkpt>
      <trkpt lat="44.49344" lon="2.13869">
        <ele>454.4</ele>
        <time>2022-10-30T15:48:27.000Z</time>
      </trkpt>
      <trkpt lat="44.49352" lon="2.13873">
        <ele>453.3</ele>
        <time>2022-10-30T15:48:33.000Z</time>
      </trkpt>
      <trkpt lat="44.49361" lon="2.13881">
        <ele>452.8</ele>
        <time>2022-10-30T15:48:39.000Z</time>
      </trkpt>
      <trkpt lat="44.49369" lon="2.13888">
        <ele>452.4</ele>
        <time>2022-10-30T15:48:45.000Z</time>
      </trkpt>
      <trkpt lat="44.49377" lon="2.13895">
        <ele>452.5</ele>
        <time>2022-10-30T15:48:51.000Z</time>
      </trkpt>
      <trkpt lat="44.49384" lon="2.13904">
        <ele>452.3</ele>
        <time>2022-10-30T15:48:58.000Z</time>
      </trkpt>
      <trkpt lat="44.49388" lon="2.13916">
        <ele>451.4</ele>
        <time>2022-10-30T15:49:05.000Z</time>
      </trkpt>
      <trkpt lat="44.4939" lon="2.13929">
        <ele>451.3</ele>
        <time>2022-10-30T15:49:12.000Z</time>
      </trkpt>
      <trkpt lat="44.49391" lon="2.13943">
        <ele>451</ele>
        <time>2022-10-30T15:49:20.000Z</time>
      </trkpt>
      <trkpt lat="44.49389" lon="2.13957">
        <ele>449.6</ele>
        <time>2022-10-30T15:49:28.000Z</time>
      </trkpt>
      <trkpt lat="44.49386" lon="2.1397">
        <ele>449.4</ele>
        <time>2022-10-30T15:49:35.000Z</time>
      </trkpt>
      <trkpt lat="44.49386" lon="2.13973">
        <ele>449.1</ele>
        <time>2022-10-30T15:49:39.000Z</time>
      </trkpt>
      <trkpt lat="44.49386" lon="2.13973">
        <ele>449.1</ele>
        <time>2022-10-30T15:49:47.000Z</time>
      </trkpt>
      <trkpt lat="44.49382" lon="2.13986">
        <ele>448.9</ele>
        <time>2022-10-30T15:49:55.000Z</time>
      </trkpt>
      <trkpt lat="44.49381" lon="2.13999">
        <ele>448.8</ele>
        <time>2022-10-30T15:50:02.000Z</time>
      </trkpt>
      <trkpt lat="44.49385" lon="2.14011">
        <ele>448.1</ele>
        <time>2022-10-30T15:50:09.000Z</time>
      </trkpt>
      <trkpt lat="44.49392" lon="2.14019">
        <ele>446.7</ele>
        <time>2022-10-30T15:50:16.000Z</time>
      </trkpt>
      <trkpt lat="44.494" lon="2.14025">
        <ele>446.8</ele>
        <time>2022-10-30T15:50:23.000Z</time>
      </trkpt>
      <trkpt lat="44.49407" lon="2.14032">
        <ele>446.8</ele>
        <time>2022-10-30T15:50:29.000Z</time>
      </trkpt>
      <trkpt lat="44.49416" lon="2.14037">
        <ele>446.3</ele>
        <time>2022-10-30T15:50:36.000Z</time>
      </trkpt>
      <trkpt lat="44.49425" lon="2.14043">
        <ele>446.3</ele>
        <time>2022-10-30T15:50:42.000Z</time>
      </trkpt>
      <trkpt lat="44.49435" lon="2.14049">
        <ele>446.6</ele>
        <time>2022-10-30T15:50:49.000Z</time>
      </trkpt>
      <trkpt lat="44.49444" lon="2.14054">
        <ele>447.1</ele>
        <time>2022-10-30T15:50:56.000Z</time>
      </trkpt>
      <trkpt lat="44.49452" lon="2.1406">
        <ele>446.9</ele>
        <time>2022-10-30T15:51:03.000Z</time>
      </trkpt>
      <trkpt lat="44.4946" lon="2.14066">
        <ele>445.8</ele>
        <time>2022-10-30T15:51:10.000Z</time>
      </trkpt>
      <trkpt lat="44.49468" lon="2.14072">
        <ele>445.4</ele>
        <time>2022-10-30T15:51:17.000Z</time>
      </trkpt>
      <trkpt lat="44.49477" lon="2.1408">
        <ele>445.4</ele>
        <time>2022-10-30T15:51:24.000Z</time>
      </trkpt>
      <trkpt lat="44.49484" lon="2.1409">
        <ele>444.9</ele>
        <time>2022-10-30T15:51:31.000Z</time>
      </trkpt>
      <trkpt lat="44.49487" lon="2.14101">
        <ele>444.4</ele>
        <time>2022-10-30T15:51:38.000Z</time>
      </trkpt>
      <trkpt lat="44.49492" lon="2.14112">
        <ele>444.1</ele>
        <time>2022-10-30T15:51:46.000Z</time>
      </trkpt>
      <trkpt lat="44.49494" lon="2.14113">
        <ele>443.9</ele>
        <time>2022-10-30T15:51:50.000Z</time>
      </trkpt>
      <trkpt lat="44.49494" lon="2.14113">
        <ele>443.8</ele>
        <time>2022-10-30T15:52:01.000Z</time>
      </trkpt>
      <trkpt lat="44.49489" lon="2.14114">
        <ele>442.9</ele>
        <time>2022-10-30T15:52:07.000Z</time>
      </trkpt>
      <trkpt lat="44.49489" lon="2.14114">
        <ele>442.9</ele>
        <time>2022-10-30T15:52:09.000Z</time>
      </trkpt>
      <trkpt lat="44.49489" lon="2.14113">
        <ele>442.9</ele>
        <time>2022-10-30T15:52:11.000Z</time>
      </trkpt>
      <trkpt lat="44.49489" lon="2.14113">
        <ele>442.9</ele>
        <time>2022-10-30T15:52:16.000Z</time>
      </trkpt>
      <trkpt lat="44.49487" lon="2.14113">
        <ele>442.9</ele>
        <time>2022-10-30T15:52:21.000Z</time>
      </trkpt>
      <trkpt lat="44.49488" lon="2.14112">
        <ele>443</ele>
        <time>2022-10-30T15:52:28.000Z</time>
      </trkpt>
      <trkpt lat="44.49498" lon="2.14113">
        <ele>443</ele>
        <time>2022-10-30T15:52:36.000Z</time>
      </trkpt>
      <trkpt lat="44.49508" lon="2.14114">
        <ele>442.8</ele>
        <time>2022-10-30T15:52:42.000Z</time>
      </trkpt>
      <trkpt lat="44.49517" lon="2.14114">
        <ele>442.8</ele>
        <time>2022-10-30T15:52:48.000Z</time>
      </trkpt>
      <trkpt lat="44.49526" lon="2.14115">
        <ele>442.7</ele>
        <time>2022-10-30T15:52:55.000Z</time>
      </trkpt>
      <trkpt lat="44.49529" lon="2.14129">
        <ele>441.7</ele>
        <time>2022-10-30T15:53:02.000Z</time>
      </trkpt>
      <trkpt lat="44.49524" lon="2.14139">
        <ele>440.1</ele>
        <time>2022-10-30T15:53:08.000Z</time>
      </trkpt>
      <trkpt lat="44.49519" lon="2.1415">
        <ele>439.8</ele>
        <time>2022-10-30T15:53:14.000Z</time>
      </trkpt>
      <trkpt lat="44.49512" lon="2.14161">
        <ele>439.6</ele>
        <time>2022-10-30T15:53:21.000Z</time>
      </trkpt>
      <trkpt lat="44.49503" lon="2.14162">
        <ele>439.4</ele>
        <time>2022-10-30T15:53:29.000Z</time>
      </trkpt>
      <trkpt lat="44.49502" lon="2.14161">
        <ele>439.3</ele>
        <time>2022-10-30T15:53:31.000Z</time>
      </trkpt>
      <trkpt lat="44.49502" lon="2.14161">
        <ele>439.3</ele>
        <time>2022-10-30T15:53:31.000Z</time>
      </trkpt>
    </trkseg>
  </trk>
</gpx>